Provisional Data: Quittapahilla Creek near Syner, PA


Please select a monitoring station.
Please select start date.
Please select start date.

Toggle Unit: C/F Toggle Unit: C/F
Sample Time Temperature (C) Temperature (F) Specific Conductivity (mS/cm) pH   Turbidity (NTU+) DO (mg/L)
10/17/2022 12:00:00 AM 13.18 55.724 0.635 7.98 1.19 9.17
10/17/2022 12:15:00 AM 13.16 55.688 0.635 7.98 1.59 9.14
10/17/2022 12:30:00 AM 13.14 55.652 0.636 7.97 0.92 9.13
10/17/2022 12:45:00 AM 13.12 55.616 0.636 7.97 0.51 9.1
10/17/2022 1:00:00 AM 13.1 55.58 0.636 7.98 0.62 9.06
10/17/2022 1:15:00 AM 13.09 55.562 0.636 7.98 0.65 9.05
10/17/2022 1:30:00 AM 13.07 55.526 0.637 7.97 2.91 9.02
10/17/2022 1:45:00 AM 13.05 55.49 0.637 7.96 1.03 9.01
10/17/2022 2:00:00 AM 13.03 55.454 0.637 7.96 2.84 9.01
10/17/2022 2:15:00 AM 13.01 55.418 0.637 7.96 1.53 8.99
10/17/2022 2:30:00 AM 12.98 55.364 0.637 7.96 1.48 8.98
10/17/2022 2:45:00 AM 12.96 55.328 0.637 7.96 1.27 8.99
10/17/2022 3:00:00 AM 12.94 55.292 0.637 7.95 0.92 8.97
10/17/2022 3:15:00 AM 12.91 55.238 0.638 7.95 1.73 8.97
10/17/2022 3:30:00 AM 12.88 55.184 0.637 7.95 2.45 8.96
10/17/2022 3:45:00 AM 12.85 55.13 0.637 7.95 0.97 8.98
10/17/2022 4:00:00 AM 12.83 55.094 0.637 7.95 0.82 8.95
10/17/2022 4:15:00 AM 12.8 55.04 0.638 7.95 0.69 8.94
10/17/2022 4:30:00 AM 12.78 55.004 0.638 7.95 1.53 8.91
10/17/2022 4:45:00 AM 12.75 54.95 0.638 7.94 2.12 8.9
10/17/2022 5:00:00 AM 12.73 54.914 0.638 7.94 1.1 8.89
10/17/2022 5:15:00 AM 12.7 54.86 0.638 7.94 1.07 8.89
10/17/2022 5:30:00 AM 12.68 54.824 0.638 7.94 1.48 8.87
10/17/2022 5:45:00 AM 12.65 54.77 0.639 7.94 1.44 8.83
10/17/2022 6:00:00 AM 12.63 54.734 0.639 7.94 0.78 8.84
10/17/2022 6:15:00 AM 12.61 54.698 0.639 7.94 1.73 8.86
10/17/2022 6:30:00 AM 12.6 54.68 0.639 7.94 0.83 8.87
10/17/2022 6:45:00 AM 12.59 54.662 0.64 7.94 1.31 8.89
10/17/2022 7:00:00 AM 12.57 54.626 0.64 7.94 1.09 8.88
10/17/2022 7:15:00 AM 12.57 54.626 0.64 7.94 1.58 8.87
10/17/2022 7:30:00 AM 12.56 54.608 0.64 7.94 1.54 8.88
10/17/2022 7:45:00 AM 12.56 54.608 0.64 7.94 0.73 8.87
10/17/2022 8:00:00 AM 12.55 54.59 0.64 7.94 0.56 8.89
10/17/2022 8:15:00 AM 12.54 54.572 0.64 7.94 0.32 8.94
10/17/2022 8:30:00 AM 12.54 54.572 0.64 7.95 0.47 9.04
10/17/2022 8:45:00 AM 12.53 54.554 0.64 7.95 0.4 9.09
10/17/2022 9:00:00 AM 12.51 54.518 0.641 7.96 0.09 9.13
10/17/2022 9:15:00 AM 12.49 54.482 0.641 7.96 0.46 9.19
10/17/2022 9:30:00 AM 12.5 54.5 0.642 7.97 0.09 9.3
10/17/2022 9:45:00 AM 12.52 54.536 0.642 7.99 0.05 9.49
10/17/2022 10:00:00 AM 12.54 54.572 0.642 8.01 -0.04 9.6
10/17/2022 10:15:00 AM 12.57 54.626 0.642 8.02 0 9.72
10/17/2022 10:30:00 AM 12.61 54.698 0.642 8.03 -0.27 9.87
10/17/2022 10:45:00 AM 12.65 54.77 0.642 8.03 -0.06 10.01
10/17/2022 11:00:00 AM 12.69 54.842 0.642 8.05 0.32 10.21
10/17/2022 11:15:00 AM 12.74 54.932 0.642 8.05 -0.19 10.33
10/17/2022 11:30:00 AM 12.8 55.04 0.641 8.07 -0.29 10.54
10/17/2022 11:45:00 AM 12.87 55.166 0.641 8.08 -0.13 10.74
10/17/2022 12:00:00 PM 12.97 55.346 0.641 8.1 -0.26 11.04
10/17/2022 12:15:00 PM 13.08 55.544 0.64 8.13 -0.04 11.31
10/17/2022 12:30:00 PM 13.21 55.778 0.639 8.15 -0.42 11.65
10/17/2022 12:45:00 PM 13.27 55.886 0.639 8.17 0.13 11.78
10/17/2022 1:00:00 PM 13.29 55.922 0.639 8.17 -0.2 11.79
10/17/2022 1:15:00 PM 13.34 56.012 0.638 8.18 -0.09 11.83
10/17/2022 1:30:00 PM 13.42 56.156 0.638 8.19 -0.29 11.95
10/17/2022 1:45:00 PM 13.48 56.264 0.637 8.2 -0.44 12.1
10/17/2022 2:00:00 PM 13.51 56.318 0.637 8.2 0.42 12.06
10/17/2022 2:15:00 PM 13.52 56.336 0.637 8.2 -0.15 11.91
10/17/2022 2:30:00 PM 13.54 56.372 0.636 8.2 -0.39 11.92
10/17/2022 2:45:00 PM 13.54 56.372 0.636 8.21 -0.33 11.99
10/17/2022 3:00:00 PM 13.53 56.354 0.636 8.2 -0.1 12
10/17/2022 3:15:00 PM 13.53 56.354 0.635 8.2 -0.22 12.01
10/17/2022 3:30:00 PM 13.54 56.372 0.635 8.21 -0.04 12.05
10/17/2022 3:45:00 PM 13.54 56.372 0.634 8.22 -0.14 12.03
10/17/2022 4:00:00 PM 13.52 56.336 0.635 8.21 -0.33 11.86
10/17/2022 4:15:00 PM 13.51 56.318 0.634 8.2 -0.38 11.74
10/17/2022 4:30:00 PM 13.51 56.318 0.634 8.2 -0.2 11.68
10/17/2022 4:45:00 PM 13.51 56.318 0.634 8.2 -0.32 11.59
10/17/2022 5:00:00 PM 13.49 56.282 0.634 8.19 -0.5 11.45
10/17/2022 5:15:00 PM 13.48 56.264 0.634 8.18 -0.49 11.29
10/17/2022 5:30:00 PM 13.47 56.246 0.634 8.16 0 11.08
10/17/2022 5:45:00 PM 13.46 56.228 0.634 8.14 -0.13 10.8
10/17/2022 6:00:00 PM 13.46 56.228 0.635 8.12 -0.25 10.51
10/17/2022 6:15:00 PM 13.44 56.192 0.635 8.1 -0.48 10.3
10/17/2022 6:30:00 PM 13.42 56.156 0.636 8.08 1.07 10.02
10/17/2022 6:45:00 PM 13.4 56.12 0.636 8.06 0.14 9.72
10/17/2022 7:00:00 PM 13.36 56.048 0.637 8.04 0.4 9.47
10/17/2022 7:15:00 PM 13.33 55.994 0.637 8.04 0.33 9.29
10/17/2022 7:30:00 PM 13.3 55.94 0.637 8.03 0.25 9.08
10/17/2022 7:45:00 PM 13.28 55.904 0.638 8.03 0.65 8.93
10/17/2022 8:00:00 PM 13.25 55.85 0.638 8.02 0.22 8.9
10/17/2022 8:15:00 PM 13.22 55.796 0.638 8.02 0.52 8.82
10/17/2022 8:30:00 PM 13.18 55.724 0.638 8.01 0.3 8.77
10/17/2022 8:45:00 PM 13.15 55.67 0.638 8.01 0.41 8.67
10/17/2022 9:00:00 PM 13.12 55.616 0.638 8.01 1.19 8.7
10/17/2022 9:15:00 PM 13.08 55.544 0.639 8.01 0.57 8.68
10/17/2022 9:30:00 PM 13.04 55.472 0.638 8.01 0.65 8.64
10/17/2022 9:45:00 PM 13.01 55.418 0.638 8.01 2.33 8.6
10/17/2022 10:00:00 PM 12.97 55.346 0.639 8 0.54 8.6
10/17/2022 10:15:00 PM 12.93 55.274 0.639 8.01 0.49 8.57
10/17/2022 10:30:00 PM 12.89 55.202 0.639 8 0.2 8.54
10/17/2022 10:45:00 PM 12.86 55.148 0.638 8.01 0.21 8.53
10/17/2022 11:00:00 PM 12.84 55.112 0.638 8 0.38 8.52
10/17/2022 11:15:00 PM 12.81 55.058 0.638 8 0.51 8.5
10/17/2022 11:30:00 PM 12.79 55.022 0.638 8 0.59 8.49
10/17/2022 11:45:00 PM 12.75 54.95 0.638 8 1.63 8.47
10/18/2022 12:00:00 AM 12.71 54.878 0.639 8 0.63 8.46
10/18/2022 12:15:00 AM 12.68 54.824 0.639 7.99 0.69 8.45
10/18/2022 12:30:00 AM 12.63 54.734 0.639 7.99 1.97 8.4
10/18/2022 12:45:00 AM 12.59 54.662 0.639 7.99 1.25 8.36
10/18/2022 1:00:00 AM 12.55 54.59 0.64 7.99 0.45 8.31
10/18/2022 1:15:00 AM 12.51 54.518 0.64 7.98 0.71 8.31
10/18/2022 1:30:00 AM 12.48 54.464 0.64 7.98 0.77 8.27
10/18/2022 1:45:00 AM 12.46 54.428 0.641 7.97 0.41 8.24
10/18/2022 2:00:00 AM 12.43 54.374 0.641 7.97 0.94 8.19
10/18/2022 2:15:00 AM 12.4 54.32 0.641 7.97 0.21 8.21
10/18/2022 2:30:00 AM 12.37 54.266 0.642 7.97 0.64 8.18
10/18/2022 2:45:00 AM 12.35 54.23 0.642 7.97 0.64 8.19
10/18/2022 3:00:00 AM 12.32 54.176 0.642 7.97 0.9 8.14
10/18/2022 3:15:00 AM 12.28 54.104 0.642 7.97 1.45 8.08
10/18/2022 3:30:00 AM 12.25 54.05 0.642 7.97 0.44 8.08
10/18/2022 3:45:00 AM 12.2 53.96 0.642 7.97 0.86 8.09
10/18/2022 4:00:00 AM 12.14 53.852 0.642 7.97 0.73 8.13
10/18/2022 4:15:00 AM 12.08 53.744 0.642 7.96 1.04 8.16
10/18/2022 4:30:00 AM 12.03 53.654 0.642 7.97 0.66 8.17
10/18/2022 4:45:00 AM 11.98 53.564 0.642 7.96 0.76 8.22
10/18/2022 5:00:00 AM 11.92 53.456 0.642 7.96 0.54 8.27
10/18/2022 5:15:00 AM 11.87 53.366 0.642 7.97 0.51 8.31
10/18/2022 5:30:00 AM 11.81 53.258 0.642 7.97 0.7 8.32
10/18/2022 5:45:00 AM 11.76 53.168 0.642 7.97 0.55 8.32
10/18/2022 6:00:00 AM 11.71 53.078 0.642 7.97 1.37 8.32
10/18/2022 6:15:00 AM 11.66 52.988 0.642 7.97 0.2 8.3
10/18/2022 6:30:00 AM 11.61 52.898 0.642 7.97 0.73 8.33
10/18/2022 6:45:00 AM 11.56 52.808 0.642 7.97 0.76 8.34
10/18/2022 7:00:00 AM 11.51 52.718 0.643 7.98 0.53 8.36
10/18/2022 7:15:00 AM 11.47 52.646 0.643 7.96 0.67 8.37
10/18/2022 7:30:00 AM 11.42 52.556 0.643 7.97 0.62 8.38
10/18/2022 7:45:00 AM 11.38 52.484 0.643 7.97 0.52 8.41
10/18/2022 8:00:00 AM 11.34 52.412 0.644 7.97 1.2 8.46
10/18/2022 8:15:00 AM 11.31 52.358 0.644 7.97 0.56 8.51
10/18/2022 8:30:00 AM 11.29 52.322 0.644 7.98 1.15 8.59
10/18/2022 8:45:00 AM 11.27 52.286 0.644 7.97 0.02 8.66
10/18/2022 9:00:00 AM 11.26 52.268 0.645 7.97 -0.13 8.77
10/18/2022 9:15:00 AM 11.26 52.268 0.645 7.98 0.03 8.88
10/18/2022 9:30:00 AM 11.26 52.268 0.645 7.99 4.37 9.07
10/18/2022 9:45:00 AM 11.27 52.286 0.645 8.01 0.01 9.28
10/18/2022 10:00:00 AM 11.3 52.34 0.645 8.03 -0.03 9.58
10/18/2022 10:15:00 AM 11.33 52.394 0.645 8.05 0.04 9.83
10/18/2022 10:30:00 AM 11.39 52.502 0.644 8.06 -0.15 10.11
10/18/2022 10:45:00 AM 11.46 52.628 0.644 8.09 -0.37 10.37
10/18/2022 11:00:00 AM 11.55 52.79 0.643 8.1 -0.23 10.62
10/18/2022 11:15:00 AM 11.64 52.952 0.643 8.12 -0.28 10.83
10/18/2022 11:30:00 AM 11.75 53.15 0.642 8.14 -0.38 11.05
10/18/2022 11:45:00 AM 11.87 53.366 0.642 8.15 -0.36 11.24
10/18/2022 12:00:00 PM 11.98 53.564 0.642 8.16 0.55 11.47
10/18/2022 12:15:00 PM 12.1 53.78 0.641 8.18 -0.39 11.69
10/18/2022 12:30:00 PM 12.2 53.96 0.641 8.19 -0.29 11.91
10/18/2022 12:45:00 PM 12.27 54.086 0.64 8.21 -0.15 12.11
10/18/2022 1:00:00 PM 12.34 54.212 0.64 8.23 -0.2 12.26
10/18/2022 1:15:00 PM 12.38 54.284 0.64 8.24 -0.16 12.34
10/18/2022 1:30:00 PM 12.4 54.32 0.64 8.24 -0.46 12.45
10/18/2022 1:45:00 PM 12.44 54.392 0.639 8.25 0.7 12.56
10/18/2022 2:00:00 PM 12.52 54.536 0.639 8.26 -0.26 12.68
10/18/2022 2:15:00 PM 12.57 54.626 0.639 8.27 -0.41 12.83
10/18/2022 2:30:00 PM 12.52 54.536 0.639 8.27 -0.44 12.72
10/18/2022 2:45:00 PM 12.54 54.572 0.639 8.27 -0.32 12.7
10/18/2022 3:00:00 PM 12.63 54.734 0.638 8.28 -0.22 12.84
10/18/2022 3:15:00 PM 12.62 54.716 0.638 8.28 -0.37 12.79
10/18/2022 3:30:00 PM 12.58 54.644 0.638 8.28 0.04 12.7
10/18/2022 3:45:00 PM 12.49 54.482 0.638 8.26 -0.15 12.37
10/18/2022 4:00:00 PM 12.43 54.374 0.638 8.25 -0.17 12.2
10/18/2022 4:15:00 PM 12.39 54.302 0.638 8.24 0.36 12.03
10/18/2022 4:30:00 PM 12.38 54.284 0.638 8.24 -0.35 11.91
10/18/2022 4:45:00 PM 12.32 54.176 0.638 8.23 -0.08 11.77
10/18/2022 5:00:00 PM 12.24 54.032 0.639 8.21 0.27 11.46
10/18/2022 5:15:00 PM 12.17 53.906 0.64 8.18 0.11 11.12
10/18/2022 5:30:00 PM 12.1 53.78 0.641 8.17 0.04 10.88
10/18/2022 5:45:00 PM 12.06 53.708 0.642 8.15 -0.04 10.72
10/18/2022 6:00:00 PM 12.05 53.69 0.642 8.13 0.31 10.51
10/18/2022 6:15:00 PM 12.09 53.762 0.641 8.12 0.14 10.32
10/18/2022 6:30:00 PM 12.16 53.888 0.639 8.11 0.42 10.15
10/18/2022 6:45:00 PM 12.23 54.014 0.638 8.09 0.1 10.02
10/18/2022 7:00:00 PM 12.27 54.086 0.638 8.07 0.64 9.85
10/18/2022 7:15:00 PM 12.28 54.104 0.638 8.06 0.38 9.87
10/18/2022 7:30:00 PM 12.28 54.104 0.638 8.05 0.22 9.81
10/18/2022 7:45:00 PM 12.28 54.104 0.638 8.04 0.44 9.69
10/18/2022 8:00:00 PM 12.27 54.086 0.638 8.04 0.09 9.68
10/18/2022 8:15:00 PM 12.25 54.05 0.638 8.03 0.4 9.59
10/18/2022 8:30:00 PM 12.24 54.032 0.638 8.03 0.98 9.55
10/18/2022 8:45:00 PM 12.22 53.996 0.638 8.03 0.5 9.55
10/18/2022 9:00:00 PM 12.2 53.96 0.638 8.02 1.24 9.54
10/18/2022 9:15:00 PM 12.18 53.924 0.638 8.02 0.87 9.52
10/18/2022 9:30:00 PM 12.16 53.888 0.638 8.01 1.07 9.5
10/18/2022 9:45:00 PM 12.14 53.852 0.638 8.02 0.62 9.53
10/18/2022 10:00:00 PM 12.12 53.816 0.638 8.01 0.81 9.49
10/18/2022 10:15:00 PM 12.1 53.78 0.638 8.01 0.81 9.47
10/18/2022 10:30:00 PM 12.09 53.762 0.638 8.01 1.13 9.44
10/18/2022 10:45:00 PM 12.08 53.744 0.638 8.01 0.2 9.38
10/18/2022 11:00:00 PM 12.05 53.69 0.638 8.01 0.09 9.35
10/18/2022 11:15:00 PM 12.03 53.654 0.638 8 0.91 9.32
10/18/2022 11:30:00 PM 12 53.6 0.638 8 0.15 9.28
10/18/2022 11:45:00 PM 11.98 53.564 0.637 8.01 0.85 9.28
10/19/2022 12:00:00 AM 11.95 53.51 0.638 8 0.35 9.25
10/19/2022 12:15:00 AM 11.9 53.42 0.638 8 0.76 9.22
10/19/2022 12:30:00 AM 11.87 53.366 0.637 8 0.26 9.22
10/19/2022 12:45:00 AM 11.82 53.276 0.637 8 2.34 9.21
10/19/2022 1:00:00 AM 11.78 53.204 0.637 8 1 9.24
10/19/2022 1:15:00 AM 11.73 53.114 0.637 8 1.58 9.23
10/19/2022 1:30:00 AM 11.7 53.06 0.637 7.99 1.99 9.22
10/19/2022 1:45:00 AM 11.66 52.988 0.637 8 2.62 9.17
10/19/2022 2:00:00 AM 11.62 52.916 0.638 7.99 1.43 9.14
10/19/2022 2:15:00 AM 11.58 52.844 0.638 7.99 0.85 9.09
10/19/2022 2:30:00 AM 11.54 52.772 0.638 7.98 1.01 9.03
10/19/2022 2:45:00 AM 11.51 52.718 0.638 7.98 0.65 9.02
10/19/2022 3:00:00 AM 11.49 52.682 0.638 7.99 1.03 8.99
10/19/2022 3:15:00 AM 11.47 52.646 0.638 7.98 1.19 9
10/19/2022 3:30:00 AM 11.44 52.592 0.638 7.98 2.24 9.01
10/19/2022 3:45:00 AM 11.41 52.538 0.639 7.98 1.28 9.02
10/19/2022 4:00:00 AM 11.37 52.466 0.639 7.98 2.34 9.02
10/19/2022 4:15:00 AM 11.35 52.43 0.639 7.97 0.31 9.03
10/19/2022 4:30:00 AM 11.33 52.394 0.639 7.97 1.17 8.95
10/19/2022 4:45:00 AM 11.32 52.376 0.639 7.97 0.95 8.99
10/19/2022 5:00:00 AM 11.3 52.34 0.639 7.98 0.69 9.01
10/19/2022 5:15:00 AM 11.29 52.322 0.639 7.98 0.59 9.03
10/19/2022 5:30:00 AM 11.29 52.322 0.64 7.98 0.41 9.05
10/19/2022 5:45:00 AM 11.29 52.322 0.639 7.98 1.14 9.04
10/19/2022 6:00:00 AM 11.28 52.304 0.64 7.98 0.59 9.02
10/19/2022 6:15:00 AM 11.27 52.286 0.64 7.97 1.54 9.03
10/19/2022 6:30:00 AM 11.27 52.286 0.64 7.98 0.55 9
10/19/2022 6:45:00 AM 11.25 52.25 0.64 7.96 0.64 9.03
10/19/2022 7:00:00 AM 11.24 52.232 0.641 7.96 0.37 9.02
10/19/2022 7:15:00 AM 11.23 52.214 0.641 7.97 0.68 9.04
10/19/2022 7:30:00 AM 11.23 52.214 0.641 7.97 1.32 9.06
10/19/2022 7:45:00 AM 11.22 52.196 0.641 7.98 1.01 9.09
10/19/2022 8:00:00 AM 11.21 52.178 0.641 7.98 0.02 9.15
10/19/2022 8:15:00 AM 11.21 52.178 0.641 7.98 0.3 9.26
10/19/2022 8:30:00 AM 11.22 52.196 0.641 7.98 0.2 9.42
10/19/2022 8:45:00 AM 11.24 52.232 0.641 7.99 0.17 9.61
10/19/2022 9:00:00 AM 11.25 52.25 0.641 8 0.92 9.82
10/19/2022 9:15:00 AM 11.27 52.286 0.641 8.02 0.54 10.04
10/19/2022 9:30:00 AM 11.28 52.304 0.641 8.03 0.06 10.24
10/19/2022 9:45:00 AM 11.3 52.34 0.641 8.05 -0.2 10.41
10/19/2022 10:00:00 AM 11.34 52.412 0.64 8.07 -0.25 10.71
10/19/2022 10:15:00 AM 11.38 52.484 0.64 8.1 -0.19 10.93
10/19/2022 10:30:00 AM 11.4 52.52 0.64 8.12 1.15 11.12
10/19/2022 10:45:00 AM 11.41 52.538 0.64 8.13 -0.31 11.33
10/19/2022 11:00:00 AM 11.41 52.538 0.641 8.13 -0.34 11.42
10/19/2022 11:15:00 AM 11.42 52.556 0.641 8.14 0.23 11.5
10/19/2022 11:30:00 AM 11.48 52.664 0.641 8.16 -0.45 11.79
10/19/2022 11:45:00 AM 11.55 52.79 0.641 8.18 -0.38 11.92
10/19/2022 12:00:00 PM 11.62 52.916 0.641 8.19 0.74 12.06
10/19/2022 12:15:00 PM 11.67 53.006 0.641 8.21 -0.29 12.21
10/19/2022 12:30:00 PM 11.73 53.114 0.641 8.22 0.41 12.39
10/19/2022 12:45:00 PM 11.79 53.222 0.641 8.23 -0.26 12.54
10/19/2022 1:00:00 PM 11.84 53.312 0.64 8.23 0 12.59
10/19/2022 1:15:00 PM 11.88 53.384 0.64 8.23 -0.35 12.63
10/19/2022 1:30:00 PM 11.84 53.312 0.641 8.23 -0.08 12.49
10/19/2022 1:45:00 PM 11.76 53.168 0.641 8.21 -0.27 12.13
10/19/2022 2:00:00 PM 11.73 53.114 0.641 8.2 -0.29 11.97
10/19/2022 2:15:00 PM 11.76 53.168 0.64 8.2 0.07 12
10/19/2022 2:30:00 PM 11.8 53.24 0.64 8.21 -0.04 12.04
10/19/2022 2:45:00 PM 11.81 53.258 0.639 8.21 -0.01 11.96
10/19/2022 3:00:00 PM 11.81 53.258 0.639 8.2 -0.07 11.89
10/19/2022 3:15:00 PM 11.84 53.312 0.639 8.2 -0.2 11.93
10/19/2022 3:30:00 PM 11.86 53.348 0.638 8.2 1 11.98
10/19/2022 3:45:00 PM 11.86 53.348 0.638 8.21 -0.11 12.01
10/19/2022 4:00:00 PM 11.87 53.366 0.638 8.21 0 11.99
10/19/2022 4:15:00 PM 11.87 53.366 0.638 8.21 -0.31 11.99
10/19/2022 4:30:00 PM 11.87 53.366 0.638 8.21 -0.51 12.03
10/19/2022 4:45:00 PM 11.86 53.348 0.638 8.21 0.55 12.05
10/19/2022 5:00:00 PM 11.82 53.276 0.638 8.22 -0.27 11.95
10/19/2022 5:15:00 PM 11.78 53.204 0.638 8.21 -0.41 11.79
10/19/2022 5:30:00 PM 11.72 53.096 0.639 8.2 1.43 11.59
10/19/2022 5:45:00 PM 11.66 52.988 0.641 8.18 -0.14 11.43
10/19/2022 6:00:00 PM 11.6 52.88 0.642 8.17 -0.21 11.25
10/19/2022 6:15:00 PM 11.55 52.79 0.642 8.16 -0.3 11.05
10/19/2022 6:30:00 PM 11.5 52.7 0.643 8.13 0.32 10.82
10/19/2022 6:45:00 PM 11.46 52.628 0.644 8.11 0.34 10.6
10/19/2022 7:00:00 PM 11.42 52.556 0.644 8.1 0.19 10.45
10/19/2022 7:15:00 PM 11.4 52.52 0.645 8.1 0 10.27
10/19/2022 7:30:00 PM 11.37 52.466 0.645 8.08 0.74 10.16
10/19/2022 7:45:00 PM 11.34 52.412 0.645 8.07 0.2 10.07
10/19/2022 8:00:00 PM 11.31 52.358 0.646 8.06 0.11 9.98
10/19/2022 8:15:00 PM 11.29 52.322 0.646 8.06 0.76 9.95
10/19/2022 8:30:00 PM 11.26 52.268 0.646 8.05 0.52 9.9
10/19/2022 8:45:00 PM 11.23 52.214 0.646 8.04 0.82 9.86
10/19/2022 9:00:00 PM 11.2 52.16 0.646 8.04 0.29 9.82
10/19/2022 9:15:00 PM 11.17 52.106 0.646 8.04 0.51 9.79
10/19/2022 9:30:00 PM 11.15 52.07 0.646 8.04 0.45 9.77
10/19/2022 9:45:00 PM 11.14 52.052 0.646 8.04 0.51 9.75
10/19/2022 10:00:00 PM 11.13 52.034 0.646 8.03 0.66 9.71
10/19/2022 10:15:00 PM 11.11 51.998 0.646 8.03 0.73 9.69
10/19/2022 10:30:00 PM 11.1 51.98 0.646 8.03 1.02 9.66
10/19/2022 10:45:00 PM 11.09 51.962 0.646 8.03 0.6 9.64
10/19/2022 11:00:00 PM 11.09 51.962 0.646 8.03 1.71 9.6
10/19/2022 11:15:00 PM 11.09 51.962 0.646 8.03 3.42 9.55
10/19/2022 11:30:00 PM 11.1 51.98 0.646 8.03 0.36 9.53
10/19/2022 11:45:00 PM 11.1 51.98 0.646 8.03 0.17 9.52
10/20/2022 12:00:00 AM 11.08 51.944 0.646 8.03 0.82 9.49
10/20/2022 12:15:00 AM 11.06 51.908 0.645 8.01 0.32 9.48
10/20/2022 12:30:00 AM 11.03 51.854 0.645 8.01 0.64 9.46
10/20/2022 12:45:00 AM 11.01 51.818 0.645 8.01 0.5 9.46
10/20/2022 1:00:00 AM 10.99 51.782 0.645 8.01 0.81 9.44
10/20/2022 1:15:00 AM 10.96 51.728 0.644 8.01 0.41 9.44
10/20/2022 1:30:00 AM 10.92 51.656 0.644 8.01 0.61 9.42
10/20/2022 1:45:00 AM 10.89 51.602 0.645 8 0.62 9.42
10/20/2022 2:00:00 AM 10.85 51.53 0.645 8.01 0.55 9.41
10/20/2022 2:15:00 AM 10.81 51.458 0.645 8.01 0.55 9.4
10/20/2022 2:30:00 AM 10.77 51.386 0.645 8.01 0.36 9.39
10/20/2022 2:45:00 AM 10.74 51.332 0.645 8 1.46 9.39
10/20/2022 3:00:00 AM 10.69 51.242 0.645 8 0.74 9.38
10/20/2022 3:15:00 AM 10.66 51.188 0.645 8.01 1.89 9.37
10/20/2022 3:30:00 AM 10.62 51.116 0.645 8 1.28 9.36
10/20/2022 3:45:00 AM 10.58 51.044 0.645 8 0.83 9.37
10/20/2022 4:00:00 AM 10.54 50.972 0.645 8 1.95 9.34
10/20/2022 4:15:00 AM 10.51 50.918 0.645 8 0.91 9.34
10/20/2022 4:30:00 AM 10.48 50.864 0.646 8 0.95 9.34
10/20/2022 4:45:00 AM 10.45 50.81 0.646 7.99 1.41 9.34
10/20/2022 5:00:00 AM 10.42 50.756 0.646 7.99 1.05 9.32
10/20/2022 5:15:00 AM 10.39 50.702 0.646 8 1.94 9.34
10/20/2022 5:30:00 AM 10.36 50.648 0.647 7.99 0.73 9.32
10/20/2022 5:45:00 AM 10.33 50.594 0.647 7.99 1.08 9.34
10/20/2022 6:00:00 AM 10.3 50.54 0.647 7.99 0.73 9.32
10/20/2022 6:15:00 AM 10.26 50.468 0.648 7.98 0.77 9.34
10/20/2022 6:30:00 AM 10.22 50.396 0.648 7.99 1.28 9.34
10/20/2022 6:45:00 AM 10.18 50.324 0.648 7.99 0.26 9.35
10/20/2022 7:00:00 AM 10.14 50.252 0.648 7.99 0.54 9.35
10/20/2022 7:15:00 AM 10.1 50.18 0.648 8 0.69 9.38
10/20/2022 7:30:00 AM 10.06 50.108 0.649 7.99 0.34 9.4
10/20/2022 7:45:00 AM 10.02 50.036 0.648 7.99 0.16 9.43
10/20/2022 8:00:00 AM 9.98 49.964 0.649 8 0.29 9.45
10/20/2022 8:15:00 AM 9.95 49.91 0.649 8 0.18 9.54
10/20/2022 8:30:00 AM 9.93 49.874 0.649 8 -0.14 9.62
10/20/2022 8:45:00 AM 9.91 49.838 0.649 8.01 0.91 9.71
10/20/2022 9:00:00 AM 9.9 49.82 0.649 8.01 4.03 9.82
10/20/2022 9:15:00 AM 9.91 49.838 0.649 8.03 0.08 9.96
10/20/2022 9:30:00 AM 9.93 49.874 0.649 8.03 -0.01 10.12
10/20/2022 9:45:00 AM 9.97 49.946 0.648 8.05 -0.04 10.33
10/20/2022 10:00:00 AM 10.02 50.036 0.648 8.06 0.12 10.56
10/20/2022 10:15:00 AM 10.08 50.144 0.648 8.08 -0.02 10.81
10/20/2022 10:30:00 AM 10.16 50.288 0.648 8.1 0.07 11.06
10/20/2022 10:45:00 AM 10.24 50.432 0.647 8.11 -0.22 11.31
10/20/2022 11:00:00 AM 10.35 50.63 0.647 8.13 -0.22 11.6
10/20/2022 11:15:00 AM 10.45 50.81 0.647 8.15 -0.2 11.84
10/20/2022 11:30:00 AM 10.55 50.99 0.647 8.18 -0.08 11.97
10/20/2022 11:45:00 AM 10.69 51.242 0.646 8.2 0.04 12.23
10/20/2022 12:00:00 PM 10.85 51.53 0.646 8.22 -0.13 12.35
10/20/2022 12:15:00 PM 11 51.8 0.645 8.23 0.63 12.71
10/20/2022 12:30:00 PM 11.13 52.034 0.645 8.25 -0.21 12.82
10/20/2022 12:45:00 PM 11.25 52.25 0.645 8.26 -0.36 13.03
10/20/2022 1:00:00 PM 11.34 52.412 0.645 8.28 0.31 13.19
10/20/2022 1:15:00 PM 11.43 52.574 0.646 8.28 -0.11 13.47
10/20/2022 1:30:00 PM 11.52 52.736 0.646 8.29 -0.11 13.62
10/20/2022 1:45:00 PM 11.59 52.862 0.647 8.29 -0.01 13.7
10/20/2022 2:00:00 PM 11.64 52.952 0.647 8.3 2.58 13.77
10/20/2022 2:15:00 PM 11.67 53.006 0.648 8.31 0.14 13.83
10/20/2022 2:30:00 PM 11.69 53.042 0.648 8.31 -0.17 13.84
10/20/2022 2:45:00 PM 11.68 53.024 0.649 8.3 0.07 13.83
10/20/2022 3:00:00 PM 11.66 52.988 0.649 8.29 -0.04 13.79
10/20/2022 3:15:00 PM 11.63 52.934 0.649 8.29 -0.24 13.71
10/20/2022 3:30:00 PM 11.62 52.916 0.649 8.29 -0.09 13.57
10/20/2022 3:45:00 PM 11.6 52.88 0.648 8.29 -0.3 13.48
10/20/2022 4:00:00 PM 11.61 52.898 0.647 8.28 -0.13 13.37
10/20/2022 4:15:00 PM 11.63 52.934 0.646 8.28 0.18 13.27
10/20/2022 4:30:00 PM 11.65 52.97 0.645 8.28 -0.19 13.13
10/20/2022 4:45:00 PM 11.64 52.952 0.644 8.27 -0.25 12.97
10/20/2022 5:00:00 PM 11.6 52.88 0.644 8.27 0.29 12.76
10/20/2022 5:15:00 PM 11.56 52.808 0.644 8.25 0.01 12.51
10/20/2022 5:30:00 PM 11.5 52.7 0.644 8.24 0.7 12.32
10/20/2022 5:45:00 PM 11.45 52.61 0.644 8.22 0.6 12.04
10/20/2022 6:00:00 PM 11.4 52.52 0.644 8.2 -0.22 11.79
10/20/2022 6:15:00 PM 11.35 52.43 0.644 8.19 -0.2 11.51
10/20/2022 6:30:00 PM 11.31 52.358 0.645 8.17 0.27 11.29
10/20/2022 6:45:00 PM 11.26 52.268 0.645 8.16 0.17 11.06
10/20/2022 7:00:00 PM 11.23 52.214 0.645 8.14 1.23 10.84
10/20/2022 7:15:00 PM 11.2 52.16 0.645 8.12 0.43 10.67
10/20/2022 7:30:00 PM 11.18 52.124 0.645 8.11 0.56 10.5
10/20/2022 7:45:00 PM 11.16 52.088 0.645 8.1 0.14 10.35
10/20/2022 8:00:00 PM 11.15 52.07 0.646 8.08 0.5 10.24
10/20/2022 8:15:00 PM 11.13 52.034 0.646 8.08 0.46 10.16
10/20/2022 8:30:00 PM 11.11 51.998 0.646 8.07 0.57 10.09
10/20/2022 8:45:00 PM 11.09 51.962 0.646 8.06 4.08 10.01
10/20/2022 9:00:00 PM 11.06 51.908 0.646 8.06 0.54 9.95
10/20/2022 9:15:00 PM 11.03 51.854 0.646 8.05 0.42 9.93
10/20/2022 9:30:00 PM 11 51.8 0.645 8.05 0.39 9.9
10/20/2022 9:45:00 PM 10.96 51.728 0.645 8.05 0.61 9.83
10/20/2022 10:00:00 PM 10.92 51.656 0.645 8.05 0.54 9.8
10/20/2022 10:15:00 PM 10.89 51.602 0.645 8.04 0.02 9.77
10/20/2022 10:30:00 PM 10.85 51.53 0.645 8.05 0.49 9.74
10/20/2022 10:45:00 PM 10.81 51.458 0.645 8.05 0.31 9.72
10/20/2022 11:00:00 PM 10.78 51.404 0.645 8.04 0.32 9.7
10/20/2022 11:15:00 PM 10.74 51.332 0.645 8.04 0.51 9.66
10/20/2022 11:30:00 PM 10.72 51.296 0.645 8.03 0.41 9.63
10/20/2022 11:45:00 PM 10.69 51.242 0.645 8.02 0.45 9.63
10/21/2022 12:00:00 AM 10.67 51.206 0.645 8.02 0.36 9.59
10/21/2022 12:15:00 AM 10.65 51.17 0.645 8.03 0.24 9.58
10/21/2022 12:30:00 AM 10.63 51.134 0.645 8.01 0.46 9.54
10/21/2022 12:45:00 AM 10.61 51.098 0.644 8.01 0.7 9.54
10/21/2022 1:00:00 AM 10.58 51.044 0.644 8.01 1.09 9.54
10/21/2022 1:15:00 AM 10.54 50.972 0.644 8.01 1.14 9.51
10/21/2022 1:30:00 AM 10.51 50.918 0.644 8.01 0.32 9.47
10/21/2022 1:45:00 AM 10.48 50.864 0.644 8.01 1.12 9.43
10/21/2022 2:00:00 AM 10.46 50.828 0.644 8.01 0.69 9.46
10/21/2022 2:15:00 AM 10.43 50.774 0.644 8 0.59 9.46
10/21/2022 2:30:00 AM 10.39 50.702 0.644 8.01 0.25 9.45
10/21/2022 2:45:00 AM 10.36 50.648 0.644 8 0.39 9.46
10/21/2022 3:00:00 AM 10.32 50.576 0.636 8 0.76 9.45
10/21/2022 3:15:00 AM 10.29 50.522 0.644 8 1.32 9.46
10/21/2022 3:30:00 AM 10.25 50.45 0.644 8 1 9.45
10/21/2022 3:45:00 AM 10.22 50.396 0.644 8 1.15 9.45
10/21/2022 4:00:00 AM 10.19 50.342 0.644 8 1.33 9.45
10/21/2022 4:15:00 AM 10.16 50.288 0.644 7.99 1.26 9.45
10/21/2022 4:30:00 AM 10.13 50.234 0.645 8 0.6 9.43
10/21/2022 4:45:00 AM 10.1 50.18 0.645 7.99 0.45 9.43
10/21/2022 5:00:00 AM 10.07 50.126 0.645 7.99 1.01 9.44
10/21/2022 5:15:00 AM 10.04 50.072 0.645 7.99 0.44 9.42
10/21/2022 5:30:00 AM 10.01 50.018 0.645 7.99 0.56 9.42
10/21/2022 5:45:00 AM 9.98 49.964 0.645 7.99 0.79 9.43
10/21/2022 6:00:00 AM 9.95 49.91 0.645 7.99 0.54 9.41
10/21/2022 6:15:00 AM 9.91 49.838 0.646 8 0.65 9.43
10/21/2022 6:30:00 AM 9.88 49.784 0.645 8 0.6 9.43
10/21/2022 6:45:00 AM 9.88 49.784 0.645 8 0.6 9.43
10/21/2022 7:00:00 AM 9.88 49.784 0.645 8 0.6 9.43
10/21/2022 7:15:00 AM 9.78 49.604 0.645 7.99 0.83 9.47
10/21/2022 7:30:00 AM 9.78 49.604 0.645 7.99 0.83 9.47
10/21/2022 7:45:00 AM 9.78 49.604 0.645 7.99 0.83 9.47
10/21/2022 8:00:00 AM -99999.99 -179968 -99999.99 -99999.99 -99999.99 -99999.99
10/21/2022 8:15:00 AM -99999.99 -179968 -99999.99 -99999.99 -99999.99 -99999.99
10/21/2022 8:30:00 AM 9.65 49.37 0 7 0 0
10/21/2022 8:45:00 AM 9.63 49.334 0.644 8.01 0.04 9.79
10/21/2022 9:00:00 AM 9.63 49.334 0.644 8.03 -0.13 9.89
10/21/2022 9:15:00 AM 9.64 49.352 0.644 8.03 0.23 10.02
10/21/2022 9:30:00 AM 9.66 49.388 0.644 8.04 -0.13 10.18
10/21/2022 9:45:00 AM 9.7 49.46 0.643 8.05 -0.21 10.39
10/21/2022 10:00:00 AM 9.77 49.586 0.643 8.06 -0.23 10.64
10/21/2022 10:15:00 AM 9.85 49.73 0.643 8.07 -0.05 10.87
10/21/2022 10:30:00 AM 9.95 49.91 0.642 8.09 -0.14 11.13
10/21/2022 10:45:00 AM 10.06 50.108 0.642 8.1 -0.21 11.42
10/21/2022 11:00:00 AM 10.2 50.36 0.642 8.13 -0.18 11.65
10/21/2022 11:15:00 AM 10.33 50.594 0.641 8.15 -0.17 11.89
10/21/2022 11:30:00 AM 10.48 50.864 0.641 8.17 -0.08 12.14
10/21/2022 11:45:00 AM 10.63 51.134 0.641 8.19 -0.24 12.38
10/21/2022 12:00:00 PM 10.78 51.404 0.64 8.2 -0.39 12.59
10/21/2022 12:15:00 PM 10.94 51.692 0.64 8.22 -0.19 12.79
10/21/2022 12:30:00 PM 11.1 51.98 0.639 8.23 -0.24 12.97
10/21/2022 12:45:00 PM 11.26 52.268 0.639 8.24 -0.45 13.11
10/21/2022 1:00:00 PM 11.41 52.538 0.639 8.25 -0.36 13.29
10/21/2022 1:15:00 PM 11.54 52.772 0.639 8.26 0.15 13.4
10/21/2022 1:30:00 PM 11.67 53.006 0.639 8.27 -0.48 13.51
10/21/2022 1:45:00 PM 11.78 53.204 0.638 8.27 -0.43 13.6
10/21/2022 2:00:00 PM 11.88 53.384 0.638 8.28 0 13.68
10/21/2022 2:15:00 PM 11.95 53.51 0.638 8.28 0.06 13.7
10/21/2022 2:30:00 PM 12.02 53.636 0.638 8.29 -0.32 13.77
10/21/2022 2:45:00 PM 12.06 53.708 0.638 8.29 0.47 13.75
10/21/2022 3:00:00 PM 12.08 53.744 0.638 8.29 -0.42 13.76
10/21/2022 3:15:00 PM 12.09 53.762 0.638 8.29 -0.06 13.71
10/21/2022 3:30:00 PM 12.1 53.78 0.639 8.29 -0.18 13.67
10/21/2022 3:45:00 PM 12.08 53.744 0.639 8.29 -0.4 13.62
10/21/2022 4:00:00 PM 12.06 53.708 0.639 8.28 -0.04 13.52
10/21/2022 4:15:00 PM 12.01 53.618 0.64 8.28 -0.33 13.43
10/21/2022 4:30:00 PM 11.96 53.528 0.64 8.28 -0.26 13.32
10/21/2022 4:45:00 PM 11.9 53.42 0.64 8.27 -0.32 13.13
10/21/2022 5:00:00 PM 11.83 53.294 0.641 8.25 -0.15 12.9
10/21/2022 5:15:00 PM 11.76 53.168 0.642 8.23 -0.01 12.64
10/21/2022 5:30:00 PM 11.68 53.024 0.642 8.21 -0.06 12.35
10/21/2022 5:45:00 PM 11.6 52.88 0.643 8.19 -0.09 12.03
10/21/2022 6:00:00 PM 11.55 52.79 0.644 8.17 0.53 11.71
10/21/2022 6:15:00 PM 11.52 52.736 0.644 8.15 0.45 11.44
10/21/2022 6:30:00 PM 11.54 52.772 0.643 8.12 0.11 11.19
10/21/2022 6:45:00 PM 11.57 52.826 0.642 8.11 0.61 10.94
10/21/2022 7:00:00 PM 11.59 52.862 0.641 8.09 1.81 10.82
10/21/2022 7:15:00 PM 11.6 52.88 0.641 8.08 0.53 10.74
10/21/2022 7:30:00 PM 11.6 52.88 0.64 8.07 0.48 10.68
10/21/2022 7:45:00 PM 11.59 52.862 0.64 8.06 1.11 10.59
10/21/2022 8:00:00 PM 11.58 52.844 0.641 8.05 0.02 10.53
10/21/2022 8:15:00 PM 11.57 52.826 0.641 8.05 0.43 10.46
10/21/2022 8:30:00 PM 11.55 52.79 0.641 8.04 0.6 10.39
10/21/2022 8:45:00 PM 11.53 52.754 0.641 8.05 0.51 10.32
10/21/2022 9:00:00 PM 11.52 52.736 0.641 8.04 0.32 10.27
10/21/2022 9:15:00 PM 11.5 52.7 0.642 8.03 0.38 10.26
10/21/2022 9:30:00 PM 11.48 52.664 0.642 8.03 0.05 10.21
10/21/2022 9:45:00 PM 11.46 52.628 0.642 8.03 0.44 10.18
10/21/2022 10:00:00 PM 11.43 52.574 0.642 8.03 1.55 10.15
10/21/2022 10:15:00 PM 11.4 52.52 0.642 8.02 0.27 10.12
10/21/2022 10:30:00 PM 11.37 52.466 0.642 8.02 0.39 10.09
10/21/2022 10:45:00 PM 11.35 52.43 0.642 8.02 0.51 10.07
10/21/2022 11:00:00 PM 11.32 52.376 0.642 8.02 0.85 10.04
10/21/2022 11:15:00 PM 11.3 52.34 0.642 8.02 0.42 10.01
10/21/2022 11:30:00 PM 11.27 52.286 0.642 8.01 1.88 9.99
10/21/2022 11:45:00 PM 11.24 52.232 0.642 8.01 0.38 9.97
10/22/2022 12:00:00 AM 11.21 52.178 0.642 8 0.64 9.94
10/22/2022 12:15:00 AM 11.18 52.124 0.642 8 0.23 9.93
10/22/2022 12:30:00 AM 11.15 52.07 0.642 8 0.99 9.9
10/22/2022 12:45:00 AM 11.12 52.016 0.641 8 0.66 9.91
10/22/2022 1:00:00 AM 11.09 51.962 0.641 7.99 0.97 9.89
10/22/2022 1:15:00 AM 11.06 51.908 0.641 8 1.25 9.89
10/22/2022 1:30:00 AM 11.03 51.854 0.641 8 0.36 9.88
10/22/2022 1:45:00 AM 11 51.8 0.641 8 0.28 9.87
10/22/2022 2:00:00 AM 10.98 51.764 0.641 8.01 0.32 9.88
10/22/2022 2:15:00 AM 10.95 51.71 0.641 8 0.73 9.87
10/22/2022 2:30:00 AM 10.93 51.674 0.641 8 2.52 9.86
10/22/2022 2:45:00 AM 10.91 51.638 0.641 8.01 0.21 9.84
10/22/2022 3:00:00 AM 10.88 51.584 0.641 8 0.58 9.83
10/22/2022 3:15:00 AM 10.86 51.548 0.641 8 1.02 9.83
10/22/2022 3:30:00 AM 10.84 51.512 0.641 8 1.43 9.83
10/22/2022 3:45:00 AM 10.81 51.458 0.641 8 0.61 9.81
10/22/2022 4:00:00 AM 10.79 51.422 0.641 8 0.84 9.81
10/22/2022 4:15:00 AM 10.77 51.386 0.641 7.99 0.89 9.81
10/22/2022 4:30:00 AM 10.74 51.332 0.641 7.99 0.65 9.8
10/22/2022 4:45:00 AM 10.72 51.296 0.641 7.99 0.79 9.78
10/22/2022 5:00:00 AM 10.69 51.242 0.641 7.99 0.67 9.78
10/22/2022 5:15:00 AM 10.67 51.206 0.641 8 2.52 9.8
10/22/2022 5:30:00 AM 10.65 51.17 0.641 8 1.91 9.79
10/22/2022 5:45:00 AM 10.63 51.134 0.64 7.99 0.86 9.8
10/22/2022 6:00:00 AM 10.61 51.098 0.641 7.99 1.29 9.78
10/22/2022 6:15:00 AM 10.59 51.062 0.641 7.98 1.56 9.78
10/22/2022 6:30:00 AM 10.57 51.026 0.641 7.99 1.07 9.8
10/22/2022 6:45:00 AM 10.54 50.972 0.64 7.98 0.9 9.81
10/22/2022 7:00:00 AM 10.52 50.936 0.64 7.99 1 9.8
10/22/2022 7:15:00 AM 10.5 50.9 0.641 7.98 0.87 9.81
10/22/2022 7:30:00 AM 10.47 50.846 0.641 7.98 0.88 9.83
10/22/2022 7:45:00 AM 10.45 50.81 0.641 7.99 0.81 9.83
10/22/2022 8:00:00 AM 10.43 50.774 0.641 7.99 0.68 9.87
10/22/2022 8:15:00 AM 10.42 50.756 0.641 7.99 0.45 9.93
10/22/2022 8:30:00 AM 10.41 50.738 0.641 7.99 0.65 10.02
10/22/2022 8:45:00 AM 10.41 50.738 0.64 8 0.04 10.11
10/22/2022 9:00:00 AM 10.42 50.756 0.64 8.01 0.1 10.19
10/22/2022 9:15:00 AM 10.43 50.774 0.64 8.02 0.18 10.32
10/22/2022 9:30:00 AM 10.45 50.81 0.64 8.03 -0.04 10.47
10/22/2022 9:45:00 AM 10.5 50.9 0.64 8.04 0.27 10.66
10/22/2022 10:00:00 AM 10.55 50.99 0.639 8.05 -0.19 10.85
10/22/2022 10:15:00 AM 10.63 51.134 0.639 8.07 -0.28 11.13
10/22/2022 10:30:00 AM 10.71 51.278 0.639 8.09 0.27 11.39
10/22/2022 10:45:00 AM 10.8 51.44 0.639 8.11 1.2 11.57
10/22/2022 11:00:00 AM 10.88 51.584 0.639 8.13 -0.52 11.84
10/22/2022 11:15:00 AM 10.95 51.71 0.64 8.15 -0.33 12.02
10/22/2022 11:30:00 AM 11.03 51.854 0.64 8.16 0.06 12.25
10/22/2022 11:45:00 AM 11.14 52.052 0.641 8.18 0.24 12.45
10/22/2022 12:00:00 PM 11.27 52.286 0.641 8.2 -0.26 12.61
10/22/2022 12:15:00 PM 11.41 52.538 0.641 8.21 -0.24 12.8
10/22/2022 12:30:00 PM 11.57 52.826 0.641 8.23 0.2 12.96
10/22/2022 12:45:00 PM 11.72 53.096 0.64 8.24 -0.41 13.08
10/22/2022 1:00:00 PM 11.87 53.366 0.64 8.26 0.13 13.25
10/22/2022 1:15:00 PM 12.02 53.636 0.64 8.26 -0.05 13.36
10/22/2022 1:30:00 PM 12.16 53.888 0.64 8.27 1.13 13.46
10/22/2022 1:45:00 PM 12.27 54.086 0.64 8.28 -0.5 13.55
10/22/2022 2:00:00 PM 12.38 54.284 0.64 8.29 0.76 13.63
10/22/2022 2:15:00 PM 12.47 54.446 0.64 8.29 1.37 13.69
10/22/2022 2:30:00 PM 12.54 54.572 0.64 8.29 3.61 13.71
10/22/2022 2:45:00 PM 12.58 54.644 0.64 8.29 -0.46 13.69
10/22/2022 3:00:00 PM 12.61 54.698 0.64 8.29 -0.48 13.68
10/22/2022 3:15:00 PM 12.62 54.716 0.64 8.29 -0.23 13.67
10/22/2022 3:30:00 PM 12.62 54.716 0.64 8.28 -0.28 13.6
10/22/2022 3:45:00 PM 12.61 54.698 0.64 8.29 -0.28 13.55
10/22/2022 4:00:00 PM 12.58 54.644 0.641 8.28 -0.23 13.51
10/22/2022 4:15:00 PM 12.54 54.572 0.641 8.28 -0.28 13.38
10/22/2022 4:30:00 PM 12.49 54.482 0.641 8.28 0.13 13.25
10/22/2022 4:45:00 PM 12.43 54.374 0.642 8.26 0.3 13.06
10/22/2022 5:00:00 PM 12.37 54.266 0.642 8.25 -0.36 12.88
10/22/2022 5:15:00 PM 12.29 54.122 0.643 8.24 -0.21 12.65
10/22/2022 5:30:00 PM 12.21 53.978 0.643 8.22 -0.31 12.38
10/22/2022 5:45:00 PM 12.14 53.852 0.644 8.21 -0.28 12.09
10/22/2022 6:00:00 PM 12.08 53.744 0.644 8.18 0.01 11.85
10/22/2022 6:15:00 PM 12.02 53.636 0.645 8.17 0 11.6
10/22/2022 6:30:00 PM 11.98 53.564 0.645 8.15 3.16 11.34
10/22/2022 6:45:00 PM 11.94 53.492 0.646 8.14 -0.17 11.1
10/22/2022 7:00:00 PM 11.9 53.42 0.646 8.12 0.08 10.89
10/22/2022 7:15:00 PM 11.87 53.366 0.647 8.11 0.16 10.68
10/22/2022 7:30:00 PM 11.84 53.312 0.647 8.09 0.04 10.51
10/22/2022 7:45:00 PM 11.81 53.258 0.647 8.09 0.35 10.34
10/22/2022 8:00:00 PM 11.79 53.222 0.647 8.08 0.46 10.21
10/22/2022 8:15:00 PM 11.78 53.204 0.648 8.06 0.31 10.11
10/22/2022 8:30:00 PM 11.76 53.168 0.648 8.06 1.92 10.03
10/22/2022 8:45:00 PM 11.75 53.15 0.648 8.04 0.62 9.96
10/22/2022 9:00:00 PM 11.73 53.114 0.648 8.05 0.87 9.9
10/22/2022 9:15:00 PM 11.72 53.096 0.648 8.03 0.93 9.84
10/22/2022 9:30:00 PM 11.7 53.06 0.649 8.03 1.34 9.78
10/22/2022 9:45:00 PM 11.67 53.006 0.649 8.03 0.72 9.74
10/22/2022 10:00:00 PM 11.65 52.97 0.649 8.02 0.64 9.69
10/22/2022 10:15:00 PM 11.62 52.916 0.649 8.02 0.57 9.68
10/22/2022 10:30:00 PM 11.59 52.862 0.649 8.02 0.74 9.64
10/22/2022 10:45:00 PM 11.56 52.808 0.649 8.03 0.63 9.58
10/22/2022 11:00:00 PM 11.53 52.754 0.649 8.02 0.62 9.55
10/22/2022 11:15:00 PM 11.5 52.7 0.649 8.01 0.57 9.51
10/22/2022 11:30:00 PM 11.47 52.646 0.649 8 7.23 9.49
10/22/2022 11:45:00 PM 11.44 52.592 0.649 8 4.33 9.44
10/23/2022 12:00:00 AM 11.41 52.538 0.649 8 1.5 9.43
10/23/2022 12:15:00 AM 11.39 52.502 0.631 8 0.3 9.43
10/23/2022 12:30:00 AM 11.36 52.448 0.649 8 0.35 9.4
10/23/2022 12:45:00 AM 11.33 52.394 0.649 7.99 0.96 9.38
10/23/2022 1:00:00 AM 11.29 52.322 0.649 7.99 0.27 9.36
10/23/2022 1:15:00 AM 11.26 52.268 0.649 7.99 1.26 9.35
10/23/2022 1:30:00 AM 11.23 52.214 0.649 8 0.57 9.35
10/23/2022 1:45:00 AM 11.19 52.142 0.648 7.99 1.01 9.34
10/23/2022 2:00:00 AM 11.16 52.088 0.648 7.99 1.65 9.33
10/23/2022 2:15:00 AM 11.12 52.016 0.648 7.99 0.74 9.33
10/23/2022 2:30:00 AM 11.09 51.962 0.648 7.98 0.15 9.33
10/23/2022 2:45:00 AM 11.06 51.908 0.648 7.98 0.55 9.31
10/23/2022 3:00:00 AM 11.03 51.854 0.648 7.99 0.65 9.29
10/23/2022 3:15:00 AM 11 51.8 0.647 7.99 1.06 9.3
10/23/2022 3:30:00 AM 10.97 51.746 0.647 7.99 0.53 9.3
10/23/2022 4:00:00 AM 10.91 51.638 0.648 7.99 0.77 9.25
10/23/2022 4:15:00 AM 10.89 51.602 0.648 7.99 1.16 9.27
10/23/2022 4:30:00 AM 10.86 51.548 0.648 7.99 1.03 9.24
10/23/2022 4:45:00 AM 10.83 51.494 0.648 7.98 0.52 9.28
10/23/2022 5:00:00 AM 10.81 51.458 0.648 7.98 1.21 9.26
10/23/2022 5:15:00 AM 10.79 51.422 0.648 7.98 0.76 9.26
10/23/2022 5:30:00 AM 10.77 51.386 0.649 7.99 0.2 9.26
10/23/2022 5:45:00 AM 10.75 51.35 0.649 7.98 2.42 9.23
10/23/2022 6:00:00 AM 10.73 51.314 0.649 7.98 0.24 9.26
10/23/2022 6:15:00 AM 10.71 51.278 0.649 7.99 0.67 9.24
10/23/2022 6:30:00 AM 10.7 51.26 0.649 7.99 0.37 9.24
10/23/2022 6:45:00 AM 10.68 51.224 0.649 7.98 0.75 9.23
10/23/2022 7:00:00 AM 10.66 51.188 0.649 7.98 0.34 9.24
10/23/2022 7:15:00 AM 10.65 51.17 0.649 7.98 0.31 9.25
10/23/2022 7:30:00 AM 10.63 51.134 0.649 7.98 0.69 9.24
10/23/2022 7:45:00 AM 10.62 51.116 0.649 7.97 0.04 9.25
10/23/2022 8:00:00 AM 10.61 51.098 0.649 7.97 0.63 9.27
10/23/2022 8:15:00 AM 10.61 51.098 0.649 7.98 0.61 9.31
10/23/2022 8:30:00 AM 10.61 51.098 0.649 7.98 0.2 9.45
10/23/2022 8:45:00 AM 10.64 51.152 0.648 7.98 -0.03 9.55
10/23/2022 9:00:00 AM 10.67 51.206 0.649 7.99 -0.05 9.67
10/23/2022 9:15:00 AM 10.7 51.26 0.648 8.01 -0.02 9.83
10/23/2022 9:30:00 AM 10.76 51.368 0.648 8.02 0.04 10.05
10/23/2022 9:45:00 AM 10.84 51.512 0.648 8.04 -0.17 10.31
10/23/2022 10:00:00 AM 10.92 51.656 0.647 8.06 0.55 10.56
10/23/2022 10:15:00 AM 11.01 51.818 0.647 8.07 0.48 10.82
10/23/2022 10:30:00 AM 11.07 51.926 0.647 8.08 -0.08 11.02
10/23/2022 10:45:00 AM 11.16 52.088 0.647 8.1 -0.03 11.26
10/23/2022 11:00:00 AM 11.25 52.25 0.646 8.12 0.05 11.5
10/23/2022 11:15:00 AM 11.34 52.412 0.646 8.14 -0.1 11.7
10/23/2022 11:30:00 AM 11.42 52.556 0.646 8.15 -0.15 11.9
10/23/2022 11:45:00 AM 11.52 52.736 0.645 8.17 -0.22 12.14
10/23/2022 12:00:00 PM 11.52 52.736 0.645 8.17 -0.22 12.14
10/23/2022 12:15:00 PM 11.75 53.15 0.645 8.2 0.78 12.59
10/23/2022 12:30:00 PM 11.85 53.33 0.644 8.23 0.57 12.86
10/23/2022 12:45:00 PM 11.94 53.492 0.644 8.24 -0.4 13.06
10/23/2022 1:00:00 PM 12.02 53.636 0.644 8.25 -0.1 13.11
10/23/2022 1:15:00 PM 12.09 53.762 0.644 8.26 0.58 13.23
10/23/2022 1:30:00 PM 12.14 53.852 0.644 8.26 -0.42 13.31
10/23/2022 1:45:00 PM 12.17 53.906 0.644 8.26 -0.27 13.25
10/23/2022 2:00:00 PM 12.2 53.96 0.644 8.26 -0.32 13.19
10/23/2022 2:15:00 PM 12.23 54.014 0.644 8.26 -0.49 13.17
10/23/2022 2:30:00 PM 12.26 54.068 0.644 8.25 -0.33 13.13
10/23/2022 2:45:00 PM 12.27 54.086 0.644 8.25 -0.03 13.03
10/23/2022 3:00:00 PM 12.28 54.104 0.644 8.24 -0.03 12.82
10/23/2022 3:15:00 PM 12.28 54.104 0.644 8.23 -0.45 12.69
10/23/2022 3:30:00 PM 12.3 54.14 0.645 8.22 -0.32 12.58
10/23/2022 3:45:00 PM 12.31 54.158 0.645 8.22 -0.45 12.45
10/23/2022 4:00:00 PM 12.33 54.194 0.645 8.2 0.3 12.31
10/23/2022 4:15:00 PM 12.33 54.194 0.645 8.2 0.09 12.12
10/23/2022 4:30:00 PM 12.34 54.212 0.645 8.19 -0.23 11.96
10/23/2022 4:45:00 PM 12.34 54.212 0.646 8.18 -0.11 11.79
10/23/2022 5:00:00 PM 12.34 54.212 0.646 8.17 -0.27 11.67
10/23/2022 5:15:00 PM 12.34 54.212 0.646 8.15 -0.23 11.47
10/23/2022 5:30:00 PM 12.33 54.194 0.646 8.13 -0.5 11.24
10/23/2022 5:45:00 PM 12.33 54.194 0.646 8.11 -0.1 11.02
10/23/2022 6:00:00 PM 12.32 54.176 0.646 8.1 -0.1 10.79
10/23/2022 6:15:00 PM 12.32 54.176 0.646 8.09 0 10.56
10/23/2022 6:30:00 PM 12.31 54.158 0.646 8.07 -0.05 10.38
10/23/2022 6:45:00 PM 12.3 54.14 0.646 8.05 0.28 10.14
10/23/2022 7:00:00 PM 12.3 54.14 0.646 8.04 -0.29 9.94
10/23/2022 7:15:00 PM 12.29 54.122 0.646 8.03 0.03 9.77
10/23/2022 7:30:00 PM 12.29 54.122 0.646 8.02 -0.01 9.64
10/23/2022 7:45:00 PM 12.28 54.104 0.646 8.01 -0.03 9.42
10/23/2022 8:00:00 PM 12.28 54.104 0.647 8 0 9.2
10/23/2022 8:15:00 PM 12.28 54.104 0.647 7.99 -0.18 9.2
10/23/2022 8:30:00 PM 12.28 54.104 0.646 7.99 -0.3 9.06
10/23/2022 8:45:00 PM 12.28 54.104 0.646 7.99 0.26 8.95
10/23/2022 9:00:00 PM 12.28 54.104 0.646 7.98 0.53 9.01
10/23/2022 9:15:00 PM 12.29 54.122 0.646 7.97 -0.04 8.88
10/23/2022 9:30:00 PM 12.3 54.14 0.646 7.97 0.32 8.98
10/23/2022 9:45:00 PM 12.31 54.158 0.643 7.96 0.24 8.95
10/23/2022 10:00:00 PM 12.31 54.158 0.646 7.96 1.23 8.84
10/23/2022 10:15:00 PM 12.32 54.176 0.646 7.96 1.84 8.81
10/23/2022 10:30:00 PM 12.33 54.194 0.643 7.96 0.67 8.8
10/23/2022 10:45:00 PM 12.35 54.23 0.638 7.96 0.23 8.74
10/23/2022 11:00:00 PM 12.36 54.248 0.634 7.97 1.44 8.57
10/23/2022 11:15:00 PM 12.38 54.284 0.633 7.96 1.49 8.79
10/23/2022 11:30:00 PM 12.39 54.302 0.631 7.96 1.01 8.75
10/23/2022 11:45:00 PM 12.4 54.32 0.63 7.95 1.28 8.74
10/24/2022 12:00:00 AM 12.42 54.356 0.629 7.95 0.88 8.81
10/24/2022 12:15:00 AM 12.43 54.374 0.628 7.94 1.37 8.64
10/24/2022 12:30:00 AM 12.44 54.392 0.627 7.93 2.04 8.63
10/24/2022 12:45:00 AM 12.45 54.41 0.625 7.93 1.73 8.57
10/24/2022 1:00:00 AM 12.45 54.41 0.623 7.92 2.24 8.57
10/24/2022 1:15:00 AM 12.46 54.428 0.622 7.92 1.74 8.54
10/24/2022 1:30:00 AM 12.47 54.446 0.62 7.92 2.21 8.54
10/24/2022 1:45:00 AM 12.47 54.446 0.618 7.92 2.34 8.55
10/24/2022 2:00:00 AM 12.46 54.428 0.616 7.91 2.87 8.5
10/24/2022 2:15:00 AM 12.45 54.41 0.614 7.91 4.55 8.52
10/24/2022 2:30:00 AM 12.44 54.392 0.612 7.92 3.18 8.52
10/24/2022 2:45:00 AM 12.43 54.374 0.611 7.92 16.93 8.5
10/24/2022 3:00:00 AM 12.43 54.374 0.61 7.92 4.08 8.39
10/24/2022 3:15:00 AM 12.43 54.374 0.609 7.91 5.39 8.32
10/24/2022 3:30:00 AM 12.43 54.374 0.608 7.9 5.2 8.09
10/24/2022 3:45:00 AM 12.44 54.392 0.607 7.91 4.77 8.16
10/24/2022 4:00:00 AM 12.44 54.392 0.605 7.9 5.94 8.24
10/24/2022 4:15:00 AM 12.45 54.41 0.604 7.9 4.33 8.17
10/24/2022 4:30:00 AM 12.46 54.428 0.603 7.89 7.33 7.9
10/24/2022 4:45:00 AM 12.48 54.464 0.602 7.89 9.71 8.15
10/24/2022 5:00:00 AM 12.49 54.482 0.599 7.88 6.88 7.97
10/24/2022 5:15:00 AM 12.51 54.518 0.591 7.87 10.94 7.64
10/24/2022 5:30:00 AM 12.54 54.572 0.577 7.86 7.43 7.72
10/24/2022 5:45:00 AM 12.58 54.644 0.56 7.84 8.52 7.76
10/24/2022 6:00:00 AM 12.61 54.698 0.546 7.84 10.77 7.63
10/24/2022 6:15:00 AM 12.64 54.752 0.538 7.83 15.52 7.83
10/24/2022 6:30:00 AM 12.66 54.788 0.535 7.81 19.63 7.63
10/24/2022 6:45:00 AM 12.69 54.842 0.538 7.8 15.57 7.61
10/24/2022 7:00:00 AM 12.72 54.896 0.544 7.8 28.3 7.57
10/24/2022 7:15:00 AM 12.75 54.95 0.551 7.8 39.3 6.96
10/24/2022 7:30:00 AM 12.81 55.058 0.556 7.79 50 7.41
10/24/2022 7:45:00 AM 12.88 55.184 0.557 7.78 63.2 7.15
10/24/2022 8:00:00 AM 12.96 55.328 0.56 7.79 53.18 7.92
10/24/2022 8:15:00 AM 13.04 55.472 0.567 7.8 55.17 8.01
10/24/2022 8:30:00 AM 13.12 55.616 0.567 7.8 54 8.35
10/24/2022 8:45:00 AM 13.19 55.742 0.551 7.78 46.78 8.32
10/24/2022 9:00:00 AM 13.24 55.832 0.523 7.77 56.25 8.18
10/24/2022 9:15:00 AM 13.29 55.922 0.491 7.75 37.29 8.09
10/24/2022 9:30:00 AM 13.34 56.012 0.461 7.74 39.48 7.69
10/24/2022 9:45:00 AM 13.38 56.084 0.433 7.73 49.18 7.5
10/24/2022 10:00:00 AM 13.4 56.12 0.409 7.71 48.46 8.06
10/24/2022 10:15:00 AM 13.4 56.12 0.409 7.71 48.46 8.06
10/24/2022 10:30:00 AM 13.44 56.192 0.371 7.7 34.69 7.69
10/24/2022 10:45:00 AM 13.45 56.21 0.356 7.69 30.97 8.04
10/24/2022 11:00:00 AM 13.46 56.228 0.345 7.69 27.08 8.13
10/24/2022 11:15:00 AM 13.46 56.228 0.335 7.69 17.42 7.34
10/24/2022 11:30:00 AM 13.46 56.228 0.328 7.69 23.36 7.85
10/24/2022 11:45:00 AM 13.47 56.246 0.324 7.68 22.49 7.91
10/24/2022 12:00:00 PM 13.48 56.264 0.322 7.69 29.33 8.42
10/24/2022 12:15:00 PM 13.49 56.282 0.321 7.7 21.47 8.76
10/24/2022 12:30:00 PM 13.51 56.318 0.322 7.7 18.16 8.87
10/24/2022 12:45:00 PM 13.51 56.318 0.325 7.7 22.03 8.97
10/24/2022 1:00:00 PM 13.51 56.318 0.329 7.71 20.6 8.81
10/24/2022 1:15:00 PM 13.52 56.336 0.333 7.71 18.62 8.57
10/24/2022 1:30:00 PM 13.54 56.372 0.339 7.72 17.99 8.3
10/24/2022 1:45:00 PM 13.54 56.372 0.345 7.72 10.83 8.64
10/24/2022 2:00:00 PM 13.53 56.354 0.351 7.73 12.6 8.25
10/24/2022 2:15:00 PM 13.54 56.372 0.358 7.73 19.66 7.84
10/24/2022 2:30:00 PM 13.53 56.354 0.364 7.74 12.88 8.22
10/24/2022 2:45:00 PM 13.54 56.372 0.371 7.75 10.77 9.14
10/24/2022 3:00:00 PM 13.57 56.426 0.378 7.77 10.58 9.2
10/24/2022 3:15:00 PM 13.59 56.462 0.384 7.78 11.42 9.32
10/24/2022 3:30:00 PM 13.61 56.498 0.391 7.78 11.74 9.27
10/24/2022 3:45:00 PM 13.64 56.552 0.397 7.79 11.59 9.27
10/24/2022 4:00:00 PM 13.66 56.588 0.404 7.79 11.14 9.19
10/24/2022 4:15:00 PM 13.67 56.606 0.409 7.78 11.48 9.27
10/24/2022 4:30:00 PM 13.68 56.624 0.414 7.78 8.4 9.11
10/24/2022 4:45:00 PM 13.67 56.606 0.419 7.77 9.97 9.03
10/24/2022 5:00:00 PM 13.67 56.606 0.419 7.77 9.97 9.03
10/24/2022 5:15:00 PM 13.66 56.588 0.428 7.77 6.98 8.93
10/24/2022 5:30:00 PM 13.66 56.588 0.432 7.77 8.92 8.89
10/24/2022 5:45:00 PM 13.65 56.57 0.437 7.77 5.82 8.65
10/24/2022 6:00:00 PM 13.65 56.57 0.441 7.77 6.68 8.78
10/24/2022 6:15:00 PM 13.65 56.57 0.445 7.76 13.23 8.69
10/24/2022 6:30:00 PM 13.65 56.57 0.448 7.76 6.8 8.74
10/24/2022 6:45:00 PM 13.65 56.57 0.452 7.75 6.54 8.79
10/24/2022 7:00:00 PM 13.65 56.57 0.456 7.76 12.13 8.72
10/24/2022 7:15:00 PM 13.65 56.57 0.459 7.76 9.77 8.62
10/24/2022 7:30:00 PM 13.65 56.57 0.462 7.75 6.48 8.62
10/24/2022 7:45:00 PM 13.65 56.57 0.466 7.75 13.74 8.58
10/24/2022 8:00:00 PM 13.65 56.57 0.47 7.75 12.91 8.63
10/24/2022 8:15:00 PM 13.65 56.57 0.474 7.76 7.89 8.53
10/24/2022 8:30:00 PM 13.65 56.57 0.478 7.76 8.59 8.59
10/24/2022 8:45:00 PM 13.64 56.552 0.482 7.76 9.86 8.57
10/24/2022 9:00:00 PM 13.63 56.534 0.487 7.76 8.54 8.51
10/24/2022 9:15:00 PM 13.62 56.516 0.491 7.76 7.48 8.54
10/24/2022 9:30:00 PM 13.61 56.498 0.496 7.77 12.22 8.61
10/24/2022 9:45:00 PM 13.6 56.48 0.5 7.77 11.32 8.62
10/24/2022 10:00:00 PM 13.6 56.48 0.505 7.77 10.94 8.67
10/24/2022 10:15:00 PM 13.59 56.462 0.509 7.77 13.65 8.7
10/24/2022 10:30:00 PM 13.59 56.462 0.513 7.78 11.5 8.69
10/24/2022 10:45:00 PM 13.59 56.462 0.516 7.78 7.64 8.67
10/24/2022 11:00:00 PM 13.59 56.462 0.519 7.79 8.24 8.66
10/24/2022 11:15:00 PM 13.59 56.462 0.521 7.79 7.44 8.62
10/24/2022 11:30:00 PM 13.59 56.462 0.524 7.79 9.41 8.61
10/24/2022 11:45:00 PM 13.6 56.48 0.525 7.78 11.22 8.58
10/25/2022 12:00:00 AM 13.6 56.48 0.526 7.78 116.5 8.54
10/25/2022 12:15:00 AM 13.6 56.48 0.527 7.77 11.18 8.5
10/25/2022 12:30:00 AM 13.61 56.498 0.528 7.79 9.52 8.49
10/25/2022 12:45:00 AM 13.61 56.498 0.528 7.77 15.12 8.47
10/25/2022 1:00:00 AM 13.61 56.498 0.529 7.77 9.26 8.45
10/25/2022 1:15:00 AM 13.61 56.498 0.529 7.77 12.3 8.47
10/25/2022 1:30:00 AM 13.61 56.498 0.53 7.77 7.12 8.46
10/25/2022 1:45:00 AM 13.61 56.498 0.531 7.77 25.35 8.44
10/25/2022 2:00:00 AM 13.62 56.516 0.531 7.77 9.91 8.42
10/25/2022 2:15:00 AM 13.62 56.516 0.533 7.77 13.49 8.41
10/25/2022 2:30:00 AM 13.62 56.516 0.534 7.77 8.66 8.38
10/25/2022 2:45:00 AM 13.63 56.534 0.535 7.77 11.2 8.36
10/25/2022 3:00:00 AM 13.63 56.534 0.536 7.77 8.11 8.36
10/25/2022 3:15:00 AM 13.63 56.534 0.538 7.76 6.48 8.33
10/25/2022 3:30:00 AM 13.64 56.552 0.539 7.76 5.2 8.3
10/25/2022 3:45:00 AM 13.64 56.552 0.54 7.76 8.31 8.3
10/25/2022 4:00:00 AM 13.64 56.552 0.541 7.76 9.99 8.36
10/25/2022 4:15:00 AM 13.64 56.552 0.543 7.76 6.45 8.37
10/25/2022 4:30:00 AM 13.64 56.552 0.544 7.77 6.2 8.39
10/25/2022 4:45:00 AM 13.64 56.552 0.545 7.77 111.3 8.42
10/25/2022 5:00:00 AM 13.64 56.552 0.547 7.78 7.73 8.44
10/25/2022 5:15:00 AM 13.64 56.552 0.549 7.78 6.27 8.47
10/25/2022 5:30:00 AM 13.64 56.552 0.551 7.79 7.63 8.46
10/25/2022 5:45:00 AM 13.65 56.57 0.553 7.79 8.97 8.48
10/25/2022 6:00:00 AM 13.65 56.57 0.555 7.78 7.62 8.5
10/25/2022 6:15:00 AM 13.66 56.588 0.557 7.78 7.3 8.53
10/25/2022 6:30:00 AM 13.66 56.588 0.56 7.79 5.93 8.53
10/25/2022 6:45:00 AM 13.66 56.588 0.562 7.78 10.61 8.53
10/25/2022 7:00:00 AM 13.67 56.606 0.563 7.79 5.58 8.48
10/25/2022 7:15:00 AM 13.68 56.624 0.565 7.79 6.47 8.45
10/25/2022 7:30:00 AM 13.68 56.624 0.567 7.79 6.92 8.45
10/25/2022 7:45:00 AM 13.69 56.642 0.568 7.78 4.33 8.43
10/25/2022 8:00:00 AM 13.69 56.642 0.569 7.79 5.05 8.44
10/25/2022 8:15:00 AM 13.7 56.66 0.57 7.79 281.7 8.46
10/25/2022 8:30:00 AM 13.71 56.678 0.57 7.79 7.99 8.53
10/25/2022 8:45:00 AM 13.73 56.714 0.571 7.81 3.1 8.61
10/25/2022 9:00:00 AM 13.76 56.768 0.57 7.81 4.19 8.68
10/25/2022 9:15:00 AM 13.78 56.804 0.57 7.82 3.03 8.72
10/25/2022 9:30:00 AM -99999.99 -179968 -99999.99 -99999.99 -99999.99 -99999.99
10/25/2022 9:45:00 AM -99999.99 -179968 -99999.99 -99999.99 -99999.99 -99999.99
10/25/2022 10:00:00 AM -99999.99 -179968 -99999.99 -99999.99 -99999.99 -99999.99
10/25/2022 10:15:00 AM -99999.99 -179968 -99999.99 -99999.99 -99999.99 -99999.99
10/25/2022 10:30:00 AM 13.96 57.128 0 7 0 0
10/25/2022 10:45:00 AM 14.02 57.236 0.573 7.85 50.07 9.24
10/25/2022 11:00:00 AM -99999.99 -179968 -99999.99 -99999.99 -99999.99 -99999.99
10/25/2022 11:15:00 AM -99999.99 -179968 -99999.99 -99999.99 -99999.99 -99999.99
10/25/2022 11:30:00 AM -99999.99 -179968 -99999.99 -99999.99 -99999.99 -99999.99
10/25/2022 11:45:00 AM -99999.99 -179968 -99999.99 -99999.99 -99999.99 -99999.99
10/25/2022 12:00:00 PM -99999.99 -179968 -99999.99 -99999.99 -99999.99 -99999.99
10/25/2022 12:15:00 PM -99999.99 -179968 -99999.99 -99999.99 -99999.99 -99999.99
10/25/2022 12:30:00 PM -99999.99 -179968 -99999.99 -99999.99 -99999.99 -99999.99
10/25/2022 12:45:00 PM -99999.99 -179968 -99999.99 -99999.99 -99999.99 -99999.99
10/25/2022 1:00:00 PM -99999.99 -179968 -99999.99 -99999.99 -99999.99 -99999.99
10/25/2022 1:15:00 PM -99999.99 -179968 -99999.99 -99999.99 -99999.99 -99999.99
10/25/2022 1:30:00 PM -99999.99 -179968 -99999.99 -99999.99 -99999.99 -99999.99
10/25/2022 1:45:00 PM -99999.99 -179968 -99999.99 -99999.99 -99999.99 -99999.99
10/25/2022 2:00:00 PM -99999.99 -179968 -99999.99 -99999.99 -99999.99 -99999.99
10/25/2022 2:15:00 PM -99999.99 -179968 -99999.99 -99999.99 -99999.99 -99999.99
10/25/2022 2:30:00 PM -99999.99 -179968 -99999.99 -99999.99 -99999.99 -99999.99
10/25/2022 2:45:00 PM -99999.99 -179968 -99999.99 -99999.99 -99999.99 -99999.99
10/25/2022 3:00:00 PM -99999.99 -179968 -99999.99 -99999.99 -99999.99 -99999.99
10/25/2022 3:15:00 PM -99999.99 -179968 -99999.99 -99999.99 -99999.99 -99999.99
10/25/2022 3:30:00 PM -99999.99 -179968 -99999.99 -99999.99 -99999.99 -99999.99
10/25/2022 3:45:00 PM -99999.99 -179968 -99999.99 -99999.99 -99999.99 -99999.99
10/25/2022 4:00:00 PM -99999.99 -179968 -99999.99 -99999.99 -99999.99 -99999.99
10/25/2022 4:15:00 PM -99999.99 -179968 -99999.99 -99999.99 -99999.99 -99999.99
10/25/2022 4:30:00 PM -99999.99 -179968 -99999.99 -99999.99 -99999.99 -99999.99
10/25/2022 4:45:00 PM -99999.99 -179968 -99999.99 -99999.99 -99999.99 -99999.99
10/25/2022 5:00:00 PM -99999.99 -179968 -99999.99 -99999.99 -99999.99 -99999.99
10/25/2022 5:15:00 PM -99999.99 -179968 -99999.99 -99999.99 -99999.99 -99999.99
10/25/2022 5:30:00 PM -99999.99 -179968 -99999.99 -99999.99 -99999.99 -99999.99
10/25/2022 5:45:00 PM -99999.99 -179968 -99999.99 -99999.99 -99999.99 -99999.99
10/25/2022 6:00:00 PM -99999.99 -179968 -99999.99 -99999.99 -99999.99 -99999.99
10/25/2022 6:15:00 PM -99999.99 -179968 -99999.99 -99999.99 -99999.99 -99999.99
10/25/2022 6:30:00 PM -99999.99 -179968 -99999.99 -99999.99 -99999.99 -99999.99
10/25/2022 6:45:00 PM -99999.99 -179968 -99999.99 -99999.99 -99999.99 -99999.99
10/25/2022 7:00:00 PM -99999.99 -179968 -99999.99 -99999.99 -99999.99 -99999.99
10/25/2022 7:15:00 PM -99999.99 -179968 -99999.99 -99999.99 -99999.99 -99999.99
10/25/2022 7:30:00 PM -99999.99 -179968 -99999.99 -99999.99 -99999.99 -99999.99
10/25/2022 7:45:00 PM -99999.99 -179968 -99999.99 -99999.99 -99999.99 -99999.99
10/25/2022 8:00:00 PM -99999.99 -179968 -99999.99 -99999.99 -99999.99 -99999.99
10/25/2022 8:15:00 PM -99999.99 -179968 -99999.99 -99999.99 -99999.99 -99999.99
10/25/2022 8:30:00 PM -99999.99 -179968 -99999.99 -99999.99 -99999.99 -99999.99
10/25/2022 8:45:00 PM -99999.99 -179968 -99999.99 -99999.99 -99999.99 -99999.99
10/25/2022 9:00:00 PM -99999.99 -179968 -99999.99 -99999.99 -99999.99 -99999.99
10/25/2022 9:15:00 PM -99999.99 -179968 -99999.99 -99999.99 -99999.99 -99999.99
10/25/2022 9:30:00 PM -99999.99 -179968 -99999.99 -99999.99 -99999.99 -99999.99
10/25/2022 9:45:00 PM -99999.99 -179968 -99999.99 -99999.99 -99999.99 -99999.99
10/25/2022 10:00:00 PM -99999.99 -179968 -99999.99 -99999.99 -99999.99 -99999.99
10/25/2022 10:15:00 PM -99999.99 -179968 -99999.99 -99999.99 -99999.99 -99999.99
10/25/2022 10:30:00 PM -99999.99 -179968 -99999.99 -99999.99 -99999.99 -99999.99
10/25/2022 10:45:00 PM -99999.99 -179968 -99999.99 -99999.99 -99999.99 -99999.99
10/25/2022 11:00:00 PM -99999.99 -179968 -99999.99 -99999.99 -99999.99 -99999.99
10/25/2022 11:15:00 PM -99999.99 -179968 -99999.99 -99999.99 -99999.99 -99999.99
10/25/2022 11:30:00 PM -99999.99 -179968 -99999.99 -99999.99 -99999.99 -99999.99
10/25/2022 11:45:00 PM -99999.99 -179968 -99999.99 -99999.99 -99999.99 -99999.99
10/26/2022 12:00:00 AM -99999.99 -179968 -99999.99 -99999.99 -99999.99 -99999.99
10/26/2022 12:15:00 AM -99999.99 -179968 -99999.99 -99999.99 -99999.99 -99999.99
10/26/2022 12:30:00 AM -99999.99 -179968 -99999.99 -99999.99 -99999.99 -99999.99
10/26/2022 12:45:00 AM -99999.99 -179968 -99999.99 -99999.99 -99999.99 -99999.99
10/26/2022 1:00:00 AM -99999.99 -179968 -99999.99 -99999.99 -99999.99 -99999.99
10/26/2022 1:15:00 AM -99999.99 -179968 -99999.99 -99999.99 -99999.99 -99999.99
10/26/2022 1:30:00 AM -99999.99 -179968 -99999.99 -99999.99 -99999.99 -99999.99
10/26/2022 1:45:00 AM -99999.99 -179968 -99999.99 -99999.99 -99999.99 -99999.99
10/26/2022 2:00:00 AM -99999.99 -179968 -99999.99 -99999.99 -99999.99 -99999.99
10/26/2022 2:15:00 AM -99999.99 -179968 -99999.99 -99999.99 -99999.99 -99999.99
10/26/2022 2:30:00 AM -99999.99 -179968 -99999.99 -99999.99 -99999.99 -99999.99
10/26/2022 2:45:00 AM -99999.99 -179968 -99999.99 -99999.99 -99999.99 -99999.99
10/26/2022 3:00:00 AM -99999.99 -179968 -99999.99 -99999.99 -99999.99 -99999.99
10/26/2022 3:15:00 AM -99999.99 -179968 -99999.99 -99999.99 -99999.99 -99999.99
10/26/2022 3:30:00 AM -99999.99 -179968 -99999.99 -99999.99 -99999.99 -99999.99
10/26/2022 3:45:00 AM -99999.99 -179968 -99999.99 -99999.99 -99999.99 -99999.99
10/26/2022 4:00:00 AM -99999.99 -179968 -99999.99 -99999.99 -99999.99 -99999.99
10/26/2022 4:15:00 AM -99999.99 -179968 -99999.99 -99999.99 -99999.99 -99999.99
10/26/2022 4:30:00 AM -99999.99 -179968 -99999.99 -99999.99 -99999.99 -99999.99
10/26/2022 4:45:00 AM -99999.99 -179968 -99999.99 -99999.99 -99999.99 -99999.99
10/26/2022 5:00:00 AM -99999.99 -179968 -99999.99 -99999.99 -99999.99 -99999.99
10/26/2022 5:15:00 AM -99999.99 -179968 -99999.99 -99999.99 -99999.99 -99999.99
10/26/2022 5:30:00 AM -99999.99 -179968 -99999.99 -99999.99 -99999.99 -99999.99
10/26/2022 5:45:00 AM -99999.99 -179968 -99999.99 -99999.99 -99999.99 -99999.99
10/26/2022 6:00:00 AM 14.07 57.326 0 7 0 0
10/26/2022 6:15:00 AM -99999.99 -179968 -99999.99 -99999.99 -99999.99 -99999.99
10/26/2022 6:30:00 AM -99999.99 -179968 -99999.99 -99999.99 -99999.99 -99999.99
10/26/2022 6:45:00 AM -99999.99 -179968 -99999.99 -99999.99 -99999.99 -99999.99
10/26/2022 7:00:00 AM 14.04 57.272 0 7 0 0
10/26/2022 7:15:00 AM 14.04 57.272 0.62 7.91 2.37 7.82
10/26/2022 7:30:00 AM 14.03 57.254 0.62 7.9 1.54 7.82
10/26/2022 7:45:00 AM 14.03 57.254 0.621 7.91 2.67 7.83
10/26/2022 8:00:00 AM 14.03 57.254 0.621 7.89 1.57 7.86
10/26/2022 8:15:00 AM 14.03 57.254 0.621 7.87 1.74 7.89
10/26/2022 8:30:00 AM 14.04 57.272 0.622 7.87 1.1 7.89
10/26/2022 8:45:00 AM 14.04 57.272 0.622 7.88 0.6 7.94
10/26/2022 9:00:00 AM 14.05 57.29 0.623 7.88 0.87 7.93
10/26/2022 9:15:00 AM 14.06 57.308 0.623 7.88 1.26 7.98
10/26/2022 9:30:00 AM 14.09 57.362 0.622 7.88 0.69 8.16
10/26/2022 9:45:00 AM 14.13 57.434 0.622 7.88 0.52 8.38
10/26/2022 10:00:00 AM 14.17 57.506 0.622 7.91 -0.09 8.48
10/26/2022 10:15:00 AM 14.21 57.578 0.622 7.91 0.88 8.71
10/26/2022 10:30:00 AM 14.25 57.65 0.622 7.92 0.01 8.83
10/26/2022 10:45:00 AM 14.3 57.74 0.622 7.93 0.5 8.99
10/26/2022 11:00:00 AM 14.38 57.884 0.622 7.94 0.15 9.1
10/26/2022 11:15:00 AM 14.49 58.082 0.622 7.96 0.11 9.37
10/26/2022 11:30:00 AM 14.58 58.244 0.622 7.98 -0.02 9.57
10/26/2022 11:45:00 AM 14.63 58.334 0.621 7.98 0.2 9.64
10/26/2022 12:00:00 PM 14.68 58.424 0.621 7.99 -0.11 9.65
10/26/2022 12:15:00 PM 14.7 58.46 0.621 7.99 -0.03 9.68
10/26/2022 12:30:00 PM 14.71 58.478 0.621 7.98 -0.06 9.67
10/26/2022 12:45:00 PM 14.72 58.496 0.621 7.99 -0.13 9.57
10/26/2022 1:00:00 PM 14.72 58.496 0.621 7.99 0.51 9.71
10/26/2022 1:15:00 PM 14.72 58.496 0.621 8 0 9.74
10/26/2022 1:30:00 PM 14.7 58.46 0.621 8 -0.06 9.78
10/26/2022 1:45:00 PM 14.68 58.424 0.621 8 0.61 9.72
10/26/2022 2:00:00 PM 14.69 58.442 0.621 8 0.11 9.67
10/26/2022 2:15:00 PM 14.69 58.442 0.621 8 -0.09 9.8
10/26/2022 2:30:00 PM 14.69 58.442 0.621 8.01 0.16 9.75
10/26/2022 2:45:00 PM 14.69 58.442 0.622 8 0.3 9.73
10/26/2022 3:00:00 PM 14.7 58.46 0.622 8 -0.18 9.73
10/26/2022 3:15:00 PM 14.7 58.46 0.623 8 0.47 9.67
10/26/2022 3:30:00 PM 14.69 58.442 0.623 8 -0.02 9.63
10/26/2022 3:45:00 PM 14.69 58.442 0.624 8.01 -0.07 9.64
10/26/2022 4:00:00 PM 14.7 58.46 0.624 8 -0.1 9.69
10/26/2022 4:15:00 PM 14.71 58.478 0.624 8 -0.12 9.66
10/26/2022 4:30:00 PM 14.73 58.514 0.624 8.01 0.32 9.69
10/26/2022 4:45:00 PM -99999.99 -179968 -99999.99 -99999.99 -99999.99 -99999.99
10/26/2022 5:00:00 PM 14.71 58.478 0.624 7.99 0.26 9.49
10/26/2022 5:15:00 PM 14.71 58.478 0.624 7.99 0.26 9.49
10/26/2022 5:30:00 PM 14.68 58.424 0.624 7.98 0.43 9.25
10/26/2022 5:45:00 PM 14.66 58.388 0.624 7.98 0.28 9.25
10/26/2022 6:00:00 PM 14.63 58.334 0.624 7.98 0.51 9.25
10/26/2022 6:15:00 PM 14.59 58.262 0.624 7.97 0.2 9.23
10/26/2022 6:30:00 PM 14.55 58.19 0.624 7.97 0.45 9.15
10/26/2022 6:45:00 PM 14.53 58.154 0.625 7.96 0.29 9
10/26/2022 7:00:00 PM 14.51 58.118 0.625 7.96 0.63 9.09
10/26/2022 7:15:00 PM 14.49 58.082 0.625 7.96 0.77 9.04
10/26/2022 7:30:00 PM 14.48 58.064 0.625 7.96 0.48 8.99
10/26/2022 7:45:00 PM 14.46 58.028 0.625 7.97 0.43 8.93
10/26/2022 8:00:00 PM 14.44 57.992 0.625 7.96 0.86 8.86
10/26/2022 8:15:00 PM 14.43 57.974 0.625 7.95 1.05 8.84
10/26/2022 8:30:00 PM 14.41 57.938 0.626 7.94 1.24 8.81
10/26/2022 8:45:00 PM 14.4 57.92 0.626 7.94 0.68 8.79
10/26/2022 9:00:00 PM 14.39 57.902 0.626 7.93 1.02 8.74
10/26/2022 9:15:00 PM 14.39 57.902 0.627 7.93 0.55 8.67
10/26/2022 9:30:00 PM 14.37 57.866 0.627 7.92 1.04 8.65
10/26/2022 9:45:00 PM 14.36 57.848 0.628 7.93 2.22 8.62
10/26/2022 10:00:00 PM 14.33 57.794 0.628 7.93 1.42 8.6
10/26/2022 10:15:00 PM 14.3 57.74 0.628 7.92 1.95 8.55
10/26/2022 10:30:00 PM 14.26 57.668 0.629 7.92 1.66 8.54
10/26/2022 10:45:00 PM 14.23 57.614 0.629 7.92 2.58 8.56
10/26/2022 11:00:00 PM 14.18 57.524 0.629 7.92 1.61 8.54
10/26/2022 11:15:00 PM 14.13 57.434 0.629 7.92 2.94 8.51
10/26/2022 11:30:00 PM 14.09 57.362 0.629 7.92 1.45 8.5
10/26/2022 11:45:00 PM 14.05 57.29 0.629 7.92 0.39 8.49
10/27/2022 12:00:00 AM 14.01 57.218 0.629 7.92 1.11 8.48
10/27/2022 12:15:00 AM 13.97 57.146 0.629 7.92 1.14 8.49
10/27/2022 12:30:00 AM 13.93 57.074 0.629 7.91 1.19 8.47
10/27/2022 12:45:00 AM 13.9 57.02 0.629 7.92 1.65 8.49
10/27/2022 1:00:00 AM 13.87 56.966 0.629 7.92 1.81 8.5
10/27/2022 1:15:00 AM 13.85 56.93 0.629 7.92 2.02 8.47
10/27/2022 1:30:00 AM 13.82 56.876 0.628 7.92 1.28 8.47
10/27/2022 1:45:00 AM 13.78 56.804 0.628 7.92 1.12 8.48
10/27/2022 2:00:00 AM 13.74 56.732 0.624 7.92 1.91 8.46
10/27/2022 2:15:00 AM 13.71 56.678 0.623 7.91 1.05 8.42
10/27/2022 2:30:00 AM 13.67 56.606 0.624 7.92 2.18 8.45
10/27/2022 2:45:00 AM 13.64 56.552 0.623 7.92 0.52 8.44
10/27/2022 3:00:00 AM 13.62 56.516 0.623 7.92 1.17 8.44
10/27/2022 3:15:00 AM 13.61 56.498 0.623 7.91 2.06 8.42
10/27/2022 3:30:00 AM 13.61 56.498 0.623 7.91 2.23 8.42
10/27/2022 3:45:00 AM 13.61 56.498 0.623 7.91 2.23 8.42
10/27/2022 4:00:00 AM 13.6 56.48 0.623 7.91 1.92 8.36
10/27/2022 4:15:00 AM 13.58 56.444 0.623 7.9 1.63 8.35
10/27/2022 4:30:00 AM 13.55 56.39 0.622 7.9 1.9 8.39
10/27/2022 4:45:00 AM 13.52 56.336 0.622 7.9 2.34 8.35
10/27/2022 5:00:00 AM 13.49 56.282 0.622 7.9 1.81 8.32
10/27/2022 5:15:00 AM 13.49 56.282 0.622 7.9 1.81 8.32
10/27/2022 5:30:00 AM 13.44 56.192 0.622 7.9 1.57 8.37
10/27/2022 5:45:00 AM 13.43 56.174 0.621 7.9 2.42 8.4
10/27/2022 6:00:00 AM 13.42 56.156 0.621 7.91 3.06 8.4
10/27/2022 6:15:00 AM 13.41 56.138 0.62 7.9 3.58 8.41
10/27/2022 6:30:00 AM 13.4 56.12 0.62 7.9 2.04 8.42
10/27/2022 6:45:00 AM 13.39 56.102 0.619 7.91 1.68 8.4
10/27/2022 7:00:00 AM 13.37 56.066 0.618 7.91 1.69 8.4
10/27/2022 7:15:00 AM 13.35 56.03 0.617 7.9 1.53 8.41
10/27/2022 7:30:00 AM 13.33 55.994 0.616 7.9 1.56 8.43
10/27/2022 7:45:00 AM 13.32 55.976 0.616 7.9 1.29 8.44
10/27/2022 8:00:00 AM 13.29 55.922 0.616 7.91 0.94 8.49
10/27/2022 8:15:00 AM 13.27 55.886 0.615 7.91 2.37 8.56
10/27/2022 8:30:00 AM 13.24 55.832 0.615 7.91 2.21 8.68
10/27/2022 8:45:00 AM 13.21 55.778 0.615 7.92 0.52 8.84
10/27/2022 9:00:00 AM 13.19 55.742 0.615 7.93 1.3 9.02
10/27/2022 9:15:00 AM 13.18 55.724 0.615 7.93 1.68 9.26
10/27/2022 9:30:00 AM 13.17 55.706 0.615 7.95 2.18 9.43
10/27/2022 9:45:00 AM 13.15 55.67 0.615 7.95 0.48 9.54
10/27/2022 10:00:00 AM 13.15 55.67 0.616 7.96 0.37 9.63
10/27/2022 10:15:00 AM 13.16 55.688 0.616 7.97 0.35 9.76
10/27/2022 10:30:00 AM 13.2 55.76 0.616 7.98 0.35 9.91
10/27/2022 10:45:00 AM 13.26 55.868 0.616 7.99 0.09 10.07
10/27/2022 11:00:00 AM 13.34 56.012 0.617 8 -0.12 10.24
10/27/2022 11:15:00 AM 13.42 56.156 0.617 8.01 0.39 10.36
10/27/2022 11:30:00 AM 13.51 56.318 0.618 8.02 -0.23 10.51
10/27/2022 11:45:00 AM 13.61 56.498 0.618 8.03 0.18 10.64
10/27/2022 12:00:00 PM 13.72 56.696 0.618 8.04 -0.01 10.76
10/27/2022 12:15:00 PM 13.82 56.876 0.618 8.05 0.61 10.89
10/27/2022 12:30:00 PM 13.93 57.074 0.618 8.06 -0.17 10.95
10/27/2022 12:45:00 PM 14.02 57.236 0.619 8.07 -0.16 11.03
10/27/2022 1:00:00 PM 14.11 57.398 0.619 8.07 -0.13 11.12
10/27/2022 1:15:00 PM 14.18 57.524 0.619 8.07 0.33 11.19
10/27/2022 1:30:00 PM 14.25 57.65 0.619 8.08 0.02 11.26
10/27/2022 1:45:00 PM 14.3 57.74 0.62 8.1 -0.28 11.29
10/27/2022 2:00:00 PM 14.33 57.794 0.62 8.1 -0.08 11.32
10/27/2022 2:15:00 PM 14.36 57.848 0.62 8.1 -0.13 11.3
10/27/2022 2:30:00 PM 14.38 57.884 0.62 8.09 -0.05 11.34
10/27/2022 2:45:00 PM 14.38 57.884 0.621 8.09 -0.21 11.33
10/27/2022 3:00:00 PM 14.37 57.866 0.621 8.09 -0.21 11.28
10/27/2022 3:15:00 PM 14.35 57.83 0.621 8.09 -0.06 11.32
10/27/2022 3:30:00 PM 14.31 57.758 0.621 8.09 -0.17 11.29
10/27/2022 3:45:00 PM 14.31 57.758 0.621 8.09 -0.17 11.29
10/27/2022 4:00:00 PM 14.21 57.578 0.623 8.09 -0.25 11.2
10/27/2022 4:15:00 PM 14.13 57.434 0.623 8.08 0.22 11.14
10/27/2022 4:30:00 PM 14.07 57.326 0.623 8.08 -0.09 11.06
10/27/2022 4:45:00 PM 13.99 57.182 0.623 8.08 -0.09 11.01
10/27/2022 5:00:00 PM 13.92 57.056 0.624 8.08 -0.03 10.89
10/27/2022 5:15:00 PM 13.84 56.912 0.624 8.07 -0.1 10.77
10/27/2022 5:30:00 PM 13.76 56.768 0.625 8.06 0.06 10.63
10/27/2022 5:45:00 PM 13.7 56.66 0.625 8.05 0 10.48
10/27/2022 6:00:00 PM 13.65 56.57 0.625 8.04 0.31 10.34
10/27/2022 6:15:00 PM 13.6 56.48 0.625 8.03 0 10.24
10/27/2022 6:30:00 PM 13.54 56.372 0.626 8.03 1.47 10.11
10/27/2022 6:45:00 PM 13.5 56.3 0.626 8.02 2.46 10
10/27/2022 7:00:00 PM 13.45 56.21 0.626 8.02 0.4 9.9
10/27/2022 7:15:00 PM 13.4 56.12 0.626 8.01 0.24 9.87
10/27/2022 7:30:00 PM 13.35 56.03 0.626 8.01 2.07 9.79
10/27/2022 7:45:00 PM 13.31 55.958 0.627 8 1.1 9.75
10/27/2022 8:00:00 PM 13.27 55.886 0.627 8 0.81 9.71
10/27/2022 8:15:00 PM 13.22 55.796 0.627 7.99 1.48 9.67
10/27/2022 8:30:00 PM 13.18 55.724 0.627 7.99 0.38 9.64
10/27/2022 8:45:00 PM 13.13 55.634 0.627 7.99 1.48 9.61
10/27/2022 9:00:00 PM 13.13 55.634 0.627 7.99 1.48 9.61
10/27/2022 9:15:00 PM 13.13 55.634 0.627 7.99 1.48 9.61
10/27/2022 9:30:00 PM 12.98 55.364 0.628 7.99 0.9 9.5
10/27/2022 9:45:00 PM 12.93 55.274 0.628 7.99 2.72 9.44
10/27/2022 10:00:00 PM 12.87 55.166 0.628 7.98 1.17 9.46
10/27/2022 10:15:00 PM 12.82 55.076 0.628 7.98 1.12 9.46
10/27/2022 10:30:00 PM 12.76 54.968 0.628 7.98 1.11 9.46
10/27/2022 10:45:00 PM 12.7 54.86 0.629 7.98 1.04 9.45
10/27/2022 11:00:00 PM 12.65 54.77 0.629 7.97 1.06 9.46
10/27/2022 11:15:00 PM 12.61 54.698 0.629 7.98 0.74 9.42
10/27/2022 11:30:00 PM 12.56 54.608 0.629 7.97 1.55 9.44
10/27/2022 11:45:00 PM 12.52 54.536 0.629 7.97 1.5 9.45
10/28/2022 12:00:00 AM 12.48 54.464 0.629 7.98 1.14 9.45
10/28/2022 12:15:00 AM 12.48 54.464 0.629 7.98 1.14 9.45
10/28/2022 12:30:00 AM 12.4 54.32 0.63 7.97 1.26 9.44
10/28/2022 12:45:00 AM 12.36 54.248 0.629 7.97 1.56 9.43
10/28/2022 1:00:00 AM 12.36 54.248 0.629 7.97 1.56 9.43
10/28/2022 1:15:00 AM 12.29 54.122 0.627 7.97 1.33 9.43
10/28/2022 1:30:00 AM 12.26 54.068 0.63 7.97 1.67 9.44
10/28/2022 1:45:00 AM 12.22 53.996 0.63 7.97 1.23 9.44
10/28/2022 2:00:00 AM 12.18 53.924 0.63 7.97 1.09 9.45
10/28/2022 2:15:00 AM 12.14 53.852 0.63 7.97 1.58 9.47
10/28/2022 2:30:00 AM 12.11 53.798 0.63 7.98 1.69 9.46
10/28/2022 2:45:00 AM 12.07 53.726 0.63 7.97 0.65 9.45
10/28/2022 3:00:00 AM 12.03 53.654 0.63 7.98 1.14 9.47
10/28/2022 3:15:00 AM 11.99 53.582 0.63 7.98 0.82 9.46
10/28/2022 3:30:00 AM 11.95 53.51 0.631 7.98 0.7 9.46
10/28/2022 3:45:00 AM 11.91 53.438 0.631 7.98 0.65 9.48
10/28/2022 4:00:00 AM 11.87 53.366 0.631 7.99 1.03 9.47
10/28/2022 4:15:00 AM 11.87 53.366 0.631 7.99 1.03 9.47
10/28/2022 4:30:00 AM 11.87 53.366 0.631 7.99 1.03 9.47
10/28/2022 4:45:00 AM 11.87 53.366 0.631 7.99 1.03 9.47
10/28/2022 5:00:00 AM 11.87 53.366 0.631 7.99 1.03 9.47
10/28/2022 5:15:00 AM 11.71 53.078 0.632 7.99 1.12 9.53
10/28/2022 5:30:00 AM 11.69 53.042 0.632 7.98 1.1 9.49
10/28/2022 5:45:00 AM 11.66 52.988 0.632 7.98 1.74 9.53
10/28/2022 6:00:00 AM 11.63 52.934 0.633 7.98 0.71 9.55
10/28/2022 6:15:00 AM 11.6 52.88 0.633 7.99 1.1 9.55
10/28/2022 6:30:00 AM 11.57 52.826 0.633 7.99 0.49 9.54
10/28/2022 6:45:00 AM 11.53 52.754 0.633 7.99 0.41 9.53
10/28/2022 7:00:00 AM 11.49 52.682 0.633 7.99 0.39 9.54
10/28/2022 7:15:00 AM 11.45 52.61 0.634 8 1.38 9.51
10/28/2022 7:30:00 AM 11.41 52.538 0.634 8 0.28 9.54
10/28/2022 7:45:00 AM 11.38 52.484 0.634 7.99 0.34 9.59
10/28/2022 8:00:00 AM 11.35 52.43 0.634 8 0.62 9.61
10/28/2022 8:15:00 AM 11.32 52.376 0.634 8 0.3 9.65
10/28/2022 8:30:00 AM 11.31 52.358 0.634 8 0.49 9.75
10/28/2022 8:45:00 AM 11.29 52.322 0.634 8 0.07 9.85
10/28/2022 9:00:00 AM 11.28 52.304 0.634 8.02 -0.06 9.96
10/28/2022 9:15:00 AM 11.29 52.322 0.634 8.03 -0.11 10.01
10/28/2022 9:30:00 AM 11.31 52.358 0.634 8.04 -0.17 10.12
10/28/2022 9:45:00 AM 11.34 52.412 0.634 8.05 -0.05 10.29
10/28/2022 10:00:00 AM 11.38 52.484 0.634 8.06 -0.19 10.41
10/28/2022 10:15:00 AM 11.43 52.574 0.634 8.07 0.19 10.68
10/28/2022 10:30:00 AM 11.49 52.682 0.634 8.09 -0.11 10.83
10/28/2022 10:45:00 AM 11.55 52.79 0.634 8.09 -0.48 11
10/28/2022 11:00:00 AM 11.59 52.862 0.635 8.1 -0.28 11.22
10/28/2022 11:15:00 AM 11.64 52.952 0.635 8.11 -0.18 11.38
10/28/2022 11:30:00 AM 11.7 53.06 0.636 8.12 0.07 11.55
10/28/2022 11:45:00 AM 11.77 53.186 0.636 8.12 0.42 11.69
10/28/2022 12:00:00 PM 11.84 53.312 0.635 8.13 0.28 11.81
10/28/2022 12:15:00 PM 11.93 53.474 0.635 8.14 -0.52 11.88
10/28/2022 12:30:00 PM 12.02 53.636 0.635 8.15 -0.44 11.93
10/28/2022 12:45:00 PM 12.08 53.744 0.635 8.16 0.01 12.06
10/28/2022 1:00:00 PM 12.13 53.834 0.635 8.17 -0.31 12.08
10/28/2022 1:15:00 PM 12.13 53.834 0.635 8.17 -0.31 12.08
10/28/2022 1:30:00 PM 12.28 54.104 0.634 8.18 -0.52 12.13
10/28/2022 1:45:00 PM 12.37 54.266 0.634 8.18 -0.16 12.39
10/28/2022 2:00:00 PM 12.42 54.356 0.639 8.18 -0.21 12.44
10/28/2022 2:15:00 PM 12.45 54.41 0.639 8.18 -0.36 12.43
10/28/2022 2:30:00 PM 12.51 54.518 0.639 8.18 -0.4 12.41
10/28/2022 2:45:00 PM 12.59 54.662 0.639 8.19 -0.04 12.41
10/28/2022 3:00:00 PM 12.66 54.788 0.638 8.18 0.65 12.41
10/28/2022 3:15:00 PM 12.69 54.842 0.638 8.18 -0.34 12.37
10/28/2022 3:30:00 PM 12.72 54.896 0.638 8.18 -0.28 12.36
10/28/2022 3:45:00 PM 12.73 54.914 0.638 8.18 -0.01 12.31
10/28/2022 4:00:00 PM 12.69 54.842 0.638 8.17 -0.13 12.28
10/28/2022 4:15:00 PM 12.63 54.734 0.639 8.17 -0.11 12.14
10/28/2022 4:30:00 PM 12.59 54.662 0.639 8.16 -0.17 12.09
10/28/2022 4:45:00 PM 12.54 54.572 0.639 8.16 -0.31 11.94
10/28/2022 5:00:00 PM 12.49 54.482 0.64 8.16 -0.28 11.83
10/28/2022 5:15:00 PM 12.42 54.356 0.64 8.15 -0.32 11.72
10/28/2022 5:30:00 PM 12.36 54.248 0.641 8.13 -0.06 11.59
10/28/2022 5:45:00 PM 12.29 54.122 0.642 8.13 -0.04 11.46
10/28/2022 6:00:00 PM 12.22 53.996 0.643 8.12 -0.31 11.28
10/28/2022 6:15:00 PM 12.13 53.834 0.642 8.11 -0.27 11.1
10/28/2022 6:30:00 PM 12.06 53.708 0.645 8.09 -0.16 10.93
10/28/2022 6:45:00 PM 12.01 53.618 0.613 8.08 -0.02 10.81
10/28/2022 7:00:00 PM 11.96 53.528 0.645 8.08 0.37 10.64
10/28/2022 7:15:00 PM 11.93 53.474 0.647 8.07 0.69 10.52
10/28/2022 7:30:00 PM 11.89 53.402 0.631 8.07 0.4 10.38
10/28/2022 7:45:00 PM 11.87 53.366 0.648 8.07 0.91 10.28
10/28/2022 8:00:00 PM 11.84 53.312 0.648 8.06 0.45 10.24
10/28/2022 8:15:00 PM 11.82 53.276 0.648 8.06 0.72 10.16
10/28/2022 8:30:00 PM 11.8 53.24 0.648 8.06 0.31 10.1
10/28/2022 8:45:00 PM 11.78 53.204 0.647 8.05 0.05 10.04
10/28/2022 9:00:00 PM 11.74 53.132 0.647 8.05 0.09 9.99
10/28/2022 9:15:00 PM 11.71 53.078 0.648 8.05 0.61 9.95
10/28/2022 9:30:00 PM 11.66 52.988 0.647 8.05 0.53 9.87
10/28/2022 9:45:00 PM 11.61 52.898 0.647 8.06 0.4 9.86
10/28/2022 10:00:00 PM 11.56 52.808 0.647 8.05 1.54 9.83
10/28/2022 10:15:00 PM 11.5 52.7 0.647 8.04 1.53 9.79
10/28/2022 10:30:00 PM 11.45 52.61 0.647 8.05 0.54 9.77
10/28/2022 10:45:00 PM 11.39 52.502 0.647 8.04 0.32 9.71
10/28/2022 11:00:00 PM 11.34 52.412 0.647 8.03 0.16 9.69
10/28/2022 11:15:00 PM 11.28 52.304 0.647 8.05 1.54 9.66
10/28/2022 11:30:00 PM 11.23 52.214 0.647 8.04 0.04 9.69
10/28/2022 11:45:00 PM 11.19 52.142 0.647 8.05 0.57 9.65
10/29/2022 12:00:00 AM 11.14 52.052 0.648 8.04 1.04 9.66
10/29/2022 12:15:00 AM 11.1 51.98 0.648 8.03 1.97 9.65
10/29/2022 12:30:00 AM 11.06 51.908 0.648 8.03 0.67 9.61
10/29/2022 12:45:00 AM 11.02 51.836 0.649 8.03 0.22 9.62
10/29/2022 1:00:00 AM 10.97 51.746 0.649 8.03 0.57 9.59
10/29/2022 1:15:00 AM 10.94 51.692 0.649 8.02 0.51 9.59
10/29/2022 1:30:00 AM 10.9 51.62 0.649 8.02 0.83 9.58
10/29/2022 1:45:00 AM 10.87 51.566 0.649 8.01 1.85 9.59
10/29/2022 2:00:00 AM 10.83 51.494 0.65 8.01 0.98 9.57
10/29/2022 2:15:00 AM 10.8 51.44 0.65 8.01 1.68 9.57
10/29/2022 2:30:00 AM 10.77 51.386 0.65 8.01 0.47 9.55
10/29/2022 2:45:00 AM 10.73 51.314 0.65 8.01 1.53 9.53
10/29/2022 3:00:00 AM 10.7 51.26 0.65 8.01 2.54 9.51
10/29/2022 3:15:00 AM 10.67 51.206 0.65 8.01 0.89 9.49
10/29/2022 3:30:00 AM 10.64 51.152 0.65 8 0.68 9.51
10/29/2022 3:45:00 AM 10.61 51.098 0.651 8 0.67 9.53
10/29/2022 4:00:00 AM 10.58 51.044 0.651 8 1.41 9.5
10/29/2022 4:15:00 AM 10.55 50.99 0.651 8 2.84 9.5
10/29/2022 4:30:00 AM 10.52 50.936 0.651 8 1.31 9.49
10/29/2022 4:45:00 AM 10.49 50.882 0.651 7.99 0.69 9.51
10/29/2022 5:00:00 AM 10.46 50.828 0.652 7.98 0.6 9.51
10/29/2022 5:15:00 AM 10.43 50.774 0.652 7.98 1.37 9.51
10/29/2022 5:30:00 AM 10.41 50.738 0.652 7.98 1.41 9.47
10/29/2022 5:45:00 AM 10.37 50.666 0.652 7.98 1.92 9.48
10/29/2022 6:00:00 AM 10.34 50.612 0.653 7.99 0.54 9.51
10/29/2022 6:15:00 AM 10.31 50.558 0.653 7.98 0.83 9.51
10/29/2022 6:30:00 AM 10.28 50.504 0.653 7.99 0.74 9.51
10/29/2022 6:45:00 AM 10.25 50.45 0.653 7.98 0.16 9.51
10/29/2022 7:00:00 AM 10.21 50.378 0.653 7.97 1.42 9.54
10/29/2022 7:15:00 AM 10.18 50.324 0.653 7.98 1.47 9.52
10/29/2022 7:30:00 AM 10.14 50.252 0.653 7.98 0.27 9.56
10/29/2022 7:45:00 AM 10.12 50.216 0.653 7.99 0.22 9.57
10/29/2022 8:00:00 AM 10.08 50.144 0.653 7.98 0.2 9.6
10/29/2022 8:15:00 AM 10.05 50.09 0.653 7.98 0.56 9.65
10/29/2022 8:30:00 AM 10.02 50.036 0.653 7.98 0.39 9.72
10/29/2022 8:45:00 AM 10 50 0.653 7.99 0.09 9.77
10/29/2022 9:00:00 AM 9.98 49.964 0.653 8 0.01 9.87
10/29/2022 9:15:00 AM 9.97 49.946 0.653 8.01 -0.11 9.97
10/29/2022 9:30:00 AM 9.98 49.964 0.653 8.01 -0.17 10.08
10/29/2022 9:45:00 AM 10.01 50.018 0.652 8.02 -0.28 10.18
10/29/2022 10:00:00 AM 10.06 50.108 0.652 8.03 -0.3 10.34
10/29/2022 10:15:00 AM 10.13 50.234 0.652 8.03 -0.48 10.5
10/29/2022 10:30:00 AM 10.22 50.396 0.652 8.04 -0.3 10.67
10/29/2022 10:45:00 AM 10.32 50.576 0.652 8.06 -0.19 10.77
10/29/2022 11:00:00 AM 10.43 50.774 0.651 8.07 0.54 11.03
10/29/2022 11:15:00 AM 10.56 51.008 0.652 8.08 -0.45 11.19
10/29/2022 11:30:00 AM 10.69 51.242 0.651 8.09 -0.19 11.37
10/29/2022 11:45:00 AM 10.82 51.476 0.651 8.11 -0.16 11.5
10/29/2022 12:00:00 PM 10.97 51.746 0.651 8.11 -0.31 11.62
10/29/2022 12:15:00 PM 11.12 52.016 0.651 8.12 -0.35 11.8
10/29/2022 12:30:00 PM 11.26 52.268 0.651 8.13 0.11 11.89
10/29/2022 12:45:00 PM 11.4 52.52 0.651 8.14 0.28 11.98
10/29/2022 1:00:00 PM 11.54 52.772 0.65 8.15 -0.39 12.08
10/29/2022 1:15:00 PM 11.66 52.988 0.65 8.15 -0.27 12.16
10/29/2022 1:30:00 PM 11.77 53.186 0.65 8.16 0.11 12.2
10/29/2022 1:45:00 PM 11.86 53.348 0.65 8.16 -0.32 12.26
10/29/2022 2:00:00 PM 11.94 53.492 0.65 8.17 -0.35 12.31
10/29/2022 2:15:00 PM 11.94 53.492 0.65 8.17 -0.35 12.31
10/29/2022 2:30:00 PM 12.07 53.726 0.649 8.17 -0.42 12.41
10/29/2022 2:45:00 PM 12.11 53.798 0.649 8.17 -0.47 12.38
10/29/2022 3:00:00 PM 12.13 53.834 0.649 8.18 -0.4 12.35
10/29/2022 3:15:00 PM 12.13 53.834 0.649 8.17 -0.39 12.39
10/29/2022 3:30:00 PM 12.12 53.816 0.649 8.17 -0.42 12.37
10/29/2022 3:45:00 PM 12.11 53.798 0.649 8.17 -0.29 12.31
10/29/2022 4:00:00 PM 12.09 53.762 0.649 8.17 -0.26 12.27
10/29/2022 4:15:00 PM 12.09 53.762 0.649 8.17 -0.26 12.27
10/29/2022 4:30:00 PM 12.09 53.762 0.649 8.17 -0.26 12.27
10/29/2022 4:45:00 PM 12.09 53.762 0.649 8.17 -0.26 12.27
10/29/2022 5:00:00 PM 12.09 53.762 0.649 8.17 -0.26 12.27
10/29/2022 5:15:00 PM 11.79 53.222 0.65 8.16 -0.27 11.75
10/29/2022 5:30:00 PM 11.79 53.222 0.65 8.16 -0.27 11.75
10/29/2022 5:45:00 PM 11.64 52.952 0.651 8.13 -0.47 11.37
10/29/2022 6:00:00 PM 11.64 52.952 0.651 8.13 -0.47 11.37
10/29/2022 6:15:00 PM 11.53 52.754 0.652 8.11 1.48 11.06
10/29/2022 6:30:00 PM 11.53 52.754 0.652 8.11 1.48 11.06
10/29/2022 6:45:00 PM 11.53 52.754 0.652 8.11 1.48 11.06
10/29/2022 7:00:00 PM 11.53 52.754 0.652 8.11 1.48 11.06
10/29/2022 7:15:00 PM 11.35 52.43 0.652 8.08 0.26 10.47
10/29/2022 7:30:00 PM 11.31 52.358 0.652 8.07 0.03 10.38
10/29/2022 7:45:00 PM 11.28 52.304 0.652 8.06 0.31 10.32
10/29/2022 8:00:00 PM 11.25 52.25 0.652 8.06 0.6 10.23
10/29/2022 8:15:00 PM 11.22 52.196 0.652 8.06 1.05 10.17
10/29/2022 8:30:00 PM 11.19 52.142 0.652 8.05 0.39 10.1
10/29/2022 8:45:00 PM 11.19 52.142 0.652 8.05 0.39 10.1
10/29/2022 9:00:00 PM 11.19 52.142 0.652 8.05 0.39 10.1
10/29/2022 9:15:00 PM 11.19 52.142 0.652 8.05 0.39 10.1
10/29/2022 9:30:00 PM 11.03 51.854 0.651 8.04 0.24 10.01
10/29/2022 9:45:00 PM 11.03 51.854 0.651 8.04 0.24 10.01
10/29/2022 10:00:00 PM 10.94 51.692 0.651 8.04 0.65 9.95
10/29/2022 10:15:00 PM 10.89 51.602 0.65 8.03 0.03 9.92
10/29/2022 10:30:00 PM 10.84 51.512 0.65 8.03 0.26 9.88
10/29/2022 10:45:00 PM 10.79 51.422 0.65 8.03 0.11 9.85
10/29/2022 11:00:00 PM 10.73 51.314 0.65 8.03 1.99 9.84
10/29/2022 11:15:00 PM 10.73 51.314 0.65 8.03 1.99 9.84
10/29/2022 11:30:00 PM 10.63 51.134 0.649 8.03 0.04 9.83
10/29/2022 11:45:00 PM 10.63 51.134 0.649 8.03 0.04 9.83
10/30/2022 12:00:00 AM 10.63 51.134 0.649 8.03 0.04 9.83
10/30/2022 12:15:00 AM 10.63 51.134 0.649 8.03 0.04 9.83
10/30/2022 12:30:00 AM 10.46 50.828 0.65 8.02 0.53 9.76
10/30/2022 12:45:00 AM 10.46 50.828 0.65 8.02 0.53 9.76
10/30/2022 1:00:00 AM 10.38 50.684 0.65 8.01 0.92 9.75
10/30/2022 1:15:00 AM 10.35 50.63 0.65 8.02 1.47 9.76
10/30/2022 1:30:00 AM 10.32 50.576 0.65 8.02 0.2 9.75
10/30/2022 1:45:00 AM 10.32 50.576 0.65 8.02 0.2 9.75
10/30/2022 2:00:00 AM 10.25 50.45 0.65 8 0.8 9.72
10/30/2022 2:15:00 AM 10.23 50.414 0.65 8 1.33 9.72
10/30/2022 2:30:00 AM 10.19 50.342 0.65 8 1.42 9.71
10/30/2022 2:45:00 AM 10.16 50.288 0.65 8 1.01 9.69
10/30/2022 3:00:00 AM 10.13 50.234 0.65 8.01 0.42 9.7
10/30/2022 3:15:00 AM 10.13 50.234 0.65 8.01 0.42 9.7
10/30/2022 3:30:00 AM 10.13 50.234 0.65 8.01 0.42 9.7
10/30/2022 4:00:00 AM -99999.99 -179968 -99999.99 -99999.99 -99999.99 -99999.99
10/30/2022 4:15:00 AM -99999.99 -179968 -99999.99 -99999.99 -99999.99 -99999.99
10/30/2022 4:30:00 AM 9.95 49.91 0 7 0 0
10/30/2022 4:45:00 AM 9.95 49.91 0 7 0 0
10/30/2022 5:00:00 AM 9.95 49.91 0 7 0 0
10/30/2022 5:15:00 AM 9.85 49.73 0.651 8 0.99 9.69
10/30/2022 5:30:00 AM 9.82 49.676 0.651 7.99 0.58 9.67
10/30/2022 5:45:00 AM 9.78 49.604 0.651 8 2.17 9.69
10/30/2022 6:00:00 AM 9.75 49.55 0.651 8 1.36 9.68
10/30/2022 6:15:00 AM 9.72 49.496 0.651 7.99 1.34 9.7
10/30/2022 6:30:00 AM 9.69 49.442 0.651 7.99 0.84 9.7
10/30/2022 6:45:00 AM 9.67 49.406 0.651 7.99 0.92 9.71
10/30/2022 7:00:00 AM 9.65 49.37 0.651 7.99 0.86 9.71
10/30/2022 7:15:00 AM 9.64 49.352 0.651 7.99 0.63 9.71
10/30/2022 7:30:00 AM 9.63 49.334 0.651 7.99 1.26 9.7
10/30/2022 7:45:00 AM 9.64 49.352 0.651 7.99 1.87 9.7
10/30/2022 8:00:00 AM 9.65 49.37 0.652 7.99 0.16 9.67
10/30/2022 8:15:00 AM 9.66 49.388 0.652 8 0.12 9.77
10/30/2022 8:30:00 AM 9.67 49.406 0.652 8 -0.02 9.84
10/30/2022 8:45:00 AM 9.69 49.442 0.652 8 0.27 9.95
10/30/2022 9:00:00 AM 9.72 49.496 0.652 8 0.14 10.04
10/30/2022 9:15:00 AM 9.76 49.568 0.652 8.01 0.1 10.18
10/30/2022 9:30:00 AM 9.8 49.64 0.652 8.02 -0.34 10.29
10/30/2022 9:45:00 AM 9.85 49.73 0.652 8.03 -0.13 10.44
10/30/2022 10:00:00 AM 9.91 49.838 0.652 8.04 0.18 10.63
10/30/2022 10:15:00 AM 9.99 49.982 0.651 8.05 -0.01 10.82
10/30/2022 10:30:00 AM 9.99 49.982 0.651 8.05 -0.01 10.82
10/30/2022 10:45:00 AM 10.16 50.288 0.651 8.08 -0.39 11.24
10/30/2022 11:00:00 AM 10.25 50.45 0.651 8.09 0.25 11.43
10/30/2022 11:15:00 AM 10.35 50.63 0.651 8.11 -0.4 11.61
10/30/2022 11:30:00 AM 10.43 50.774 0.651 8.11 -0.37 11.76
10/30/2022 11:45:00 AM 10.52 50.936 0.651 8.12 -0.48 11.92
10/30/2022 12:00:00 PM 10.61 51.098 0.651 8.14 -0.48 12.08
10/30/2022 12:15:00 PM 10.71 51.278 0.65 8.15 -0.47 12.19
10/30/2022 12:30:00 PM 10.8 51.44 0.65 8.16 -0.37 12.33
10/30/2022 12:45:00 PM 10.9 51.62 0.65 8.17 0.01 12.49
10/30/2022 1:00:00 PM 10.99 51.782 0.65 8.18 0.04 12.62
10/30/2022 1:15:00 PM 11.06 51.908 0.65 8.19 -0.58 12.68
10/30/2022 1:30:00 PM 11.13 52.034 0.65 8.19 -0.27 12.77
10/30/2022 1:45:00 PM 11.21 52.178 0.649 8.2 -0.39 12.8
10/30/2022 2:00:00 PM 11.28 52.304 0.649 8.21 -0.37 12.9
10/30/2022 2:15:00 PM 11.36 52.448 0.648 8.21 -0.26 12.93
10/30/2022 2:30:00 PM 11.45 52.61 0.648 8.21 -0.41 12.98
10/30/2022 2:45:00 PM 11.53 52.754 0.648 8.22 -0.49 13
10/30/2022 3:00:00 PM 11.58 52.844 0.647 8.22 -0.24 12.97
10/30/2022 3:15:00 PM 11.62 52.916 0.647 8.22 0.36 12.89
10/30/2022 3:30:00 PM 11.67 53.006 0.647 8.21 0.05 12.87
10/30/2022 3:45:00 PM 11.74 53.132 0.646 8.21 0.05 12.85
10/30/2022 4:00:00 PM 11.82 53.276 0.645 8.21 -0.22 12.82
10/30/2022 4:15:00 PM 11.88 53.384 0.644 8.2 -0.31 12.69
10/30/2022 4:30:00 PM 11.94 53.492 0.643 8.19 0.12 12.59
10/30/2022 4:45:00 PM 11.95 53.51 0.642 8.19 0.2 12.52
10/30/2022 5:00:00 PM 11.92 53.456 0.642 8.18 0.44 12.38
10/30/2022 5:15:00 PM 11.88 53.384 0.642 8.17 -0.13 12.3
10/30/2022 5:30:00 PM 11.85 53.33 0.642 8.16 -0.11 12.13
10/30/2022 5:45:00 PM 11.8 53.24 0.642 8.15 -0.2 11.97
10/30/2022 6:00:00 PM 11.76 53.168 0.642 8.13 0.09 11.73
10/30/2022 6:15:00 PM 11.72 53.096 0.643 8.11 -0.33 11.51
10/30/2022 6:30:00 PM 11.7 53.06 0.643 8.11 -0.06 11.35
10/30/2022 6:45:00 PM 11.67 53.006 0.643 8.1 -0.18 11.14
10/30/2022 7:00:00 PM 11.66 52.988 0.643 8.09 -0.07 11
10/30/2022 7:15:00 PM 11.65 52.97 0.643 8.08 0.19 10.88
10/30/2022 7:30:00 PM 11.64 52.952 0.643 8.07 0.42 10.77
10/30/2022 7:45:00 PM 11.63 52.934 0.643 8.07 0.08 10.71
10/30/2022 8:00:00 PM 11.63 52.934 0.643 8.07 -0.09 10.56
10/30/2022 8:15:00 PM 11.62 52.916 0.643 8.05 0 10.58
10/30/2022 8:30:00 PM 11.62 52.916 0.643 8.05 0.28 10.45
10/30/2022 8:45:00 PM 11.61 52.898 0.643 8.05 0.01 10.41
10/30/2022 9:00:00 PM 11.6 52.88 0.644 8.05 1.05 10.42
10/30/2022 9:15:00 PM 11.58 52.844 0.643 8.05 0.31 10.27
10/30/2022 9:30:00 PM 11.56 52.808 0.643 8.05 0.18 10.28
10/30/2022 9:45:00 PM 11.53 52.754 0.643 8.05 0.85 10.27
10/30/2022 10:00:00 PM 11.5 52.7 0.643 8.04 0 10.14
10/30/2022 10:15:00 PM 11.48 52.664 0.643 8.03 -0.03 10.23
10/30/2022 10:30:00 PM 11.44 52.592 0.643 8.03 0.18 10.13
10/30/2022 10:45:00 PM 11.41 52.538 0.643 8.02 0.41 10.11
10/30/2022 11:00:00 PM 11.37 52.466 0.643 8.02 0.69 10.12
10/30/2022 11:15:00 PM 11.34 52.412 0.643 8.01 0.35 10.01
10/30/2022 11:30:00 PM 11.3 52.34 0.643 8.02 0.97 10
10/30/2022 11:45:00 PM 11.27 52.286 0.643 8.01 0.83 9.99
10/31/2022 12:00:00 AM 11.24 52.232 0.643 8.01 0.27 9.91
10/31/2022 12:15:00 AM 11.21 52.178 0.643 8.01 0.69 9.94
10/31/2022 12:30:00 AM 11.18 52.124 0.643 8 0.74 10
10/31/2022 12:45:00 AM 11.15 52.07 0.643 8.01 1.38 9.93
10/31/2022 1:00:00 AM 11.13 52.034 0.643 8.01 2.22 9.95
10/31/2022 1:15:00 AM 11.11 51.998 0.643 8.01 0.53 9.91
10/31/2022 1:30:00 AM 11.1 51.98 0.643 8.01 0.18 9.91
10/31/2022 1:45:00 AM 11.08 51.944 0.643 8 0.2 9.88
10/31/2022 2:00:00 AM 11.07 51.926 0.643 8.01 1.27 9.83
10/31/2022 2:15:00 AM 11.06 51.908 0.643 8.01 0.29 9.75
10/31/2022 2:30:00 AM 11.05 51.89 0.643 8 0.35 9.85
10/31/2022 2:45:00 AM 11.04 51.872 0.643 8 0.16 9.83
10/31/2022 3:00:00 AM 11.04 51.872 0.643 7.99 0.73 9.79
10/31/2022 3:15:00 AM 11.04 51.872 0.643 7.99 0.49 9.81
10/31/2022 3:30:00 AM 11.05 51.89 0.643 7.99 1.28 9.79
10/31/2022 3:45:00 AM 11.06 51.908 0.643 7.99 0.94 9.79
10/31/2022 4:00:00 AM 11.06 51.908 0.643 7.99 0.97 9.73
10/31/2022 4:15:00 AM 11.07 51.926 0.642 7.99 0.8 9.72
10/31/2022 4:30:00 AM 11.08 51.944 0.642 7.98 0.45 9.71
10/31/2022 4:45:00 AM 11.09 51.962 0.641 7.98 0.27 9.66
10/31/2022 5:00:00 AM 11.1 51.98 0.64 7.98 0.31 9.71
10/31/2022 5:15:00 AM 11.1 51.98 0.639 7.98 0.44 9.61
10/31/2022 5:30:00 AM 11.1 51.98 0.638 7.98 0.54 9.61
10/31/2022 5:45:00 AM 11.09 51.962 0.637 7.98 0.9 9.63
10/31/2022 6:00:00 AM 11.08 51.944 0.636 7.98 0.88 9.48
10/31/2022 6:15:00 AM 11.06 51.908 0.635 7.98 0.95 9.68
10/31/2022 6:30:00 AM 11.05 51.89 0.633 7.97 0.89 9.68
10/31/2022 6:45:00 AM 11.03 51.854 0.633 7.98 0.56 9.57
10/31/2022 7:00:00 AM 11.02 51.836 0.632 7.98 0.45 9.49
10/31/2022 7:15:00 AM 11 51.8 0.631 7.98 0.73 9.59
10/31/2022 7:30:00 AM 10.98 51.764 0.631 7.98 1.85 9.68
10/31/2022 7:45:00 AM 10.97 51.746 0.631 7.98 0.63 9.67
10/31/2022 8:00:00 AM 10.97 51.746 0.631 7.98 0.4 9.74
10/31/2022 8:15:00 AM 10.98 51.764 0.632 7.99 0.46 9.8
10/31/2022 8:30:00 AM 11 51.8 0.632 8 0.32 9.78
10/31/2022 8:45:00 AM 11.02 51.836 0.633 8.01 -0.09 9.97
10/31/2022 9:00:00 AM 11.07 51.926 0.633 8.02 -0.1 10.07
10/31/2022 9:15:00 AM 11.11 51.998 0.634 8.03 -0.11 10.34
10/31/2022 9:30:00 AM 11.16 52.088 0.634 8.04 0.1 10.42
10/31/2022 9:45:00 AM 11.22 52.196 0.635 8.05 -0.21 10.47
10/31/2022 10:00:00 AM 11.29 52.322 0.635 8.05 0.2 10.69
10/31/2022 10:15:00 AM 11.34 52.412 0.636 8.06 0 10.8
10/31/2022 10:30:00 AM 11.39 52.502 0.637 8.07 0.55 10.93
10/31/2022 10:45:00 AM 11.46 52.628 0.637 8.08 -0.17 10.9
10/31/2022 11:00:00 AM 11.52 52.736 0.638 8.09 0.2 11.15
10/31/2022 11:15:00 AM 11.59 52.862 0.638 8.11 -0.38 11.19
10/31/2022 11:30:00 AM 11.68 53.024 0.639 8.11 0.12 11.37
10/31/2022 11:45:00 AM 11.78 53.204 0.639 8.12 -0.01 11.52
10/31/2022 12:00:00 PM 11.88 53.384 0.639 8.14 -0.47 11.79
10/31/2022 12:15:00 PM 11.95 53.51 0.639 8.14 -0.02 11.88
10/31/2022 12:30:00 PM 12 53.6 0.64 8.15 -0.28 11.91
10/31/2022 12:45:00 PM 12.03 53.654 0.64 8.15 -0.38 12.05
10/31/2022 1:00:00 PM 12.06 53.708 0.64 8.15 -0.38 11.98
10/31/2022 1:15:00 PM 12.11 53.798 0.64 8.15 -0.3 12.07
10/31/2022 1:30:00 PM 12.15 53.87 0.64 8.16 -0.2 12.1
10/31/2022 1:45:00 PM 12.21 53.978 0.639 8.16 -0.4 12.16
10/31/2022 2:00:00 PM 12.27 54.086 0.639 8.17 -0.33 12.21
10/31/2022 2:15:00 PM 12.33 54.194 0.639 8.18 -0.27 12.34
10/31/2022 2:30:00 PM 12.37 54.266 0.639 8.18 -0.49 12.43
10/31/2022 2:45:00 PM 12.42 54.356 0.639 8.19 -0.3 12.37
10/31/2022 3:00:00 PM 12.49 54.482 0.639 8.19 -0.15 12.53
10/31/2022 3:15:00 PM 12.53 54.554 0.639 8.19 -0.07 12.51
10/31/2022 3:30:00 PM 12.55 54.59 0.639 8.19 -0.31 12.41
10/31/2022 3:45:00 PM 12.56 54.608 0.64 8.18 -0.08 12.28
10/31/2022 4:00:00 PM 12.58 54.644 0.64 8.17 -0.33 12.24
10/31/2022 4:15:00 PM 12.6 54.68 0.64 8.17 -0.54 12.18
10/31/2022 4:30:00 PM 12.61 54.698 0.64 8.17 -0.14 12.11
10/31/2022 4:45:00 PM 12.6 54.68 0.64 8.16 -0.35 11.89
10/31/2022 5:00:00 PM 12.58 54.644 0.641 8.15 -0.18 11.61
10/31/2022 5:15:00 PM 12.55 54.59 0.642 8.13 -0.31 11.42
10/31/2022 5:30:00 PM 12.51 54.518 0.643 8.12 -0.33 11.17
10/31/2022 5:45:00 PM 12.48 54.464 0.645 8.1 -0.31 10.9
10/31/2022 6:00:00 PM 12.45 54.41 0.646 8.08 -0.13 10.59
10/31/2022 6:15:00 PM 12.43 54.374 0.647 8.07 0.53 10.39
10/31/2022 6:30:00 PM 12.41 54.338 0.647 8.06 -0.04 10.2
10/31/2022 6:45:00 PM 12.4 54.32 0.648 8.05 0.28 9.91
10/31/2022 7:00:00 PM 12.4 54.32 0.648 8.04 0.16 9.76
10/31/2022 7:15:00 PM 12.4 54.32 0.648 8.02 0.15 9.71
10/31/2022 7:30:00 PM 12.4 54.32 0.648 8.01 0.35 9.66
10/31/2022 7:45:00 PM 12.41 54.338 0.648 8.01 0.45 9.5
10/31/2022 8:00:00 PM 12.42 54.356 0.648 8 0.56 9.44
10/31/2022 8:15:00 PM 12.43 54.374 0.648 8.01 0.17 9.38
10/31/2022 8:30:00 PM 12.45 54.41 0.647 8 0.19 9.35
10/31/2022 8:45:00 PM 12.46 54.428 0.647 7.99 0.72 9.28
10/31/2022 9:00:00 PM 12.47 54.446 0.647 7.98 0.82 9.27
10/31/2022 9:15:00 PM 12.48 54.464 0.647 7.98 0.12 9.2
10/31/2022 9:30:00 PM 12.5 54.5 0.646 7.97 0.2 9.15
10/31/2022 9:45:00 PM 12.51 54.518 0.646 7.96 0 9.1
10/31/2022 10:00:00 PM 12.51 54.518 0.646 7.96 0.11 8.98
10/31/2022 10:15:00 PM 12.52 54.536 0.646 7.97 0.34 8.89
10/31/2022 10:30:00 PM 12.53 54.554 0.645 7.96 -0.03 8.76
10/31/2022 10:45:00 PM 12.54 54.572 0.645 7.94 0.65 8.83
10/31/2022 11:00:00 PM 12.54 54.572 0.645 7.94 0.74 8.79
10/31/2022 11:15:00 PM 12.54 54.572 0.644 7.94 0.95 8.78
10/31/2022 11:30:00 PM 12.55 54.59 0.643 7.94 0.05 8.63
10/31/2022 11:45:00 PM 12.55 54.59 0.642 7.93 0.76 8.75
11/1/2022 12:00:00 AM 12.56 54.608 0.641 7.93 0.77 8.73
11/1/2022 12:15:00 AM 12.56 54.608 0.639 7.93 0.19 8.67
11/1/2022 12:30:00 AM 12.56 54.608 0.638 7.92 1.82 8.67
11/1/2022 12:45:00 AM 12.55 54.59 0.637 7.92 0.27 8.59
11/1/2022 1:00:00 AM 12.54 54.572 0.638 7.92 0.14 8.59
11/1/2022 1:15:00 AM 12.54 54.572 0.638 7.91 0.77 8.56
11/1/2022 1:30:00 AM 12.54 54.572 0.637 7.91 0.21 8.57
11/1/2022 1:45:00 AM 12.55 54.59 0.637 7.9 0.92 8.5
11/1/2022 2:00:00 AM 12.57 54.626 0.635 7.9 1.38 8.48
11/1/2022 2:15:00 AM 12.59 54.662 0.634 7.9 0.66 8.44
11/1/2022 2:30:00 AM 12.6 54.68 0.633 7.9 0.89 8.43
11/1/2022 2:45:00 AM 12.62 54.716 0.633 7.89 1.64 8.4
11/1/2022 3:00:00 AM 12.63 54.734 0.632 7.89 1.11 8.38
11/1/2022 3:15:00 AM 12.64 54.752 0.632 7.88 1.23 8.39
11/1/2022 3:30:00 AM 12.65 54.77 0.631 7.89 0.86 8.32
11/1/2022 3:45:00 AM 12.66 54.788 0.631 7.89 1.18 8.24
11/1/2022 4:00:00 AM 12.66 54.788 0.63 7.9 1.52 8.22
11/1/2022 4:15:00 AM 12.67 54.806 0.63 7.89 7.6 8.21
11/1/2022 4:30:00 AM 12.68 54.824 0.629 7.89 1.3 8.16
11/1/2022 4:45:00 AM 12.69 54.842 0.63 7.89 2.06 8.1
11/1/2022 5:00:00 AM 12.7 54.86 0.63 7.88 3.03 8.15
11/1/2022 5:15:00 AM 12.71 54.878 0.63 7.87 1.73 8.04
11/1/2022 5:30:00 AM 12.72 54.896 0.63 7.88 2.11 8.07
11/1/2022 5:45:00 AM 12.73 54.914 0.63 7.87 1.71 8.02
11/1/2022 6:00:00 AM 12.74 54.932 0.63 7.85 2.38 8
11/1/2022 6:15:00 AM 12.75 54.95 0.63 7.85 1.96 7.98
11/1/2022 6:30:00 AM 12.76 54.968 0.631 7.85 2.77 7.96
11/1/2022 6:45:00 AM 12.76 54.968 0.631 7.86 2.55 7.98
11/1/2022 7:00:00 AM 12.77 54.986 0.632 7.84 2.68 8
11/1/2022 7:15:00 AM 12.79 55.022 0.632 7.84 2.59 7.99
11/1/2022 7:30:00 AM 12.8 55.04 0.632 7.85 1.89 7.97
11/1/2022 7:45:00 AM 12.81 55.058 0.632 7.85 1.93 7.99
11/1/2022 8:00:00 AM 12.83 55.094 0.631 7.84 1.36 7.95
11/1/2022 8:15:00 AM 12.84 55.112 0.628 7.84 4.57 8
11/1/2022 8:30:00 AM 12.85 55.13 0.625 7.84 1.68 8.02
11/1/2022 8:45:00 AM 12.87 55.166 0.622 7.84 3.4 8.08
11/1/2022 9:00:00 AM 12.9 55.22 0.619 7.84 2.13 8.12
11/1/2022 9:15:00 AM 12.93 55.274 0.618 7.84 2.52 8.24
11/1/2022 9:30:00 AM 12.98 55.364 0.617 7.84 1.85 8.38
11/1/2022 9:45:00 AM 13.02 55.436 0.618 7.85 1.92 8.53
11/1/2022 10:00:00 AM 13.05 55.49 0.62 7.87 2.81 8.62
11/1/2022 10:15:00 AM 13.11 55.598 0.622 7.87 1.65 8.79
11/1/2022 10:30:00 AM 13.16 55.688 0.625 7.88 1.85 8.99
11/1/2022 10:45:00 AM 13.2 55.76 0.628 7.89 0.6 9.09
11/1/2022 11:00:00 AM 13.3 55.94 0.63 7.91 1.3 9.34
11/1/2022 11:15:00 AM 13.41 56.138 0.631 7.93 0.81 9.63
11/1/2022 11:30:00 AM 13.49 56.282 0.632 7.95 1.23 9.88
11/1/2022 11:45:00 AM 13.61 56.498 0.633 7.96 0.35 10.06
11/1/2022 12:00:00 PM 13.76 56.768 0.633 7.98 0.46 10.27
11/1/2022 12:15:00 PM 13.87 56.966 0.633 8 0.6 10.43
11/1/2022 12:30:00 PM 13.95 57.11 0.633 8.01 0.59 10.5
11/1/2022 12:45:00 PM 14.03 57.254 0.633 8.02 1.23 10.54
11/1/2022 1:00:00 PM 14.13 57.434 0.632 8.03 0.08 10.68
11/1/2022 1:15:00 PM 14.28 57.704 0.631 8.04 0.74 10.89
11/1/2022 1:30:00 PM 14.36 57.848 0.63 8.05 0.39 10.94
11/1/2022 1:45:00 PM 14.45 58.01 0.629 8.05 0.35 10.92
11/1/2022 2:00:00 PM 14.54 58.172 0.628 8.06 0.35 11.03
11/1/2022 2:15:00 PM 14.57 58.226 0.627 8.06 0.28 10.93
11/1/2022 2:30:00 PM 14.57 58.226 0.627 8.06 0.28 10.93
11/1/2022 2:45:00 PM 14.62 58.316 0.627 8.07 0.2 10.99
11/1/2022 3:00:00 PM 14.64 58.352 0.627 8.06 0.75 10.91
11/1/2022 3:15:00 PM 14.65 58.37 0.628 8.06 1.66 10.92
11/1/2022 3:30:00 PM 14.68 58.424 0.629 8.06 0.8 10.93
11/1/2022 3:45:00 PM 14.7 58.46 0.63 8.07 0.67 10.94
11/1/2022 4:00:00 PM -99999.99 -179968 -99999.99 -99999.99 -99999.99 -99999.99
11/1/2022 4:15:00 PM -99999.99 -179968 -99999.99 -99999.99 -99999.99 -99999.99
11/1/2022 4:30:00 PM -99999.99 -179968 -99999.99 -99999.99 -99999.99 -99999.99
11/1/2022 4:45:00 PM -99999.99 -179968 -99999.99 -99999.99 -99999.99 -99999.99
11/1/2022 5:00:00 PM 14.75 58.55 0 7 0 0
11/1/2022 5:15:00 PM 14.75 58.55 0 7 0 0
11/1/2022 5:30:00 PM -99999.99 -179968 -99999.99 -99999.99 -99999.99 -99999.99
11/1/2022 5:45:00 PM 14.67 58.406 0 7 0 0
11/1/2022 6:00:00 PM 14.62 58.316 0.645 8.03 0.47 10.08
11/1/2022 6:15:00 PM 14.57 58.226 0.642 8.01 0.59 9.89
11/1/2022 6:30:00 PM 14.5 58.1 0.638 7.99 0.62 9.7
11/1/2022 6:45:00 PM 14.42 57.956 0.632 7.97 0.91 9.57
11/1/2022 7:00:00 PM 14.35 57.83 0.625 7.96 1.18 9.42
11/1/2022 7:15:00 PM 14.27 57.686 0.618 7.94 2.23 9.3
11/1/2022 7:30:00 PM 14.21 57.578 0.609 7.93 0.61 9.14
11/1/2022 7:45:00 PM 14.15 57.47 0.601 7.92 0.75 9
11/1/2022 8:00:00 PM 14.09 57.362 0.593 7.91 1.5 8.95
11/1/2022 8:15:00 PM 14.04 57.272 0.585 7.9 0.36 8.79
11/1/2022 8:30:00 PM 14 57.2 0.578 7.88 1.41 8.77
11/1/2022 8:45:00 PM 13.95 57.11 0.572 7.88 2.04 8.67
11/1/2022 9:00:00 PM 13.91 57.038 0.566 7.87 2.12 8.62
11/1/2022 9:15:00 PM 13.87 56.966 0.561 7.86 1.58 8.49
11/1/2022 9:30:00 PM 13.84 56.912 0.558 7.86 1.52 8.49
11/1/2022 9:45:00 PM 13.8 56.84 0.556 7.85 1.71 8.37
11/1/2022 10:00:00 PM 13.77 56.786 0.554 7.84 2.7 8.43
11/1/2022 10:15:00 PM 13.74 56.732 0.554 7.85 1.24 8.43
11/1/2022 10:30:00 PM 13.71 56.678 0.555 7.84 1.1 8.39
11/1/2022 10:45:00 PM 13.68 56.624 0.556 7.84 2.88 8.39
11/1/2022 11:00:00 PM -99999.99 -179968 -99999.99 -99999.99 -99999.99 -99999.99
11/1/2022 11:15:00 PM -99999.99 -179968 -99999.99 -99999.99 -99999.99 -99999.99
11/1/2022 11:30:00 PM -99999.99 -179968 -99999.99 -99999.99 -99999.99 -99999.99
11/1/2022 11:45:00 PM -99999.99 -179968 -99999.99 -99999.99 -99999.99 -99999.99
11/2/2022 12:00:00 AM -99999.99 -179968 -99999.99 -99999.99 -99999.99 -99999.99
11/2/2022 12:15:00 AM -99999.99 -179968 -99999.99 -99999.99 -99999.99 -99999.99
11/2/2022 12:30:00 AM -99999.99 -179968 -99999.99 -99999.99 -99999.99 -99999.99
11/2/2022 12:45:00 AM -99999.99 -179968 -99999.99 -99999.99 -99999.99 -99999.99
11/2/2022 1:00:00 AM -99999.99 -179968 -99999.99 -99999.99 -99999.99 -99999.99
11/2/2022 1:15:00 AM -99999.99 -179968 -99999.99 -99999.99 -99999.99 -99999.99
11/2/2022 1:30:00 AM -99999.99 -179968 -99999.99 -99999.99 -99999.99 -99999.99
11/2/2022 1:45:00 AM -99999.99 -179968 -99999.99 -99999.99 -99999.99 -99999.99
11/2/2022 2:00:00 AM -99999.99 -179968 -99999.99 -99999.99 -99999.99 -99999.99
11/2/2022 2:15:00 AM -99999.99 -179968 -99999.99 -99999.99 -99999.99 -99999.99
11/2/2022 2:30:00 AM -99999.99 -179968 -99999.99 -99999.99 -99999.99 -99999.99
11/2/2022 2:45:00 AM -99999.99 -179968 -99999.99 -99999.99 -99999.99 -99999.99
11/2/2022 3:00:00 AM -99999.99 -179968 -99999.99 -99999.99 -99999.99 -99999.99
11/2/2022 3:15:00 AM -99999.99 -179968 -99999.99 -99999.99 -99999.99 -99999.99
11/2/2022 3:30:00 AM -99999.99 -179968 -99999.99 -99999.99 -99999.99 -99999.99
11/2/2022 3:45:00 AM -99999.99 -179968 -99999.99 -99999.99 -99999.99 -99999.99
11/2/2022 4:00:00 AM -99999.99 -179968 -99999.99 -99999.99 -99999.99 -99999.99
11/2/2022 4:15:00 AM -99999.99 -179968 -99999.99 -99999.99 -99999.99 -99999.99
11/2/2022 4:30:00 AM -99999.99 -179968 -99999.99 -99999.99 -99999.99 -99999.99
11/2/2022 4:45:00 AM -99999.99 -179968 -99999.99 -99999.99 -99999.99 -99999.99
11/2/2022 5:00:00 AM -99999.99 -179968 -99999.99 -99999.99 -99999.99 -99999.99
11/2/2022 5:15:00 AM -99999.99 -179968 -99999.99 -99999.99 -99999.99 -99999.99
11/2/2022 5:30:00 AM -99999.99 -179968 -99999.99 -99999.99 -99999.99 -99999.99
11/2/2022 5:45:00 AM -99999.99 -179968 -99999.99 -99999.99 -99999.99 -99999.99
11/2/2022 6:00:00 AM -99999.99 -179968 -99999.99 -99999.99 -99999.99 -99999.99
11/2/2022 6:15:00 AM -99999.99 -179968 -99999.99 -99999.99 -99999.99 -99999.99
11/2/2022 6:30:00 AM -99999.99 -179968 -99999.99 -99999.99 -99999.99 -99999.99
11/2/2022 6:45:00 AM -99999.99 -179968 -99999.99 -99999.99 -99999.99 -99999.99
11/2/2022 7:00:00 AM -99999.99 -179968 -99999.99 -99999.99 -99999.99 -99999.99
11/2/2022 7:15:00 AM -99999.99 -179968 -99999.99 -99999.99 -99999.99 -99999.99
11/2/2022 7:30:00 AM -99999.99 -179968 -99999.99 -99999.99 -99999.99 -99999.99
11/2/2022 7:45:00 AM -99999.99 -179968 -99999.99 -99999.99 -99999.99 -99999.99
11/2/2022 8:00:00 AM -99999.99 -179968 -99999.99 -99999.99 -99999.99 -99999.99
11/2/2022 8:15:00 AM -99999.99 -179968 -99999.99 -99999.99 -99999.99 -99999.99
11/2/2022 8:30:00 AM -99999.99 -179968 -99999.99 -99999.99 -99999.99 -99999.99
11/2/2022 8:45:00 AM -99999.99 -179968 -99999.99 -99999.99 -99999.99 -99999.99
11/2/2022 9:00:00 AM -99999.99 -179968 -99999.99 -99999.99 -99999.99 -99999.99
11/2/2022 9:15:00 AM -99999.99 -179968 -99999.99 -99999.99 -99999.99 -99999.99
11/2/2022 9:30:00 AM -99999.99 -179968 -99999.99 -99999.99 -99999.99 -99999.99
11/2/2022 9:45:00 AM -99999.99 -179968 -99999.99 -99999.99 -99999.99 -99999.99
11/2/2022 10:00:00 AM -99999.99 -179968 -99999.99 -99999.99 -99999.99 -99999.99
11/2/2022 10:15:00 AM -99999.99 -179968 -99999.99 -99999.99 -99999.99 -99999.99
11/2/2022 10:30:00 AM -99999.99 -179968 -99999.99 -99999.99 -99999.99 -99999.99
11/2/2022 10:45:00 AM -99999.99 -179968 -99999.99 -99999.99 -99999.99 -99999.99
11/2/2022 11:00:00 AM -99999.99 -179968 -99999.99 -99999.99 -99999.99 -99999.99
11/2/2022 11:15:00 AM -99999.99 -179968 -99999.99 -99999.99 -99999.99 -99999.99
11/2/2022 11:30:00 AM -99999.99 -179968 -99999.99 -99999.99 -99999.99 -99999.99
11/2/2022 11:45:00 AM -99999.99 -179968 -99999.99 -99999.99 -99999.99 -99999.99
11/2/2022 12:00:00 PM -99999.99 -179968 -99999.99 -99999.99 -99999.99 -99999.99
11/2/2022 12:15:00 PM -99999.99 -179968 -99999.99 -99999.99 -99999.99 -99999.99
11/2/2022 12:30:00 PM -99999.99 -179968 -99999.99 -99999.99 -99999.99 -99999.99
11/2/2022 12:45:00 PM -99999.99 -179968 -99999.99 -99999.99 -99999.99 -99999.99
11/2/2022 1:00:00 PM -99999.99 -179968 -99999.99 -99999.99 -99999.99 -99999.99
11/2/2022 1:15:00 PM -99999.99 -179968 -99999.99 -99999.99 -99999.99 -99999.99
11/2/2022 1:30:00 PM -99999.99 -179968 -99999.99 -99999.99 -99999.99 -99999.99
11/2/2022 1:45:00 PM -99999.99 -179968 -99999.99 -99999.99 -99999.99 -99999.99
11/2/2022 2:00:00 PM -99999.99 -179968 -99999.99 -99999.99 -99999.99 -99999.99
11/2/2022 2:15:00 PM -99999.99 -179968 -99999.99 -99999.99 -99999.99 -99999.99
11/2/2022 2:30:00 PM -99999.99 -179968 -99999.99 -99999.99 -99999.99 -99999.99
11/2/2022 2:45:00 PM -99999.99 -179968 -99999.99 -99999.99 -99999.99 -99999.99
11/2/2022 3:00:00 PM -99999.99 -179968 -99999.99 -99999.99 -99999.99 -99999.99
11/2/2022 3:15:00 PM -99999.99 -179968 -99999.99 -99999.99 -99999.99 -99999.99
11/2/2022 3:30:00 PM -99999.99 -179968 -99999.99 -99999.99 -99999.99 -99999.99
11/2/2022 3:45:00 PM -99999.99 -179968 -99999.99 -99999.99 -99999.99 -99999.99
11/2/2022 4:00:00 PM -99999.99 -179968 -99999.99 -99999.99 -99999.99 -99999.99
11/2/2022 4:15:00 PM -99999.99 -179968 -99999.99 -99999.99 -99999.99 -99999.99
11/2/2022 4:30:00 PM 14.08 57.344 0.619 8.19 -0.14 12.02
11/2/2022 4:45:00 PM 14.03 57.254 0.62 8.18 -0.28 11.91
11/2/2022 5:00:00 PM 13.95 57.11 0.621 8.16 -0.28 11.73
11/2/2022 5:15:00 PM 13.88 56.984 0.622 8.14 -0.04 11.53
11/2/2022 5:30:00 PM 13.83 56.894 0.623 8.12 0.46 11.32
11/2/2022 5:45:00 PM 13.78 56.804 0.624 8.11 0.44 11.1
11/2/2022 6:00:00 PM 13.73 56.714 0.625 8.09 0.09 10.87
11/2/2022 6:15:00 PM 13.69 56.642 0.626 8.07 -0.07 10.65
11/2/2022 6:30:00 PM 13.64 56.552 0.627 8.05 -0.07 10.47
11/2/2022 6:45:00 PM 13.64 56.552 0.627 8.05 -0.07 10.47
11/2/2022 7:00:00 PM 13.64 56.552 0.627 8.05 -0.07 10.47
11/2/2022 7:15:00 PM 13.52 56.336 0.628 8.02 0.72 10.23
11/2/2022 7:30:00 PM 13.48 56.264 0.628 8.01 0.47 10.21
11/2/2022 7:45:00 PM 13.44 56.192 0.628 8 0.73 10.16
11/2/2022 8:00:00 PM 13.4 56.12 0.628 7.99 0.92 10.1
11/2/2022 8:15:00 PM 13.35 56.03 0.629 7.98 1.02 10.04
11/2/2022 8:30:00 PM 13.32 55.976 0.629 7.98 0.91 9.96
11/2/2022 8:45:00 PM 13.27 55.886 0.629 7.97 0.83 9.89
11/2/2022 9:00:00 PM 13.27 55.886 0.629 7.97 0.83 9.89
11/2/2022 9:15:00 PM 13.27 55.886 0.629 7.97 0.83 9.89
11/2/2022 9:30:00 PM -99999.99 -179968 -99999.99 -99999.99 -99999.99 -99999.99
11/2/2022 9:45:00 PM 13.1 55.58 0.628 7.96 0.36 9.74
11/2/2022 10:00:00 PM 13.06 55.508 0.628 7.96 0.73 9.7
11/2/2022 10:15:00 PM 13.02 55.436 0.628 7.97 0.93 9.66
11/2/2022 10:30:00 PM 12.98 55.364 0.628 7.97 0.36 9.67
11/2/2022 10:45:00 PM 12.94 55.292 0.628 7.96 0.99 9.61
11/2/2022 11:00:00 PM 12.9 55.22 0.628 7.96 0.52 9.6
11/2/2022 11:15:00 PM 12.87 55.166 0.627 7.96 0.65 9.58
11/2/2022 11:30:00 PM 12.83 55.094 0.628 7.95 1.66 9.56
11/2/2022 11:45:00 PM 12.8 55.04 0.628 7.96 0.57 9.55
11/3/2022 12:00:00 AM 12.77 54.986 0.628 7.95 0.91 9.52
11/3/2022 12:15:00 AM 12.73 54.914 0.628 7.95 0.67 9.51
11/3/2022 12:30:00 AM 12.7 54.86 0.628 7.95 0.47 9.49
11/3/2022 12:45:00 AM 12.67 54.806 0.628 7.95 0.77 9.47
11/3/2022 1:00:00 AM 12.64 54.752 0.629 7.95 0.42 9.46
11/3/2022 1:15:00 AM 12.61 54.698 0.629 7.96 0.2 9.46
11/3/2022 1:30:00 AM 12.58 54.644 0.629 7.95 0.72 9.44
11/3/2022 1:45:00 AM 12.55 54.59 0.63 7.95 1.01 9.45
11/3/2022 2:00:00 AM 12.52 54.536 0.63 7.95 0.34 9.42
11/3/2022 2:15:00 AM 12.5 54.5 0.631 7.96 1.41 9.41
11/3/2022 2:30:00 AM 12.47 54.446 0.631 7.95 0.78 9.41
11/3/2022 2:45:00 AM 12.44 54.392 0.631 7.95 0.5 9.4
11/3/2022 3:00:00 AM 12.41 54.338 0.632 7.95 0.89 9.38
11/3/2022 3:15:00 AM 12.38 54.284 0.632 7.93 0.3 9.38
11/3/2022 3:30:00 AM 12.35 54.23 0.632 7.94 0.42 9.38
11/3/2022 3:45:00 AM 12.33 54.194 0.633 7.94 1.11 9.36
11/3/2022 4:00:00 AM 12.29 54.122 0.633 7.94 0.79 9.35
11/3/2022 4:15:00 AM 12.26 54.068 0.633 7.95 0.85 9.36
11/3/2022 4:30:00 AM 12.23 54.014 0.633 7.94 1.08 9.37
11/3/2022 4:45:00 AM 12.2 53.96 0.634 7.94 0.39 9.37
11/3/2022 5:00:00 AM 12.17 53.906 0.634 7.94 0.37 9.38
11/3/2022 5:15:00 AM 12.13 53.834 0.634 7.94 0.77 9.38
11/3/2022 5:30:00 AM 12.1 53.78 0.634 7.94 0.93 9.38
11/3/2022 5:45:00 AM 12.07 53.726 0.634 7.94 1.37 9.37
11/3/2022 6:00:00 AM 12.03 53.654 0.635 7.94 1.35 9.39
11/3/2022 6:15:00 AM 12 53.6 0.635 7.94 1.58 9.39
11/3/2022 6:30:00 AM 11.97 53.546 0.635 7.94 1.37 9.4
11/3/2022 6:45:00 AM 11.93 53.474 0.636 7.94 0.45 9.41
11/3/2022 7:00:00 AM 11.9 53.42 0.636 7.94 0.69 9.4
11/3/2022 7:15:00 AM 11.87 53.366 0.636 7.93 1.02 9.42
11/3/2022 7:30:00 AM 11.83 53.294 0.637 7.94 0.56 9.41
11/3/2022 7:45:00 AM 11.8 53.24 0.637 7.94 0.83 9.46
11/3/2022 8:00:00 AM 11.76 53.168 0.637 7.94 0.19 9.46
11/3/2022 8:15:00 AM 11.73 53.114 0.637 7.95 0.18 9.53
11/3/2022 8:30:00 AM 11.71 53.078 0.637 7.95 0.11 9.6
11/3/2022 8:45:00 AM 11.68 53.024 0.638 7.96 0.18 9.68
11/3/2022 9:00:00 AM 11.67 53.006 0.638 7.97 -0.15 9.77
11/3/2022 9:15:00 AM 11.66 52.988 0.638 7.97 -0.1 9.88
11/3/2022 9:30:00 AM 11.67 53.006 0.638 7.98 -0.27 10.01
11/3/2022 9:45:00 AM 11.69 53.042 0.638 8 -0.45 10.18
11/3/2022 10:00:00 AM 11.74 53.132 0.637 8.01 -0.31 10.37
11/3/2022 10:15:00 AM 11.81 53.258 0.637 8.02 0 10.57
11/3/2022 10:30:00 AM 11.89 53.402 0.637 8.04 -0.38 10.8
11/3/2022 10:45:00 AM 11.99 53.582 0.637 8.05 0.08 11.01
11/3/2022 11:00:00 AM 12.1 53.78 0.637 8.07 -0.52 11.24
11/3/2022 11:15:00 AM -99999.99 -179968 -99999.99 -99999.99 -99999.99 -99999.99
11/3/2022 11:30:00 AM 12.33 54.194 0.637 8.1 0.08 11.66
11/3/2022 11:45:00 AM 12.47 54.446 0.636 8.11 -0.35 11.87
11/3/2022 12:00:00 PM -99999.99 -179968 -99999.99 -99999.99 -99999.99 -99999.99
11/3/2022 12:15:00 PM 12.75 54.95 0 7 0 0
11/3/2022 12:30:00 PM 12.89 55.202 0.636 8.17 -0.55 12.34
11/3/2022 12:45:00 PM 13.01 55.418 0.636 8.17 -0.17 12.48
11/3/2022 1:00:00 PM 13.13 55.634 0.636 8.17 -0.47 12.59
11/3/2022 1:15:00 PM 13.24 55.832 0.636 8.17 -0.19 12.68
11/3/2022 1:30:00 PM 13.33 55.994 0.635 8.18 -0.29 12.76
11/3/2022 1:45:00 PM 13.4 56.12 0.635 8.18 -0.39 12.81
11/3/2022 2:00:00 PM 13.46 56.228 0.635 8.19 -0.33 12.88
11/3/2022 2:15:00 PM 13.51 56.318 0.635 8.19 -0.29 12.92
11/3/2022 2:30:00 PM 13.55 56.39 0.634 8.2 -0.11 12.94
11/3/2022 2:45:00 PM 13.58 56.444 0.634 8.2 -0.49 12.96
11/3/2022 3:00:00 PM 13.59 56.462 0.635 8.2 -0.13 12.95
11/3/2022 3:15:00 PM 13.59 56.462 0.634 8.2 -0.51 12.94
11/3/2022 3:30:00 PM 13.58 56.444 0.634 8.2 -0.22 12.91
11/3/2022 3:45:00 PM 13.58 56.444 0.634 8.21 0.02 12.91
11/3/2022 4:00:00 PM -99999.99 -179968 -99999.99 -99999.99 -99999.99 -99999.99
11/3/2022 4:15:00 PM -99999.99 -179968 -99999.99 -99999.99 -99999.99 -99999.99
11/3/2022 4:30:00 PM -99999.99 -179968 -99999.99 -99999.99 -99999.99 -99999.99
11/3/2022 4:45:00 PM -99999.99 -179968 -99999.99 -99999.99 -99999.99 -99999.99
11/3/2022 5:00:00 PM -99999.99 -179968 -99999.99 -99999.99 -99999.99 -99999.99
11/3/2022 5:15:00 PM -99999.99 -179968 -99999.99 -99999.99 -99999.99 -99999.99
11/3/2022 5:30:00 PM -99999.99 -179968 -99999.99 -99999.99 -99999.99 -99999.99
11/3/2022 5:45:00 PM -99999.99 -179968 -99999.99 -99999.99 -99999.99 -99999.99
11/3/2022 6:00:00 PM -99999.99 -179968 -99999.99 -99999.99 -99999.99 -99999.99
11/3/2022 6:15:00 PM -99999.99 -179968 -99999.99 -99999.99 -99999.99 -99999.99
11/3/2022 6:30:00 PM -99999.99 -179968 -99999.99 -99999.99 -99999.99 -99999.99
11/3/2022 6:45:00 PM -99999.99 -179968 -99999.99 -99999.99 -99999.99 -99999.99
11/3/2022 7:00:00 PM -99999.99 -179968 -99999.99 -99999.99 -99999.99 -99999.99
11/3/2022 7:15:00 PM -99999.99 -179968 -99999.99 -99999.99 -99999.99 -99999.99
11/3/2022 7:30:00 PM -99999.99 -179968 -99999.99 -99999.99 -99999.99 -99999.99
11/3/2022 7:45:00 PM -99999.99 -179968 -99999.99 -99999.99 -99999.99 -99999.99
11/3/2022 8:00:00 PM -99999.99 -179968 -99999.99 -99999.99 -99999.99 -99999.99
11/3/2022 8:15:00 PM -99999.99 -179968 -99999.99 -99999.99 -99999.99 -99999.99
11/3/2022 8:30:00 PM -99999.99 -179968 -99999.99 -99999.99 -99999.99 -99999.99
11/3/2022 8:45:00 PM -99999.99 -179968 -99999.99 -99999.99 -99999.99 -99999.99
11/3/2022 9:00:00 PM -99999.99 -179968 -99999.99 -99999.99 -99999.99 -99999.99
11/3/2022 9:15:00 PM -99999.99 -179968 -99999.99 -99999.99 -99999.99 -99999.99
11/3/2022 9:30:00 PM -99999.99 -179968 -99999.99 -99999.99 -99999.99 -99999.99
11/3/2022 9:45:00 PM -99999.99 -179968 -99999.99 -99999.99 -99999.99 -99999.99
11/3/2022 10:00:00 PM -99999.99 -179968 -99999.99 -99999.99 -99999.99 -99999.99
11/3/2022 10:15:00 PM -99999.99 -179968 -99999.99 -99999.99 -99999.99 -99999.99
11/3/2022 10:30:00 PM -99999.99 -179968 -99999.99 -99999.99 -99999.99 -99999.99
11/3/2022 10:45:00 PM -99999.99 -179968 -99999.99 -99999.99 -99999.99 -99999.99
11/3/2022 11:00:00 PM -99999.99 -179968 -99999.99 -99999.99 -99999.99 -99999.99
11/3/2022 11:15:00 PM -99999.99 -179968 -99999.99 -99999.99 -99999.99 -99999.99
11/3/2022 11:30:00 PM -99999.99 -179968 -99999.99 -99999.99 -99999.99 -99999.99
11/3/2022 11:45:00 PM -99999.99 -179968 -99999.99 -99999.99 -99999.99 -99999.99
11/4/2022 12:00:00 AM -99999.99 -179968 -99999.99 -99999.99 -99999.99 -99999.99
11/4/2022 12:15:00 AM -99999.99 -179968 -99999.99 -99999.99 -99999.99 -99999.99
11/4/2022 12:30:00 AM -99999.99 -179968 -99999.99 -99999.99 -99999.99 -99999.99
11/4/2022 12:45:00 AM -99999.99 -179968 -99999.99 -99999.99 -99999.99 -99999.99
11/4/2022 1:00:00 AM -99999.99 -179968 -99999.99 -99999.99 -99999.99 -99999.99
11/4/2022 1:15:00 AM -99999.99 -179968 -99999.99 -99999.99 -99999.99 -99999.99
11/4/2022 1:30:00 AM -99999.99 -179968 -99999.99 -99999.99 -99999.99 -99999.99
11/4/2022 1:45:00 AM -99999.99 -179968 -99999.99 -99999.99 -99999.99 -99999.99
11/4/2022 2:00:00 AM -99999.99 -179968 -99999.99 -99999.99 -99999.99 -99999.99
11/4/2022 2:15:00 AM -99999.99 -179968 -99999.99 -99999.99 -99999.99 -99999.99
11/4/2022 2:30:00 AM -99999.99 -179968 -99999.99 -99999.99 -99999.99 -99999.99
11/4/2022 2:45:00 AM -99999.99 -179968 -99999.99 -99999.99 -99999.99 -99999.99
11/4/2022 3:00:00 AM -99999.99 -179968 -99999.99 -99999.99 -99999.99 -99999.99
11/4/2022 3:15:00 AM -99999.99 -179968 -99999.99 -99999.99 -99999.99 -99999.99
11/4/2022 3:30:00 AM -99999.99 -179968 -99999.99 -99999.99 -99999.99 -99999.99
11/4/2022 3:45:00 AM -99999.99 -179968 -99999.99 -99999.99 -99999.99 -99999.99
11/4/2022 4:00:00 AM -99999.99 -179968 -99999.99 -99999.99 -99999.99 -99999.99
11/4/2022 4:15:00 AM -99999.99 -179968 -99999.99 -99999.99 -99999.99 -99999.99
11/4/2022 4:30:00 AM -99999.99 -179968 -99999.99 -99999.99 -99999.99 -99999.99
11/4/2022 4:45:00 AM -99999.99 -179968 -99999.99 -99999.99 -99999.99 -99999.99
11/4/2022 5:00:00 AM -99999.99 -179968 -99999.99 -99999.99 -99999.99 -99999.99
11/4/2022 5:15:00 AM -99999.99 -179968 -99999.99 -99999.99 -99999.99 -99999.99
11/4/2022 5:30:00 AM -99999.99 -179968 -99999.99 -99999.99 -99999.99 -99999.99
11/4/2022 5:45:00 AM -99999.99 -179968 -99999.99 -99999.99 -99999.99 -99999.99
11/4/2022 6:00:00 AM -99999.99 -179968 -99999.99 -99999.99 -99999.99 -99999.99
11/4/2022 6:15:00 AM -99999.99 -179968 -99999.99 -99999.99 -99999.99 -99999.99
11/4/2022 6:30:00 AM -99999.99 -179968 -99999.99 -99999.99 -99999.99 -99999.99
11/4/2022 6:45:00 AM -99999.99 -179968 -99999.99 -99999.99 -99999.99 -99999.99
11/4/2022 7:00:00 AM -99999.99 -179968 -99999.99 -99999.99 -99999.99 -99999.99
11/4/2022 7:15:00 AM -99999.99 -179968 -99999.99 -99999.99 -99999.99 -99999.99
11/4/2022 7:30:00 AM -99999.99 -179968 -99999.99 -99999.99 -99999.99 -99999.99
11/4/2022 7:45:00 AM -99999.99 -179968 -99999.99 -99999.99 -99999.99 -99999.99
11/4/2022 8:00:00 AM -99999.99 -179968 -99999.99 -99999.99 -99999.99 -99999.99
11/4/2022 8:15:00 AM -99999.99 -179968 -99999.99 -99999.99 -99999.99 -99999.99
11/4/2022 8:30:00 AM -99999.99 -179968 -99999.99 -99999.99 -99999.99 -99999.99
11/4/2022 8:45:00 AM -99999.99 -179968 -99999.99 -99999.99 -99999.99 -99999.99
11/4/2022 9:00:00 AM -99999.99 -179968 -99999.99 -99999.99 -99999.99 -99999.99
11/4/2022 9:15:00 AM -99999.99 -179968 -99999.99 -99999.99 -99999.99 -99999.99
11/4/2022 9:30:00 AM -99999.99 -179968 -99999.99 -99999.99 -99999.99 -99999.99
11/4/2022 9:45:00 AM -99999.99 -179968 -99999.99 -99999.99 -99999.99 -99999.99
11/4/2022 10:00:00 AM -99999.99 -179968 -99999.99 -99999.99 -99999.99 -99999.99
11/4/2022 10:15:00 AM -99999.99 -179968 -99999.99 -99999.99 -99999.99 -99999.99
11/4/2022 10:30:00 AM -99999.99 -179968 -99999.99 -99999.99 -99999.99 -99999.99
11/4/2022 10:45:00 AM -99999.99 -179968 -99999.99 -99999.99 -99999.99 -99999.99
11/4/2022 11:00:00 AM -99999.99 -179968 -99999.99 -99999.99 -99999.99 -99999.99
11/4/2022 11:15:00 AM -99999.99 -179968 -99999.99 -99999.99 -99999.99 -99999.99
11/4/2022 11:30:00 AM -99999.99 -179968 -99999.99 -99999.99 -99999.99 -99999.99
11/4/2022 11:45:00 AM -99999.99 -179968 -99999.99 -99999.99 -99999.99 -99999.99
11/4/2022 12:00:00 PM -99999.99 -179968 -99999.99 -99999.99 -99999.99 -99999.99
11/4/2022 12:15:00 PM -99999.99 -179968 -99999.99 -99999.99 -99999.99 -99999.99
11/4/2022 12:30:00 PM -99999.99 -179968 -99999.99 -99999.99 -99999.99 -99999.99
11/4/2022 12:45:00 PM -99999.99 -179968 -99999.99 -99999.99 -99999.99 -99999.99
11/4/2022 1:00:00 PM -99999.99 -179968 -99999.99 -99999.99 -99999.99 -99999.99
11/4/2022 1:15:00 PM -99999.99 -179968 -99999.99 -99999.99 -99999.99 -99999.99
11/4/2022 1:30:00 PM -99999.99 -179968 -99999.99 -99999.99 -99999.99 -99999.99
11/4/2022 1:45:00 PM -99999.99 -179968 -99999.99 -99999.99 -99999.99 -99999.99
11/4/2022 2:00:00 PM -99999.99 -179968 -99999.99 -99999.99 -99999.99 -99999.99
11/4/2022 2:15:00 PM -99999.99 -179968 -99999.99 -99999.99 -99999.99 -99999.99
11/4/2022 2:30:00 PM -99999.99 -179968 -99999.99 -99999.99 -99999.99 -99999.99
11/4/2022 2:45:00 PM -99999.99 -179968 -99999.99 -99999.99 -99999.99 -99999.99
11/4/2022 3:00:00 PM -99999.99 -179968 -99999.99 -99999.99 -99999.99 -99999.99
11/4/2022 3:15:00 PM -99999.99 -179968 -99999.99 -99999.99 -99999.99 -99999.99
11/4/2022 3:30:00 PM -99999.99 -179968 -99999.99 -99999.99 -99999.99 -99999.99
11/4/2022 3:45:00 PM -99999.99 -179968 -99999.99 -99999.99 -99999.99 -99999.99
11/4/2022 4:00:00 PM -99999.99 -179968 -99999.99 -99999.99 -99999.99 -99999.99
11/4/2022 4:15:00 PM -99999.99 -179968 -99999.99 -99999.99 -99999.99 -99999.99
11/4/2022 4:30:00 PM -99999.99 -179968 -99999.99 -99999.99 -99999.99 -99999.99
11/4/2022 4:45:00 PM -99999.99 -179968 -99999.99 -99999.99 -99999.99 -99999.99
11/4/2022 5:00:00 PM -99999.99 -179968 -99999.99 -99999.99 -99999.99 -99999.99
11/4/2022 5:15:00 PM -99999.99 -179968 -99999.99 -99999.99 -99999.99 -99999.99
11/4/2022 5:30:00 PM -99999.99 -179968 -99999.99 -99999.99 -99999.99 -99999.99
11/4/2022 5:45:00 PM -99999.99 -179968 -99999.99 -99999.99 -99999.99 -99999.99
11/4/2022 6:00:00 PM -99999.99 -179968 -99999.99 -99999.99 -99999.99 -99999.99
11/4/2022 6:15:00 PM -99999.99 -179968 -99999.99 -99999.99 -99999.99 -99999.99
11/4/2022 6:30:00 PM -99999.99 -179968 -99999.99 -99999.99 -99999.99 -99999.99
11/4/2022 6:45:00 PM -99999.99 -179968 -99999.99 -99999.99 -99999.99 -99999.99
11/4/2022 7:00:00 PM -99999.99 -179968 -99999.99 -99999.99 -99999.99 -99999.99
11/4/2022 7:15:00 PM -99999.99 -179968 -99999.99 -99999.99 -99999.99 -99999.99
11/4/2022 7:30:00 PM -99999.99 -179968 -99999.99 -99999.99 -99999.99 -99999.99
11/4/2022 7:45:00 PM -99999.99 -179968 -99999.99 -99999.99 -99999.99 -99999.99
11/4/2022 8:00:00 PM -99999.99 -179968 -99999.99 -99999.99 -99999.99 -99999.99
11/4/2022 8:15:00 PM -99999.99 -179968 -99999.99 -99999.99 -99999.99 -99999.99
11/4/2022 8:30:00 PM -99999.99 -179968 -99999.99 -99999.99 -99999.99 -99999.99
11/4/2022 8:45:00 PM -99999.99 -179968 -99999.99 -99999.99 -99999.99 -99999.99
11/4/2022 9:00:00 PM -99999.99 -179968 -99999.99 -99999.99 -99999.99 -99999.99
11/4/2022 9:15:00 PM -99999.99 -179968 -99999.99 -99999.99 -99999.99 -99999.99
11/4/2022 9:30:00 PM -99999.99 -179968 -99999.99 -99999.99 -99999.99 -99999.99
11/4/2022 9:45:00 PM -99999.99 -179968 -99999.99 -99999.99 -99999.99 -99999.99
11/4/2022 10:00:00 PM -99999.99 -179968 -99999.99 -99999.99 -99999.99 -99999.99
11/4/2022 10:15:00 PM -99999.99 -179968 -99999.99 -99999.99 -99999.99 -99999.99
11/4/2022 10:30:00 PM -99999.99 -179968 -99999.99 -99999.99 -99999.99 -99999.99
11/4/2022 10:45:00 PM -99999.99 -179968 -99999.99 -99999.99 -99999.99 -99999.99
11/4/2022 11:00:00 PM -99999.99 -179968 -99999.99 -99999.99 -99999.99 -99999.99
11/4/2022 11:15:00 PM -99999.99 -179968 -99999.99 -99999.99 -99999.99 -99999.99
11/4/2022 11:30:00 PM -99999.99 -179968 -99999.99 -99999.99 -99999.99 -99999.99
11/4/2022 11:45:00 PM -99999.99 -179968 -99999.99 -99999.99 -99999.99 -99999.99
11/5/2022 12:00:00 AM -99999.99 -179968 -99999.99 -99999.99 -99999.99 -99999.99
11/5/2022 12:15:00 AM -99999.99 -179968 -99999.99 -99999.99 -99999.99 -99999.99
11/5/2022 12:30:00 AM -99999.99 -179968 -99999.99 -99999.99 -99999.99 -99999.99
11/5/2022 12:45:00 AM -99999.99 -179968 -99999.99 -99999.99 -99999.99 -99999.99
11/5/2022 1:00:00 AM -99999.99 -179968 -99999.99 -99999.99 -99999.99 -99999.99
11/5/2022 1:15:00 AM -99999.99 -179968 -99999.99 -99999.99 -99999.99 -99999.99
11/5/2022 1:30:00 AM -99999.99 -179968 -99999.99 -99999.99 -99999.99 -99999.99
11/5/2022 1:45:00 AM -99999.99 -179968 -99999.99 -99999.99 -99999.99 -99999.99
11/5/2022 2:00:00 AM -99999.99 -179968 -99999.99 -99999.99 -99999.99 -99999.99
11/5/2022 2:15:00 AM -99999.99 -179968 -99999.99 -99999.99 -99999.99 -99999.99
11/5/2022 2:30:00 AM -99999.99 -179968 -99999.99 -99999.99 -99999.99 -99999.99
11/5/2022 2:45:00 AM -99999.99 -179968 -99999.99 -99999.99 -99999.99 -99999.99
11/5/2022 3:00:00 AM -99999.99 -179968 -99999.99 -99999.99 -99999.99 -99999.99
11/5/2022 3:15:00 AM -99999.99 -179968 -99999.99 -99999.99 -99999.99 -99999.99
11/5/2022 3:30:00 AM -99999.99 -179968 -99999.99 -99999.99 -99999.99 -99999.99
11/5/2022 3:45:00 AM -99999.99 -179968 -99999.99 -99999.99 -99999.99 -99999.99
11/5/2022 4:00:00 AM -99999.99 -179968 -99999.99 -99999.99 -99999.99 -99999.99
11/5/2022 4:15:00 AM -99999.99 -179968 -99999.99 -99999.99 -99999.99 -99999.99
11/5/2022 4:30:00 AM -99999.99 -179968 -99999.99 -99999.99 -99999.99 -99999.99
11/5/2022 4:45:00 AM -99999.99 -179968 -99999.99 -99999.99 -99999.99 -99999.99
11/5/2022 5:00:00 AM -99999.99 -179968 -99999.99 -99999.99 -99999.99 -99999.99
11/5/2022 5:15:00 AM -99999.99 -179968 -99999.99 -99999.99 -99999.99 -99999.99
11/5/2022 5:30:00 AM -99999.99 -179968 -99999.99 -99999.99 -99999.99 -99999.99
11/5/2022 5:45:00 AM -99999.99 -179968 -99999.99 -99999.99 -99999.99 -99999.99
11/5/2022 6:00:00 AM -99999.99 -179968 -99999.99 -99999.99 -99999.99 -99999.99
11/5/2022 6:15:00 AM -99999.99 -179968 -99999.99 -99999.99 -99999.99 -99999.99
11/5/2022 6:30:00 AM -99999.99 -179968 -99999.99 -99999.99 -99999.99 -99999.99
11/5/2022 6:45:00 AM -99999.99 -179968 -99999.99 -99999.99 -99999.99 -99999.99
11/5/2022 7:00:00 AM -99999.99 -179968 -99999.99 -99999.99 -99999.99 -99999.99
11/5/2022 7:15:00 AM -99999.99 -179968 -99999.99 -99999.99 -99999.99 -99999.99
11/5/2022 7:30:00 AM -99999.99 -179968 -99999.99 -99999.99 -99999.99 -99999.99
11/5/2022 7:45:00 AM -99999.99 -179968 -99999.99 -99999.99 -99999.99 -99999.99
11/5/2022 8:00:00 AM -99999.99 -179968 -99999.99 -99999.99 -99999.99 -99999.99
11/5/2022 8:15:00 AM -99999.99 -179968 -99999.99 -99999.99 -99999.99 -99999.99
11/5/2022 8:30:00 AM -99999.99 -179968 -99999.99 -99999.99 -99999.99 -99999.99
11/5/2022 8:45:00 AM -99999.99 -179968 -99999.99 -99999.99 -99999.99 -99999.99
11/5/2022 9:00:00 AM -99999.99 -179968 -99999.99 -99999.99 -99999.99 -99999.99
11/5/2022 9:15:00 AM -99999.99 -179968 -99999.99 -99999.99 -99999.99 -99999.99
11/5/2022 9:30:00 AM -99999.99 -179968 -99999.99 -99999.99 -99999.99 -99999.99
11/5/2022 9:45:00 AM -99999.99 -179968 -99999.99 -99999.99 -99999.99 -99999.99
11/5/2022 10:00:00 AM -99999.99 -179968 -99999.99 -99999.99 -99999.99 -99999.99
11/5/2022 10:15:00 AM -99999.99 -179968 -99999.99 -99999.99 -99999.99 -99999.99
11/5/2022 10:30:00 AM -99999.99 -179968 -99999.99 -99999.99 -99999.99 -99999.99
11/5/2022 10:45:00 AM -99999.99 -179968 -99999.99 -99999.99 -99999.99 -99999.99
11/5/2022 11:00:00 AM -99999.99 -179968 -99999.99 -99999.99 -99999.99 -99999.99
11/5/2022 11:15:00 AM -99999.99 -179968 -99999.99 -99999.99 -99999.99 -99999.99
11/5/2022 11:30:00 AM -99999.99 -179968 -99999.99 -99999.99 -99999.99 -99999.99
11/5/2022 11:45:00 AM -99999.99 -179968 -99999.99 -99999.99 -99999.99 -99999.99
11/5/2022 12:00:00 PM -99999.99 -179968 -99999.99 -99999.99 -99999.99 -99999.99
11/5/2022 12:15:00 PM -99999.99 -179968 -99999.99 -99999.99 -99999.99 -99999.99
11/5/2022 12:30:00 PM -99999.99 -179968 -99999.99 -99999.99 -99999.99 -99999.99
11/5/2022 12:45:00 PM -99999.99 -179968 -99999.99 -99999.99 -99999.99 -99999.99
11/5/2022 1:00:00 PM -99999.99 -179968 -99999.99 -99999.99 -99999.99 -99999.99
11/5/2022 1:15:00 PM -99999.99 -179968 -99999.99 -99999.99 -99999.99 -99999.99
11/5/2022 1:30:00 PM -99999.99 -179968 -99999.99 -99999.99 -99999.99 -99999.99
11/5/2022 1:45:00 PM -99999.99 -179968 -99999.99 -99999.99 -99999.99 -99999.99
11/5/2022 2:00:00 PM -99999.99 -179968 -99999.99 -99999.99 -99999.99 -99999.99
11/5/2022 2:15:00 PM -99999.99 -179968 -99999.99 -99999.99 -99999.99 -99999.99
11/5/2022 2:30:00 PM -99999.99 -179968 -99999.99 -99999.99 -99999.99 -99999.99
11/5/2022 2:45:00 PM -99999.99 -179968 -99999.99 -99999.99 -99999.99 -99999.99
11/5/2022 3:00:00 PM -99999.99 -179968 -99999.99 -99999.99 -99999.99 -99999.99
11/5/2022 3:15:00 PM -99999.99 -179968 -99999.99 -99999.99 -99999.99 -99999.99
11/5/2022 3:30:00 PM -99999.99 -179968 -99999.99 -99999.99 -99999.99 -99999.99
11/5/2022 3:45:00 PM -99999.99 -179968 -99999.99 -99999.99 -99999.99 -99999.99
11/5/2022 4:00:00 PM -99999.99 -179968 -99999.99 -99999.99 -99999.99 -99999.99
11/5/2022 4:15:00 PM -99999.99 -179968 -99999.99 -99999.99 -99999.99 -99999.99
11/5/2022 4:30:00 PM -99999.99 -179968 -99999.99 -99999.99 -99999.99 -99999.99
11/5/2022 4:45:00 PM -99999.99 -179968 -99999.99 -99999.99 -99999.99 -99999.99
11/5/2022 5:00:00 PM -99999.99 -179968 -99999.99 -99999.99 -99999.99 -99999.99
11/5/2022 5:15:00 PM -99999.99 -179968 -99999.99 -99999.99 -99999.99 -99999.99
11/5/2022 5:30:00 PM -99999.99 -179968 -99999.99 -99999.99 -99999.99 -99999.99
11/5/2022 5:45:00 PM -99999.99 -179968 -99999.99 -99999.99 -99999.99 -99999.99
11/5/2022 6:00:00 PM -99999.99 -179968 -99999.99 -99999.99 -99999.99 -99999.99
11/5/2022 6:15:00 PM -99999.99 -179968 -99999.99 -99999.99 -99999.99 -99999.99
11/5/2022 6:30:00 PM -99999.99 -179968 -99999.99 -99999.99 -99999.99 -99999.99
11/5/2022 6:45:00 PM -99999.99 -179968 -99999.99 -99999.99 -99999.99 -99999.99
11/5/2022 7:00:00 PM -99999.99 -179968 -99999.99 -99999.99 -99999.99 -99999.99
11/5/2022 7:15:00 PM -99999.99 -179968 -99999.99 -99999.99 -99999.99 -99999.99
11/5/2022 7:30:00 PM -99999.99 -179968 -99999.99 -99999.99 -99999.99 -99999.99
11/5/2022 7:45:00 PM -99999.99 -179968 -99999.99 -99999.99 -99999.99 -99999.99
11/5/2022 8:00:00 PM -99999.99 -179968 -99999.99 -99999.99 -99999.99 -99999.99
11/5/2022 8:15:00 PM -99999.99 -179968 -99999.99 -99999.99 -99999.99 -99999.99
11/5/2022 8:30:00 PM -99999.99 -179968 -99999.99 -99999.99 -99999.99 -99999.99
11/5/2022 8:45:00 PM -99999.99 -179968 -99999.99 -99999.99 -99999.99 -99999.99
11/5/2022 9:00:00 PM -99999.99 -179968 -99999.99 -99999.99 -99999.99 -99999.99
11/5/2022 9:15:00 PM -99999.99 -179968 -99999.99 -99999.99 -99999.99 -99999.99
11/5/2022 9:30:00 PM -99999.99 -179968 -99999.99 -99999.99 -99999.99 -99999.99
11/5/2022 9:45:00 PM -99999.99 -179968 -99999.99 -99999.99 -99999.99 -99999.99
11/5/2022 10:00:00 PM -99999.99 -179968 -99999.99 -99999.99 -99999.99 -99999.99
11/5/2022 10:15:00 PM -99999.99 -179968 -99999.99 -99999.99 -99999.99 -99999.99
11/5/2022 10:30:00 PM -99999.99 -179968 -99999.99 -99999.99 -99999.99 -99999.99
11/5/2022 10:45:00 PM -99999.99 -179968 -99999.99 -99999.99 -99999.99 -99999.99
11/5/2022 11:00:00 PM -99999.99 -179968 -99999.99 -99999.99 -99999.99 -99999.99
11/5/2022 11:15:00 PM -99999.99 -179968 -99999.99 -99999.99 -99999.99 -99999.99
11/5/2022 11:30:00 PM -99999.99 -179968 -99999.99 -99999.99 -99999.99 -99999.99
11/5/2022 11:45:00 PM -99999.99 -179968 -99999.99 -99999.99 -99999.99 -99999.99
11/6/2022 12:00:00 AM -99999.99 -179968 -99999.99 -99999.99 -99999.99 -99999.99
11/6/2022 12:15:00 AM -99999.99 -179968 -99999.99 -99999.99 -99999.99 -99999.99
11/6/2022 12:30:00 AM -99999.99 -179968 -99999.99 -99999.99 -99999.99 -99999.99
11/6/2022 12:45:00 AM -99999.99 -179968 -99999.99 -99999.99 -99999.99 -99999.99
11/6/2022 1:00:00 AM -99999.99 -179968 -99999.99 -99999.99 -99999.99 -99999.99
11/6/2022 1:15:00 AM -99999.99 -179968 -99999.99 -99999.99 -99999.99 -99999.99
11/6/2022 1:30:00 AM -99999.99 -179968 -99999.99 -99999.99 -99999.99 -99999.99
11/6/2022 1:45:00 AM -99999.99 -179968 -99999.99 -99999.99 -99999.99 -99999.99
11/6/2022 2:00:00 AM -99999.99 -179968 -99999.99 -99999.99 -99999.99 -99999.99
11/6/2022 2:15:00 AM -99999.99 -179968 -99999.99 -99999.99 -99999.99 -99999.99
11/6/2022 2:30:00 AM -99999.99 -179968 -99999.99 -99999.99 -99999.99 -99999.99
11/6/2022 2:45:00 AM -99999.99 -179968 -99999.99 -99999.99 -99999.99 -99999.99
11/6/2022 3:00:00 AM -99999.99 -179968 -99999.99 -99999.99 -99999.99 -99999.99
11/6/2022 3:15:00 AM -99999.99 -179968 -99999.99 -99999.99 -99999.99 -99999.99
11/6/2022 3:30:00 AM -99999.99 -179968 -99999.99 -99999.99 -99999.99 -99999.99
11/6/2022 4:00:00 AM -99999.99 -179968 -99999.99 -99999.99 -99999.99 -99999.99
11/6/2022 4:15:00 AM -99999.99 -179968 -99999.99 -99999.99 -99999.99 -99999.99
11/6/2022 4:30:00 AM -99999.99 -179968 -99999.99 -99999.99 -99999.99 -99999.99
11/6/2022 4:45:00 AM -99999.99 -179968 -99999.99 -99999.99 -99999.99 -99999.99
11/6/2022 5:00:00 AM -99999.99 -179968 -99999.99 -99999.99 -99999.99 -99999.99
11/6/2022 5:15:00 AM -99999.99 -179968 -99999.99 -99999.99 -99999.99 -99999.99
11/6/2022 5:30:00 AM -99999.99 -179968 -99999.99 -99999.99 -99999.99 -99999.99
11/6/2022 5:45:00 AM -99999.99 -179968 -99999.99 -99999.99 -99999.99 -99999.99
11/6/2022 6:00:00 AM -99999.99 -179968 -99999.99 -99999.99 -99999.99 -99999.99
11/6/2022 6:15:00 AM -99999.99 -179968 -99999.99 -99999.99 -99999.99 -99999.99
11/6/2022 6:30:00 AM -99999.99 -179968 -99999.99 -99999.99 -99999.99 -99999.99
11/6/2022 6:45:00 AM -99999.99 -179968 -99999.99 -99999.99 -99999.99 -99999.99
11/6/2022 7:00:00 AM -99999.99 -179968 -99999.99 -99999.99 -99999.99 -99999.99
11/6/2022 7:15:00 AM -99999.99 -179968 -99999.99 -99999.99 -99999.99 -99999.99
11/6/2022 7:30:00 AM -99999.99 -179968 -99999.99 -99999.99 -99999.99 -99999.99
11/6/2022 7:45:00 AM -99999.99 -179968 -99999.99 -99999.99 -99999.99 -99999.99
11/6/2022 8:00:00 AM -99999.99 -179968 -99999.99 -99999.99 -99999.99 -99999.99
11/6/2022 8:15:00 AM -99999.99 -179968 -99999.99 -99999.99 -99999.99 -99999.99
11/6/2022 8:30:00 AM -99999.99 -179968 -99999.99 -99999.99 -99999.99 -99999.99
11/6/2022 8:45:00 AM -99999.99 -179968 -99999.99 -99999.99 -99999.99 -99999.99
11/6/2022 9:00:00 AM -99999.99 -179968 -99999.99 -99999.99 -99999.99 -99999.99
11/6/2022 9:15:00 AM -99999.99 -179968 -99999.99 -99999.99 -99999.99 -99999.99
11/6/2022 9:30:00 AM -99999.99 -179968 -99999.99 -99999.99 -99999.99 -99999.99
11/6/2022 9:45:00 AM -99999.99 -179968 -99999.99 -99999.99 -99999.99 -99999.99
11/6/2022 10:00:00 AM -99999.99 -179968 -99999.99 -99999.99 -99999.99 -99999.99
11/6/2022 10:15:00 AM -99999.99 -179968 -99999.99 -99999.99 -99999.99 -99999.99
11/6/2022 10:30:00 AM -99999.99 -179968 -99999.99 -99999.99 -99999.99 -99999.99
11/6/2022 10:45:00 AM -99999.99 -179968 -99999.99 -99999.99 -99999.99 -99999.99
11/6/2022 11:00:00 AM -99999.99 -179968 -99999.99 -99999.99 -99999.99 -99999.99
11/6/2022 11:15:00 AM -99999.99 -179968 -99999.99 -99999.99 -99999.99 -99999.99
11/6/2022 11:30:00 AM -99999.99 -179968 -99999.99 -99999.99 -99999.99 -99999.99
11/6/2022 11:45:00 AM -99999.99 -179968 -99999.99 -99999.99 -99999.99 -99999.99
11/6/2022 12:00:00 PM -99999.99 -179968 -99999.99 -99999.99 -99999.99 -99999.99
11/6/2022 12:15:00 PM -99999.99 -179968 -99999.99 -99999.99 -99999.99 -99999.99
11/6/2022 12:30:00 PM -99999.99 -179968 -99999.99 -99999.99 -99999.99 -99999.99
11/6/2022 12:45:00 PM -99999.99 -179968 -99999.99 -99999.99 -99999.99 -99999.99
11/6/2022 1:00:00 PM -99999.99 -179968 -99999.99 -99999.99 -99999.99 -99999.99
11/6/2022 1:15:00 PM -99999.99 -179968 -99999.99 -99999.99 -99999.99 -99999.99
11/6/2022 1:30:00 PM -99999.99 -179968 -99999.99 -99999.99 -99999.99 -99999.99
11/6/2022 1:45:00 PM -99999.99 -179968 -99999.99 -99999.99 -99999.99 -99999.99
11/6/2022 2:00:00 PM -99999.99 -179968 -99999.99 -99999.99 -99999.99 -99999.99
11/6/2022 2:15:00 PM -99999.99 -179968 -99999.99 -99999.99 -99999.99 -99999.99
11/6/2022 2:30:00 PM -99999.99 -179968 -99999.99 -99999.99 -99999.99 -99999.99
11/6/2022 2:45:00 PM -99999.99 -179968 -99999.99 -99999.99 -99999.99 -99999.99
11/6/2022 3:00:00 PM -99999.99 -179968 -99999.99 -99999.99 -99999.99 -99999.99
11/6/2022 3:15:00 PM -99999.99 -179968 -99999.99 -99999.99 -99999.99 -99999.99
11/6/2022 3:30:00 PM -99999.99 -179968 -99999.99 -99999.99 -99999.99 -99999.99
11/6/2022 3:45:00 PM -99999.99 -179968 -99999.99 -99999.99 -99999.99 -99999.99
11/6/2022 4:00:00 PM -99999.99 -179968 -99999.99 -99999.99 -99999.99 -99999.99
11/6/2022 4:15:00 PM -99999.99 -179968 -99999.99 -99999.99 -99999.99 -99999.99
11/6/2022 4:30:00 PM -99999.99 -179968 -99999.99 -99999.99 -99999.99 -99999.99
11/6/2022 4:45:00 PM -99999.99 -179968 -99999.99 -99999.99 -99999.99 -99999.99
11/6/2022 5:00:00 PM -99999.99 -179968 -99999.99 -99999.99 -99999.99 -99999.99
11/6/2022 5:15:00 PM -99999.99 -179968 -99999.99 -99999.99 -99999.99 -99999.99
11/6/2022 5:30:00 PM -99999.99 -179968 -99999.99 -99999.99 -99999.99 -99999.99
11/6/2022 5:45:00 PM -99999.99 -179968 -99999.99 -99999.99 -99999.99 -99999.99
11/6/2022 6:00:00 PM -99999.99 -179968 -99999.99 -99999.99 -99999.99 -99999.99
11/6/2022 6:15:00 PM -99999.99 -179968 -99999.99 -99999.99 -99999.99 -99999.99
11/6/2022 6:30:00 PM -99999.99 -179968 -99999.99 -99999.99 -99999.99 -99999.99
11/6/2022 6:45:00 PM -99999.99 -179968 -99999.99 -99999.99 -99999.99 -99999.99
11/6/2022 7:00:00 PM -99999.99 -179968 -99999.99 -99999.99 -99999.99 -99999.99
11/6/2022 7:15:00 PM -99999.99 -179968 -99999.99 -99999.99 -99999.99 -99999.99
11/6/2022 7:30:00 PM -99999.99 -179968 -99999.99 -99999.99 -99999.99 -99999.99
11/6/2022 7:45:00 PM -99999.99 -179968 -99999.99 -99999.99 -99999.99 -99999.99
11/6/2022 8:00:00 PM -99999.99 -179968 -99999.99 -99999.99 -99999.99 -99999.99
11/6/2022 8:15:00 PM -99999.99 -179968 -99999.99 -99999.99 -99999.99 -99999.99
11/6/2022 8:30:00 PM -99999.99 -179968 -99999.99 -99999.99 -99999.99 -99999.99
11/6/2022 8:45:00 PM -99999.99 -179968 -99999.99 -99999.99 -99999.99 -99999.99
11/6/2022 9:00:00 PM -99999.99 -179968 -99999.99 -99999.99 -99999.99 -99999.99
11/6/2022 9:15:00 PM -99999.99 -179968 -99999.99 -99999.99 -99999.99 -99999.99
11/6/2022 9:30:00 PM -99999.99 -179968 -99999.99 -99999.99 -99999.99 -99999.99
11/6/2022 9:45:00 PM -99999.99 -179968 -99999.99 -99999.99 -99999.99 -99999.99
11/6/2022 10:00:00 PM -99999.99 -179968 -99999.99 -99999.99 -99999.99 -99999.99
11/6/2022 10:15:00 PM -99999.99 -179968 -99999.99 -99999.99 -99999.99 -99999.99
11/6/2022 10:30:00 PM -99999.99 -179968 -99999.99 -99999.99 -99999.99 -99999.99
11/6/2022 10:45:00 PM -99999.99 -179968 -99999.99 -99999.99 -99999.99 -99999.99
11/6/2022 11:00:00 PM -99999.99 -179968 -99999.99 -99999.99 -99999.99 -99999.99
11/6/2022 11:15:00 PM -99999.99 -179968 -99999.99 -99999.99 -99999.99 -99999.99
11/6/2022 11:30:00 PM -99999.99 -179968 -99999.99 -99999.99 -99999.99 -99999.99
11/6/2022 11:45:00 PM -99999.99 -179968 -99999.99 -99999.99 -99999.99 -99999.99
11/7/2022 12:00:00 AM -99999.99 -179968 -99999.99 -99999.99 -99999.99 -99999.99
11/7/2022 12:15:00 AM -99999.99 -179968 -99999.99 -99999.99 -99999.99 -99999.99
11/7/2022 12:30:00 AM -99999.99 -179968 -99999.99 -99999.99 -99999.99 -99999.99
11/7/2022 12:45:00 AM -99999.99 -179968 -99999.99 -99999.99 -99999.99 -99999.99
11/7/2022 1:00:00 AM -99999.99 -179968 -99999.99 -99999.99 -99999.99 -99999.99
11/7/2022 1:15:00 AM -99999.99 -179968 -99999.99 -99999.99 -99999.99 -99999.99
11/7/2022 1:30:00 AM -99999.99 -179968 -99999.99 -99999.99 -99999.99 -99999.99
11/7/2022 1:45:00 AM -99999.99 -179968 -99999.99 -99999.99 -99999.99 -99999.99
11/7/2022 2:00:00 AM -99999.99 -179968 -99999.99 -99999.99 -99999.99 -99999.99
11/7/2022 2:15:00 AM -99999.99 -179968 -99999.99 -99999.99 -99999.99 -99999.99
11/7/2022 2:30:00 AM -99999.99 -179968 -99999.99 -99999.99 -99999.99 -99999.99
11/7/2022 2:45:00 AM -99999.99 -179968 -99999.99 -99999.99 -99999.99 -99999.99
11/7/2022 3:00:00 AM -99999.99 -179968 -99999.99 -99999.99 -99999.99 -99999.99
11/7/2022 3:15:00 AM -99999.99 -179968 -99999.99 -99999.99 -99999.99 -99999.99
11/7/2022 3:30:00 AM -99999.99 -179968 -99999.99 -99999.99 -99999.99 -99999.99
11/7/2022 3:45:00 AM -99999.99 -179968 -99999.99 -99999.99 -99999.99 -99999.99
11/7/2022 4:00:00 AM -99999.99 -179968 -99999.99 -99999.99 -99999.99 -99999.99
11/7/2022 4:15:00 AM -99999.99 -179968 -99999.99 -99999.99 -99999.99 -99999.99
11/7/2022 4:30:00 AM -99999.99 -179968 -99999.99 -99999.99 -99999.99 -99999.99
11/7/2022 4:45:00 AM -99999.99 -179968 -99999.99 -99999.99 -99999.99 -99999.99
11/7/2022 5:00:00 AM -99999.99 -179968 -99999.99 -99999.99 -99999.99 -99999.99
11/7/2022 5:15:00 AM -99999.99 -179968 -99999.99 -99999.99 -99999.99 -99999.99
11/7/2022 5:30:00 AM -99999.99 -179968 -99999.99 -99999.99 -99999.99 -99999.99
11/7/2022 5:45:00 AM -99999.99 -179968 -99999.99 -99999.99 -99999.99 -99999.99
11/7/2022 6:00:00 AM -99999.99 -179968 -99999.99 -99999.99 -99999.99 -99999.99
11/7/2022 6:15:00 AM -99999.99 -179968 -99999.99 -99999.99 -99999.99 -99999.99
11/7/2022 6:30:00 AM -99999.99 -179968 -99999.99 -99999.99 -99999.99 -99999.99
11/7/2022 6:45:00 AM -99999.99 -179968 -99999.99 -99999.99 -99999.99 -99999.99
11/7/2022 7:00:00 AM -99999.99 -179968 -99999.99 -99999.99 -99999.99 -99999.99
11/7/2022 7:15:00 AM -99999.99 -179968 -99999.99 -99999.99 -99999.99 -99999.99
11/7/2022 7:30:00 AM -99999.99 -179968 -99999.99 -99999.99 -99999.99 -99999.99
11/7/2022 7:45:00 AM -99999.99 -179968 -99999.99 -99999.99 -99999.99 -99999.99
11/7/2022 8:00:00 AM -99999.99 -179968 -99999.99 -99999.99 -99999.99 -99999.99
11/7/2022 8:15:00 AM -99999.99 -179968 -99999.99 -99999.99 -99999.99 -99999.99
11/7/2022 8:30:00 AM -99999.99 -179968 -99999.99 -99999.99 -99999.99 -99999.99
11/7/2022 8:45:00 AM -99999.99 -179968 -99999.99 -99999.99 -99999.99 -99999.99
11/7/2022 9:00:00 AM -99999.99 -179968 -99999.99 -99999.99 -99999.99 -99999.99
11/7/2022 9:15:00 AM -99999.99 -179968 -99999.99 -99999.99 -99999.99 -99999.99
11/7/2022 9:30:00 AM -99999.99 -179968 -99999.99 -99999.99 -99999.99 -99999.99
11/7/2022 9:45:00 AM -99999.99 -179968 -99999.99 -99999.99 -99999.99 -99999.99
11/7/2022 10:00:00 AM -99999.99 -179968 -99999.99 -99999.99 -99999.99 -99999.99
11/7/2022 10:15:00 AM -99999.99 -179968 -99999.99 -99999.99 -99999.99 -99999.99
11/7/2022 10:30:00 AM -99999.99 -179968 -99999.99 -99999.99 -99999.99 -99999.99
11/7/2022 10:45:00 AM 15.27 59.486 0 7 0 0
11/7/2022 11:00:00 AM 15.38 59.684 0.628 8.08 -0.11 11.04
11/7/2022 11:15:00 AM 15.47 59.846 0.626 8.09 -0.25 11.3
11/7/2022 11:30:00 AM 15.47 59.846 0.626 8.09 -0.25 11.3
11/7/2022 11:45:00 AM -99999.99 -179968 -99999.99 -99999.99 -99999.99 -99999.99
11/7/2022 12:00:00 PM -99999.99 -179968 -99999.99 -99999.99 -99999.99 -99999.99
11/7/2022 12:15:00 PM 15.81 60.458 0 7 0 0
11/7/2022 12:30:00 PM 15.88 60.584 0.623 8.24 0.01 12.56
11/7/2022 12:45:00 PM 15.93 60.674 0.635 8.24 -0.21 12.72
11/7/2022 1:00:00 PM 15.98 60.764 0.635 8.25 -0.15 12.82
11/7/2022 1:15:00 PM 16.02 60.836 0.634 8.26 -0.14 12.92
11/7/2022 1:30:00 PM 16.02 60.836 0.634 8.26 -0.14 12.92
11/7/2022 1:45:00 PM 16.02 60.836 0.634 8.26 -0.14 12.92
11/7/2022 2:00:00 PM 16.02 60.836 0.634 8.26 -0.14 12.92
11/7/2022 2:15:00 PM 16.04 60.872 0.633 8.26 -0.2 12.96
11/7/2022 2:30:00 PM 16.04 60.872 0.633 8.26 -0.2 12.96
11/7/2022 2:45:00 PM 15.98 60.764 0.632 8.26 1.83 12.84
11/7/2022 3:00:00 PM 15.93 60.674 0.632 8.25 -0.37 12.72
11/7/2022 3:15:00 PM 15.87 60.566 0.632 8.25 -0.2 12.57
11/7/2022 3:30:00 PM 15.8 60.44 0.631 8.24 -0.3 12.41
11/7/2022 3:45:00 PM 15.71 60.278 0.631 8.22 -0.33 12.22
11/7/2022 4:00:00 PM 15.63 60.134 0.632 8.21 -0.32 11.94
11/7/2022 4:15:00 PM 15.54 59.972 0.634 8.19 -0.3 11.66
11/7/2022 4:30:00 PM 15.44 59.792 0.634 8.17 -0.41 11.32
11/7/2022 4:45:00 PM 15.35 59.63 0.634 8.15 -0.23 10.99
11/7/2022 5:00:00 PM 15.26 59.468 0.634 8.13 0.02 10.72
11/7/2022 5:15:00 PM 15.17 59.306 0.634 8.11 -0.24 10.39
11/7/2022 5:30:00 PM 15.08 59.144 0.635 8.09 0.06 10.15
11/7/2022 5:45:00 PM 15 59 0.635 8.07 -0.18 9.9
11/7/2022 6:00:00 PM 14.92 58.856 0.635 8.06 0.31 9.71
11/7/2022 6:15:00 PM 14.84 58.712 0.635 8.04 0.15 9.52
11/7/2022 6:30:00 PM 14.78 58.604 0.636 8.03 0.05 9.38
11/7/2022 6:45:00 PM 14.71 58.478 0.636 8.02 0.13 9.27
11/7/2022 7:00:00 PM 14.65 58.37 0.636 8.02 -0.04 9.2
11/7/2022 7:15:00 PM 14.59 58.262 0.636 8.01 -0.06 9.12
11/7/2022 7:30:00 PM 14.53 58.154 0.636 8 0.3 9.06
11/7/2022 7:45:00 PM 14.47 58.046 0.636 8 -0.06 9.01
11/7/2022 8:00:00 PM 14.41 57.938 0.636 8 -0.14 8.96
11/7/2022 8:15:00 PM 14.36 57.848 0.636 8 0.49 8.94
11/7/2022 8:30:00 PM 14.3 57.74 0.636 8 0.21 8.89
11/7/2022 8:45:00 PM 14.23 57.614 0.636 8 0.18 8.85
11/7/2022 9:00:00 PM 14.16 57.488 0.637 8 0.04 8.82
11/7/2022 9:15:00 PM 14.1 57.38 0.636 7.99 0.09 8.8
11/7/2022 9:30:00 PM 14.03 57.254 0.636 7.99 0 8.77
11/7/2022 9:45:00 PM 13.97 57.146 0.636 7.99 -0.17 8.73
11/7/2022 10:00:00 PM 13.91 57.038 0.635 7.99 0.19 8.71
11/7/2022 10:15:00 PM 13.85 56.93 0.635 7.98 0.34 8.7
11/7/2022 10:30:00 PM 13.79 56.822 0.635 7.98 0.24 8.69
11/7/2022 10:45:00 PM 13.73 56.714 0.635 7.98 0.34 8.67
11/7/2022 11:00:00 PM 13.68 56.624 0.633 7.99 0.22 8.63
11/7/2022 11:15:00 PM 13.62 56.516 0.633 8 -0.08 8.62
11/7/2022 11:30:00 PM 13.56 56.408 0.632 8 0.05 8.62
11/7/2022 11:45:00 PM 13.5 56.3 0.632 8 -0.12 8.62
11/8/2022 12:00:00 AM 13.44 56.192 0.632 8 0.15 8.62
11/8/2022 12:15:00 AM 13.38 56.084 0.632 7.99 0.22 8.62
11/8/2022 12:30:00 AM 13.31 55.958 0.632 8 0.14 8.62
11/8/2022 12:45:00 AM 13.26 55.868 0.632 8 0.57 8.62
11/8/2022 1:00:00 AM 13.22 55.796 0.632 8 0.14 8.61
11/8/2022 1:15:00 AM 13.17 55.706 0.632 8 0.19 8.61
11/8/2022 1:30:00 AM 13.12 55.616 0.632 8 0.41 8.61
11/8/2022 1:45:00 AM 13.05 55.49 0.631 8 0.29 8.63
11/8/2022 2:00:00 AM 13 55.4 0.627 8 0.28 8.61
11/8/2022 2:15:00 AM 12.94 55.292 0.628 8 1.09 8.62
11/8/2022 2:30:00 AM 12.89 55.202 0.585 7.99 0.08 8.63
11/8/2022 2:45:00 AM 12.84 55.112 0.599 7.99 -0.18 8.62
11/8/2022 3:00:00 AM 12.79 55.022 0.595 7.98 0.17 8.62
11/8/2022 3:15:00 AM 12.74 54.932 0.595 7.99 0.99 8.63
11/8/2022 3:30:00 AM 12.7 54.86 0.592 7.98 0.34 8.62
11/8/2022 3:45:00 AM 12.66 54.788 0.592 7.97 0.37 8.62
11/8/2022 4:00:00 AM 12.62 54.716 0.589 7.97 0.29 8.62
11/8/2022 4:15:00 AM 12.57 54.626 0.584 7.97 0.04 8.61
11/8/2022 4:30:00 AM 12.53 54.554 0.583 7.97 0.43 8.61
11/8/2022 4:45:00 AM 12.49 54.482 0.584 7.96 0.46 8.62
11/8/2022 5:00:00 AM 12.45 54.41 0.584 7.97 0.26 8.63
11/8/2022 5:15:00 AM 12.4 54.32 0.564 7.96 0.34 8.65
11/8/2022 5:30:00 AM 12.35 54.23 0.543 7.97 0.51 8.64
11/8/2022 5:45:00 AM 12.3 54.14 0.539 7.96 0.59 8.66
11/8/2022 6:00:00 AM 12.25 54.05 0.536 7.96 0.31 8.69
11/8/2022 6:15:00 AM 12.19 53.942 0.534 7.96 0.42 8.7
11/8/2022 6:30:00 AM 12.14 53.852 0.452 7.96 0.62 8.71
11/8/2022 6:45:00 AM 12.09 53.762 0.456 7.96 0.42 8.73
11/8/2022 7:00:00 AM 12.04 53.672 0.459 7.96 0.31 8.77
11/8/2022 7:15:00 AM 12 53.6 0.459 7.97 0.32 8.82
11/8/2022 7:30:00 AM 11.95 53.51 0.501 7.98 0.15 8.92
11/8/2022 7:45:00 AM 11.92 53.456 0.502 7.98 0.05 9.05
11/8/2022 8:00:00 AM 11.89 53.402 0.502 7.99 0.03 9.18
11/8/2022 8:15:00 AM 11.87 53.366 0.502 8 0.01 9.32
11/8/2022 8:30:00 AM 11.87 53.366 0.513 8.01 -0.12 9.47
11/8/2022 8:45:00 AM 11.86 53.348 0.537 8.01 -0.18 9.66
11/8/2022 9:00:00 AM 11.87 53.366 0.538 8.03 -0.14 9.93
11/8/2022 9:15:00 AM 11.9 53.42 0.542 8.05 -0.32 10.22
11/8/2022 9:30:00 AM 11.94 53.492 0.546 8.08 0.26 10.56
11/8/2022 9:45:00 AM 11.97 53.546 0.548 8.1 -0.38 10.9
11/8/2022 10:00:00 AM 12.03 53.654 0.554 8.13 0.08 11.24
11/8/2022 10:15:00 AM 12.09 53.762 0.554 8.15 -0.51 11.56
11/8/2022 10:30:00 AM 12.17 53.906 0.555 8.17 -0.48 11.87
11/8/2022 10:45:00 AM 12.24 54.032 0.555 8.19 -0.21 12.15
11/8/2022 11:00:00 AM 12.32 54.176 0.565 8.21 -0.55 12.42
11/8/2022 11:15:00 AM 12.42 54.356 0.596 8.23 -0.64 12.68
11/8/2022 11:30:00 AM 12.53 54.554 0.62 8.25 -0.55 12.94
11/8/2022 11:45:00 AM 12.63 54.734 0.638 8.27 -0.28 13.17
11/8/2022 12:00:00 PM 12.72 54.896 0.646 8.28 -0.38 13.38
11/8/2022 12:15:00 PM 12.82 55.076 0.645 8.3 -0.57 13.59
11/8/2022 12:30:00 PM 12.92 55.256 0.644 8.31 -0.45 13.76
11/8/2022 12:45:00 PM 12.99 55.382 0.644 8.32 -0.54 13.9
11/8/2022 1:00:00 PM 13.06 55.508 0.643 8.33 -0.48 14.02
11/8/2022 1:15:00 PM 13.13 55.634 0.645 8.35 -0.38 14.13
11/8/2022 1:30:00 PM 13.17 55.706 0.642 8.35 -0.41 14.23
11/8/2022 1:45:00 PM 13.2 55.76 0.643 8.36 -0.1 14.24
11/8/2022 2:00:00 PM 13.21 55.778 0.644 8.36 -0.51 14.31
11/8/2022 2:15:00 PM 13.22 55.796 0.643 8.37 7.72 14.32
11/8/2022 2:30:00 PM 13.2 55.76 0.643 8.37 -0.31 14.29
11/8/2022 2:45:00 PM 13.18 55.724 0.645 8.37 -0.41 14.26
11/8/2022 3:00:00 PM 13.13 55.634 0.643 8.36 -0.52 14.2
11/8/2022 3:15:00 PM 13.07 55.526 0.644 8.36 -0.34 14.1
11/8/2022 3:30:00 PM 13 55.4 0.645 8.35 -0.33 13.98
11/8/2022 3:45:00 PM 12.91 55.238 0.645 8.34 -0.3 13.81
11/8/2022 4:00:00 PM 12.81 55.058 0.647 8.32 -0.5 13.59
11/8/2022 4:15:00 PM 12.71 54.878 0.648 8.3 -0.48 13.31
11/8/2022 4:30:00 PM 12.6 54.68 0.649 8.28 -0.55 12.97
11/8/2022 4:45:00 PM 12.51 54.518 0.65 8.26 -0.48 12.66
11/8/2022 5:00:00 PM 12.42 54.356 0.65 8.23 0.07 12.31
11/8/2022 5:15:00 PM 12.34 54.212 0.652 8.21 -0.29 12.01
11/8/2022 5:30:00 PM 12.26 54.068 0.64 8.18 0 11.7
11/8/2022 5:45:00 PM 12.19 53.942 0.649 8.17 0 11.43
11/8/2022 6:00:00 PM 12.13 53.834 0.56 8.15 0.87 11.17
11/8/2022 6:15:00 PM 12.06 53.708 0.652 8.12 -0.08 10.92
11/8/2022 6:30:00 PM 12 53.6 0.653 8.11 -0.1 10.69
11/8/2022 6:45:00 PM 11.95 53.51 0.653 8.09 -0.29 10.54
11/8/2022 7:00:00 PM 11.9 53.42 0.575 8.09 0.06 10.4
11/8/2022 7:15:00 PM 11.85 53.33 0.655 8.07 0.31 10.29
11/8/2022 7:30:00 PM 11.81 53.258 0.66 8.07 0.13 10.2
11/8/2022 7:45:00 PM 11.77 53.186 0.66 8.07 -0.09 10.1
11/8/2022 8:00:00 PM 11.72 53.096 0.66 8.06 0.14 10.04
11/8/2022 8:15:00 PM 11.68 53.024 0.661 8.05 0 9.98
11/8/2022 8:30:00 PM 11.63 52.934 0.661 8.04 0.05 9.92
11/8/2022 8:45:00 PM 11.59 52.862 0.662 8.04 -0.09 9.89
11/8/2022 9:00:00 PM 11.54 52.772 0.662 8.04 1.08 9.83
11/8/2022 9:15:00 PM 11.48 52.664 0.662 8.03 0.11 9.79
11/8/2022 9:30:00 PM 11.43 52.574 0.662 8.02 -0.07 9.75
11/8/2022 9:45:00 PM 11.37 52.466 0.662 8.02 -0.14 9.7
11/8/2022 10:00:00 PM 11.32 52.376 0.662 8.02 0.07 9.65
11/8/2022 10:15:00 PM 11.26 52.268 0.662 8.02 0.35 9.63
11/8/2022 10:30:00 PM 11.2 52.16 0.662 8.01 0.03 9.58
11/8/2022 10:45:00 PM 11.14 52.052 0.663 8.01 0.02 9.55
11/8/2022 11:00:00 PM 11.08 51.944 0.662 8 -0.16 9.52
11/8/2022 11:15:00 PM 11.02 51.836 0.662 8 -0.08 9.49
11/8/2022 11:30:00 PM 10.96 51.728 0.662 8 -0.16 9.46
11/8/2022 11:45:00 PM 10.9 51.62 0.662 7.99 0.29 9.43
11/9/2022 12:00:00 AM 10.84 51.512 0.662 7.99 -0.17 9.42
11/9/2022 12:15:00 AM 10.78 51.404 0.662 7.99 -0.12 9.4
11/9/2022 12:30:00 AM 10.72 51.296 0.662 7.99 -0.17 9.37
11/9/2022 12:45:00 AM 10.67 51.206 0.662 7.99 0.21 9.37
11/9/2022 1:00:00 AM 10.62 51.116 0.663 7.99 0 9.35
11/9/2022 1:15:00 AM 10.57 51.026 0.663 7.99 -0.02 9.33
11/9/2022 1:30:00 AM 10.52 50.936 0.663 7.99 0.17 9.31
11/9/2022 1:45:00 AM 10.47 50.846 0.663 7.98 -0.01 9.31
11/9/2022 2:00:00 AM 10.42 50.756 0.663 7.98 0.2 9.3
11/9/2022 2:15:00 AM 10.37 50.666 0.663 7.98 0.03 9.29
11/9/2022 2:30:00 AM 10.32 50.576 0.663 7.98 -0.04 9.29
11/9/2022 2:45:00 AM 10.27 50.486 0.664 7.98 -0.17 9.28
11/9/2022 3:00:00 AM 10.22 50.396 0.664 7.98 -0.16 9.26
11/9/2022 3:15:00 AM 10.17 50.306 0.664 7.98 0.29 9.28
11/9/2022 3:30:00 AM 10.12 50.216 0.664 7.98 0.16 9.26
11/9/2022 3:45:00 AM 10.07 50.126 0.665 7.98 0.35 9.24
11/9/2022 4:00:00 AM 10.02 50.036 0.665 7.98 0.3 9.25
11/9/2022 4:15:00 AM 9.96 49.928 0.665 7.98 0.14 9.24
11/9/2022 4:30:00 AM 9.92 49.856 0.665 7.97 0.43 9.24
11/9/2022 4:45:00 AM 9.86 49.748 0.665 7.97 0.51 9.24
11/9/2022 5:00:00 AM 9.81 49.658 0.666 7.98 0.36 9.25
11/9/2022 5:15:00 AM 9.76 49.568 0.666 7.97 0.42 9.25
11/9/2022 5:30:00 AM 9.71 49.478 0.666 7.97 0.21 9.26
11/9/2022 5:45:00 AM 9.66 49.388 0.667 7.96 -0.07 9.26
11/9/2022 6:00:00 AM 9.61 49.298 0.667 7.97 0.39 9.27
11/9/2022 6:15:00 AM 9.56 49.208 0.667 7.97 0.22 9.28
11/9/2022 6:30:00 AM 9.51 49.118 0.668 7.97 -0.08 9.28
11/9/2022 6:45:00 AM 9.45 49.01 0.668 7.97 0.14 9.3
11/9/2022 7:00:00 AM 9.41 48.938 0.668 7.97 0.9 9.32
11/9/2022 7:15:00 AM 9.36 48.848 0.669 7.97 0.11 9.36
11/9/2022 7:30:00 AM 9.32 48.776 0.669 7.97 -0.03 9.46
11/9/2022 7:45:00 AM 9.28 48.704 0.669 7.98 -0.1 9.55
11/9/2022 8:00:00 AM 9.25 48.65 0.669 7.99 -0.02 9.66
11/9/2022 8:15:00 AM 9.22 48.596 0.669 8 0.01 9.78
11/9/2022 8:30:00 AM 9.21 48.578 0.669 8.02 -0.23 9.95
11/9/2022 8:45:00 AM 9.21 48.578 0.67 8.03 -0.35 10.14
11/9/2022 9:00:00 AM 9.22 48.596 0.67 8.05 -0.32 10.37
11/9/2022 9:15:00 AM 9.26 48.668 0.67 8.07 -0.22 10.67
11/9/2022 9:30:00 AM 9.32 48.776 0.67 8.09 -0.12 11.01
11/9/2022 9:45:00 AM 9.4 48.92 0.67 8.11 -0.36 11.35
11/9/2022 10:00:00 AM 9.47 49.046 0.67 8.13 -0.21 11.68
11/9/2022 10:15:00 AM 9.58 49.244 0.67 8.16 -0.41 12.05
11/9/2022 10:30:00 AM 9.68 49.424 0.669 8.18 -0.45 12.39
11/9/2022 10:45:00 AM 9.81 49.658 0.669 8.21 -0.54 12.72
11/9/2022 11:00:00 AM 9.94 49.892 0.669 8.22 -0.46 13.02
11/9/2022 11:15:00 AM 10.08 50.144 0.669 8.24 -0.51 13.34
11/9/2022 11:30:00 AM 10.22 50.396 0.668 8.26 -0.61 13.62
11/9/2022 11:45:00 AM 10.37 50.666 0.668 8.28 -0.43 13.87
11/9/2022 12:00:00 PM 10.51 50.918 0.667 8.29 -0.43 14.1
11/9/2022 12:15:00 PM 10.64 51.152 0.667 8.3 -0.52 14.34
11/9/2022 12:30:00 PM 10.77 51.386 0.666 8.32 -0.32 14.54
11/9/2022 12:45:00 PM 10.88 51.584 0.666 8.33 -0.07 14.66
11/9/2022 1:00:00 PM 10.97 51.746 0.665 8.34 -0.53 14.8
11/9/2022 1:15:00 PM 11.07 51.926 0.665 8.35 -0.58 14.95
11/9/2022 1:30:00 PM 11.13 52.034 0.665 8.35 -0.38 15.01
11/9/2022 1:45:00 PM 11.19 52.142 0.665 8.36 -0.45 15.11
11/9/2022 2:00:00 PM 11.22 52.196 0.664 8.37 -0.4 15.14
11/9/2022 2:15:00 PM 11.23 52.214 0.664 8.37 -0.47 15.16
11/9/2022 2:30:00 PM 11.23 52.214 0.664 8.37 -0.57 15.13
11/9/2022 2:45:00 PM 11.22 52.196 0.664 8.37 -0.3 15.07
11/9/2022 3:00:00 PM 11.19 52.142 0.664 8.37 -0.32 15.02
11/9/2022 3:15:00 PM 11.15 52.07 0.664 8.36 -0.47 14.91
11/9/2022 3:30:00 PM 11.11 51.998 0.664 8.36 -0.57 14.8
11/9/2022 3:45:00 PM 11.06 51.908 0.664 8.35 -0.05 14.67
11/9/2022 4:00:00 PM 11 51.8 0.664 8.34 -0.59 14.45
11/9/2022 4:15:00 PM 10.94 51.692 0.664 8.33 -0.45 14.2
11/9/2022 4:30:00 PM 10.87 51.566 0.665 8.31 0.1 13.88
11/9/2022 4:45:00 PM 10.8 51.44 0.665 8.28 -0.41 13.55
11/9/2022 5:00:00 PM 10.74 51.332 0.666 8.25 -0.39 13.19
11/9/2022 5:15:00 PM 10.67 51.206 0.666 8.24 -0.23 12.86
11/9/2022 5:30:00 PM 10.62 51.116 0.667 8.22 -0.16 12.53
11/9/2022 5:45:00 PM 10.57 51.026 0.667 8.19 -0.39 12.19
11/9/2022 6:00:00 PM 10.52 50.936 0.668 8.17 -0.25 11.91
11/9/2022 6:15:00 PM 10.49 50.882 0.668 8.15 -0.46 11.65
11/9/2022 6:30:00 PM 10.46 50.828 0.668 8.13 -0.25 11.44
11/9/2022 6:45:00 PM 10.43 50.774 0.669 8.12 -0.38 11.24
11/9/2022 7:00:00 PM 10.4 50.72 0.669 8.1 -0.32 11.09
11/9/2022 7:15:00 PM 10.38 50.684 0.669 8.1 -0.29 10.94
11/9/2022 7:30:00 PM 10.36 50.648 0.669 8.09 -0.27 10.84
11/9/2022 7:45:00 PM 10.33 50.594 0.669 8.08 0 10.74
11/9/2022 8:00:00 PM 10.31 50.558 0.669 8.08 -0.14 10.67
11/9/2022 8:15:00 PM 10.28 50.504 0.669 8.07 -0.26 10.57
11/9/2022 8:30:00 PM 10.25 50.45 0.67 8.07 -0.33 10.53
11/9/2022 8:45:00 PM 10.22 50.396 0.67 8.06 -0.37 10.46
11/9/2022 9:00:00 PM 10.19 50.342 0.67 8.06 -0.18 10.38
11/9/2022 9:15:00 PM 10.15 50.27 0.67 8.04 -0.41 10.35
11/9/2022 9:30:00 PM 10.12 50.216 0.67 8.04 -0.15 10.3
11/9/2022 9:45:00 PM 10.08 50.144 0.67 8.04 -0.12 10.25
11/9/2022 10:00:00 PM 10.04 50.072 0.67 8.03 0.14 10.19
11/9/2022 10:15:00 PM 10 50 0.67 8.03 -0.12 10.15
11/9/2022 10:30:00 PM 9.96 49.928 0.669 8.03 -0.27 10.09
11/9/2022 10:45:00 PM 9.92 49.856 0.669 8.02 0.02 10.06
11/9/2022 11:00:00 PM 9.88 49.784 0.669 8.02 -0.11 10.02
11/9/2022 11:15:00 PM 9.84 49.712 0.669 8.02 0.07 9.99
11/9/2022 11:30:00 PM 9.8 49.64 0.669 8.02 -0.02 9.94
11/9/2022 11:45:00 PM 9.76 49.568 0.669 8.01 0.31 9.91
11/10/2022 12:00:00 AM 9.72 49.496 0.668 8.01 -0.22 9.88
11/10/2022 12:15:00 AM 9.68 49.424 0.669 8 -0.17 9.84
11/10/2022 12:30:00 AM 9.64 49.352 0.668 8 -0.33 9.81
11/10/2022 12:45:00 AM 9.61 49.298 0.458 8.01 -0.1 9.8
11/10/2022 1:00:00 AM 9.57 49.226 0.434 8 -0.17 9.79
11/10/2022 1:15:00 AM 9.54 49.172 0.43 8 -0.01 9.76
11/10/2022 1:30:00 AM 9.51 49.118 0.469 7.99 -0.33 9.74
11/10/2022 1:45:00 AM 9.47 49.046 0.648 7.99 -0.24 9.72
11/10/2022 2:00:00 AM 9.44 48.992 0.641